<?xml version="1.0" encoding="UTF-8" standalone="no" ?><gpx xmlns="http://www.topografix.com/GPX/1/1" xmlns:gpxx="http://www.garmin.com/xmlschemas/GpxExtensions/v3" xmlns:wptx1="http://www.garmin.com/xmlschemas/WaypointExtension/v1" xmlns:gpxtpx="http://www.garmin.com/xmlschemas/TrackPointExtension/v1" creator="GuideVTT.com" version="1.1" xmlns:xsi="http://www.w3.org/2001/XMLSchema-instance" xsi:schemaLocation="http://www.topografix.com/GPX/1/1 http://www.topografix.com/GPX/1/1/gpx.xsd http://www.garmin.com/xmlschemas/GpxExtensions/v3 http://www8.garmin.com/xmlschemas/GpxExtensionsv3.xsd http://www.garmin.com/xmlschemas/WaypointExtension/v1 http://www8.garmin.com/xmlschemas/WaypointExtensionv1.xsd http://www.garmin.com/xmlschemas/TrackPointExtension/v1 http://www.garmin.com/xmlschemas/TrackPointExtensionv1.xsd">
<metadata><link href="http://www.garmin.com"><text>Garmin International</text></link><time>2013-06-22T15:13:50Z</time></metadata>
<trk><name>2023rp15.gpx</name><extensions><gpxx:TrackExtension><gpxx:DisplayColor>Cyan</gpxx:DisplayColor></gpxx:TrackExtension></extensions><trkseg>
<trkpt lat="46.74004" lon="6.45668"><ele>764.4</ele><time>2023-07-20T17:16:31Z</time></trkpt>
<trkpt lat="46.74006" lon="6.45667"><ele>766.8</ele><time>2023-07-20T17:16:32Z</time></trkpt>
<trkpt lat="46.74016" lon="6.45665"><ele>768</ele><time>2023-07-20T17:16:38Z</time></trkpt>
<trkpt lat="46.74025" lon="6.45659"><ele>769</ele><time>2023-07-20T17:16:46Z</time></trkpt>
<trkpt lat="46.74028" lon="6.45659"><ele>769.2</ele><time>2023-07-20T17:16:48Z</time></trkpt>
<trkpt lat="46.74031" lon="6.45658"><ele>769.4</ele><time>2023-07-20T17:16:50Z</time></trkpt>
<trkpt lat="46.74034" lon="6.45657"><ele>769.8</ele><time>2023-07-20T17:16:52Z</time></trkpt>
<trkpt lat="46.74036" lon="6.45657"><ele>770</ele><time>2023-07-20T17:16:54Z</time></trkpt>
<trkpt lat="46.74038" lon="6.45656"><ele>770.2</ele><time>2023-07-20T17:16:55Z</time></trkpt>
<trkpt lat="46.74041" lon="6.45658"><ele>770.4</ele><time>2023-07-20T17:16:57Z</time></trkpt>
<trkpt lat="46.74044" lon="6.45663"><ele>770.8</ele><time>2023-07-20T17:17:00Z</time></trkpt>
<trkpt lat="46.74046" lon="6.45664"><ele>771.2</ele><time>2023-07-20T17:17:02Z</time></trkpt>
<trkpt lat="46.74047" lon="6.45665"><ele>771.2</ele><time>2023-07-20T17:17:03Z</time></trkpt>
<trkpt lat="46.7405" lon="6.4567"><ele>771.8</ele><time>2023-07-20T17:17:07Z</time></trkpt>
<trkpt lat="46.7405" lon="6.45671"><ele>772</ele><time>2023-07-20T17:17:08Z</time></trkpt>
<trkpt lat="46.74052" lon="6.45671"><ele>772.2</ele><time>2023-07-20T17:17:09Z</time></trkpt>
<trkpt lat="46.74054" lon="6.4567"><ele>772.2</ele><time>2023-07-20T17:17:10Z</time></trkpt>
<trkpt lat="46.74055" lon="6.45669"><ele>772.2</ele><time>2023-07-20T17:17:11Z</time></trkpt>
<trkpt lat="46.74056" lon="6.45668"><ele>772.6</ele><time>2023-07-20T17:17:12Z</time></trkpt>
<trkpt lat="46.74061" lon="6.45666"><ele>773.2</ele><time>2023-07-20T17:17:15Z</time></trkpt>
<trkpt lat="46.74063" lon="6.45666"><ele>773.2</ele><time>2023-07-20T17:17:16Z</time></trkpt>
<trkpt lat="46.74064" lon="6.45665"><ele>773.4</ele><time>2023-07-20T17:17:17Z</time></trkpt>
<trkpt lat="46.74071" lon="6.45663"><ele>774</ele><time>2023-07-20T17:17:23Z</time></trkpt>
<trkpt lat="46.74073" lon="6.45662"><ele>774.4</ele><time>2023-07-20T17:17:26Z</time></trkpt>
<trkpt lat="46.74077" lon="6.4566"><ele>774.6</ele><time>2023-07-20T17:17:30Z</time></trkpt>
<trkpt lat="46.74084" lon="6.45656"><ele>775.6</ele><time>2023-07-20T17:17:36Z</time></trkpt>
<trkpt lat="46.74085" lon="6.45656"><ele>775.6</ele><time>2023-07-20T17:17:37Z</time></trkpt>
<trkpt lat="46.74092" lon="6.45651"><ele>776.6</ele><time>2023-07-20T17:17:44Z</time></trkpt>
<trkpt lat="46.74093" lon="6.45651"><ele>776.8</ele><time>2023-07-20T17:17:45Z</time></trkpt>
<trkpt lat="46.74101" lon="6.45651"><ele>777.8</ele><time>2023-07-20T17:17:52Z</time></trkpt>
<trkpt lat="46.74112" lon="6.4565"><ele>778.8</ele><time>2023-07-20T17:17:59Z</time></trkpt>
<trkpt lat="46.74116" lon="6.45649"><ele>779.8</ele><time>2023-07-20T17:18:04Z</time></trkpt>
<trkpt lat="46.74119" lon="6.45649"><ele>780</ele><time>2023-07-20T17:18:06Z</time></trkpt>
<trkpt lat="46.74124" lon="6.45655"><ele>780.8</ele><time>2023-07-20T17:18:12Z</time></trkpt>
<trkpt lat="46.74125" lon="6.45656"><ele>781</ele><time>2023-07-20T17:18:13Z</time></trkpt>
<trkpt lat="46.74128" lon="6.45657"><ele>782</ele><time>2023-07-20T17:18:16Z</time></trkpt>
<trkpt lat="46.7413" lon="6.45663"><ele>782.2</ele><time>2023-07-20T17:18:20Z</time></trkpt>
<trkpt lat="46.74136" lon="6.45673"><ele>782.8</ele><time>2023-07-20T17:18:27Z</time></trkpt>
<trkpt lat="46.74137" lon="6.45674"><ele>783</ele><time>2023-07-20T17:18:28Z</time></trkpt>
<trkpt lat="46.74141" lon="6.45682"><ele>783.8</ele><time>2023-07-20T17:18:34Z</time></trkpt>
<trkpt lat="46.74145" lon="6.45687"><ele>784.2</ele><time>2023-07-20T17:18:38Z</time></trkpt>
<trkpt lat="46.74149" lon="6.45691"><ele>785</ele><time>2023-07-20T17:18:42Z</time></trkpt>
<trkpt lat="46.74151" lon="6.45692"><ele>785.4</ele><time>2023-07-20T17:18:44Z</time></trkpt>
<trkpt lat="46.74156" lon="6.45695"><ele>786</ele><time>2023-07-20T17:18:49Z</time></trkpt>
<trkpt lat="46.74158" lon="6.45696"><ele>786.4</ele><time>2023-07-20T17:18:51Z</time></trkpt>
<trkpt lat="46.74161" lon="6.45697"><ele>786.6</ele><time>2023-07-20T17:18:54Z</time></trkpt>
<trkpt lat="46.74166" lon="6.45696"><ele>787.4</ele><time>2023-07-20T17:18:58Z</time></trkpt>
<trkpt lat="46.7417" lon="6.45693"><ele>787.6</ele><time>2023-07-20T17:19:01Z</time></trkpt>
<trkpt lat="46.74177" lon="6.45683"><ele>788.2</ele><time>2023-07-20T17:19:07Z</time></trkpt>
<trkpt lat="46.7418" lon="6.45679"><ele>788.6</ele><time>2023-07-20T17:19:10Z</time></trkpt>
<trkpt lat="46.74184" lon="6.45671"><ele>789</ele><time>2023-07-20T17:19:15Z</time></trkpt>
<trkpt lat="46.74188" lon="6.45666"><ele>789.8</ele><time>2023-07-20T17:19:19Z</time></trkpt>
<trkpt lat="46.74192" lon="6.4566"><ele>790.8</ele><time>2023-07-20T17:19:24Z</time></trkpt>
<trkpt lat="46.74192" lon="6.45658"><ele>790.8</ele><time>2023-07-20T17:19:25Z</time></trkpt>
<trkpt lat="46.74192" lon="6.45649"><ele>791.4</ele><time>2023-07-20T17:19:31Z</time></trkpt>
<trkpt lat="46.74194" lon="6.45636"><ele>792</ele><time>2023-07-20T17:19:37Z</time></trkpt>
<trkpt lat="46.74194" lon="6.45634"><ele>792</ele><time>2023-07-20T17:19:38Z</time></trkpt>
<trkpt lat="46.74195" lon="6.45622"><ele>793</ele><time>2023-07-20T17:19:43Z</time></trkpt>
<trkpt lat="46.74195" lon="6.45616"><ele>793.6</ele><time>2023-07-20T17:19:45Z</time></trkpt>
<trkpt lat="46.74197" lon="6.45607"><ele>794</ele><time>2023-07-20T17:19:49Z</time></trkpt>
<trkpt lat="46.74197" lon="6.45603"><ele>794.2</ele><time>2023-07-20T17:19:51Z</time></trkpt>
<trkpt lat="46.742" lon="6.4558"><ele>794.8</ele><time>2023-07-20T17:20:00Z</time></trkpt>
<trkpt lat="46.742" lon="6.45577"><ele>795</ele><time>2023-07-20T17:20:01Z</time></trkpt>
<trkpt lat="46.74202" lon="6.45557"><ele>795.8</ele><time>2023-07-20T17:20:09Z</time></trkpt>
<trkpt lat="46.74202" lon="6.45552"><ele>796.2</ele><time>2023-07-20T17:20:11Z</time></trkpt>
<trkpt lat="46.74204" lon="6.45532"><ele>796.8</ele><time>2023-07-20T17:20:19Z</time></trkpt>
<trkpt lat="46.74206" lon="6.45519"><ele>797.4</ele><time>2023-07-20T17:20:24Z</time></trkpt>
<trkpt lat="46.74208" lon="6.45503"><ele>798.2</ele><time>2023-07-20T17:20:30Z</time></trkpt>
<trkpt lat="46.74208" lon="6.45501"><ele>798.6</ele><time>2023-07-20T17:20:31Z</time></trkpt>
<trkpt lat="46.7421" lon="6.45483"><ele>799.2</ele><time>2023-07-20T17:20:38Z</time></trkpt>
<trkpt lat="46.7421" lon="6.45476"><ele>799.6</ele><time>2023-07-20T17:20:41Z</time></trkpt>
<trkpt lat="46.74212" lon="6.45461"><ele>800.2</ele><time>2023-07-20T17:20:47Z</time></trkpt>
<trkpt lat="46.74212" lon="6.45453"><ele>800.6</ele><time>2023-07-20T17:20:50Z</time></trkpt>
<trkpt lat="46.74214" lon="6.45434"><ele>801</ele><time>2023-07-20T17:20:58Z</time></trkpt>
<trkpt lat="46.74215" lon="6.45419"><ele>801.8</ele><time>2023-07-20T17:21:04Z</time></trkpt>
<trkpt lat="46.74216" lon="6.45411"><ele>802.8</ele><time>2023-07-20T17:21:08Z</time></trkpt>
<trkpt lat="46.74216" lon="6.45402"><ele>804</ele><time>2023-07-20T17:21:12Z</time></trkpt>
<trkpt lat="46.74215" lon="6.45384"><ele>804.8</ele><time>2023-07-20T17:21:19Z</time></trkpt>
<trkpt lat="46.74215" lon="6.45379"><ele>805</ele><time>2023-07-20T17:21:21Z</time></trkpt>
<trkpt lat="46.74214" lon="6.45365"><ele>805.8</ele><time>2023-07-20T17:21:27Z</time></trkpt>
<trkpt lat="46.74214" lon="6.45358"><ele>806</ele><time>2023-07-20T17:21:30Z</time></trkpt>
<trkpt lat="46.74214" lon="6.45343"><ele>807</ele><time>2023-07-20T17:21:36Z</time></trkpt>
<trkpt lat="46.74214" lon="6.45341"><ele>807</ele><time>2023-07-20T17:21:37Z</time></trkpt>
<trkpt lat="46.74217" lon="6.45323"><ele>808</ele><time>2023-07-20T17:21:45Z</time></trkpt>
<trkpt lat="46.74217" lon="6.45319"><ele>808.4</ele><time>2023-07-20T17:21:47Z</time></trkpt>
<trkpt lat="46.74217" lon="6.45309"><ele>809.2</ele><time>2023-07-20T17:21:52Z</time></trkpt>
<trkpt lat="46.74217" lon="6.45303"><ele>809.8</ele><time>2023-07-20T17:21:55Z</time></trkpt>
<trkpt lat="46.74218" lon="6.45294"><ele>810.2</ele><time>2023-07-20T17:22:00Z</time></trkpt>
<trkpt lat="46.74218" lon="6.45288"><ele>810.6</ele><time>2023-07-20T17:22:03Z</time></trkpt>
<trkpt lat="46.74217" lon="6.4528"><ele>811.2</ele><time>2023-07-20T17:22:07Z</time></trkpt>
<trkpt lat="46.74217" lon="6.45269"><ele>811.8</ele><time>2023-07-20T17:22:12Z</time></trkpt>
<trkpt lat="46.74217" lon="6.4526"><ele>812.4</ele><time>2023-07-20T17:22:16Z</time></trkpt>
<trkpt lat="46.74218" lon="6.45253"><ele>812.6</ele><time>2023-07-20T17:22:20Z</time></trkpt>
<trkpt lat="46.74217" lon="6.45242"><ele>813.6</ele><time>2023-07-20T17:22:25Z</time></trkpt>
<trkpt lat="46.74217" lon="6.45235"><ele>814.6</ele><time>2023-07-20T17:22:29Z</time></trkpt>
<trkpt lat="46.74217" lon="6.45232"><ele>814.8</ele><time>2023-07-20T17:22:30Z</time></trkpt>
<trkpt lat="46.74216" lon="6.45219"><ele>815.8</ele><time>2023-07-20T17:22:36Z</time></trkpt>
<trkpt lat="46.74216" lon="6.45215"><ele>816</ele><time>2023-07-20T17:22:38Z</time></trkpt>
<trkpt lat="46.74215" lon="6.45203"><ele>816.8</ele><time>2023-07-20T17:22:44Z</time></trkpt>
<trkpt lat="46.74216" lon="6.45199"><ele>817</ele><time>2023-07-20T17:22:46Z</time></trkpt>
<trkpt lat="46.74215" lon="6.45189"><ele>817.6</ele><time>2023-07-20T17:22:51Z</time></trkpt>
<trkpt lat="46.74215" lon="6.45184"><ele>818</ele><time>2023-07-20T17:22:53Z</time></trkpt>
<trkpt lat="46.74213" lon="6.4517"><ele>818.8</ele><time>2023-07-20T17:23:00Z</time></trkpt>
<trkpt lat="46.74213" lon="6.45167"><ele>819</ele><time>2023-07-20T17:23:02Z</time></trkpt>
<trkpt lat="46.74212" lon="6.45165"><ele>819.2</ele><time>2023-07-20T17:23:03Z</time></trkpt>
<trkpt lat="46.7421" lon="6.45159"><ele>819.4</ele><time>2023-07-20T17:23:06Z</time></trkpt>
<trkpt lat="46.7421" lon="6.45153"><ele>820</ele><time>2023-07-20T17:23:09Z</time></trkpt>
<trkpt lat="46.74208" lon="6.45142"><ele>820.8</ele><time>2023-07-20T17:23:15Z</time></trkpt>
<trkpt lat="46.74208" lon="6.45137"><ele>821.2</ele><time>2023-07-20T17:23:17Z</time></trkpt>
<trkpt lat="46.74206" lon="6.45121"><ele>822.2</ele><time>2023-07-20T17:23:24Z</time></trkpt>
<trkpt lat="46.74206" lon="6.45119"><ele>822.2</ele><time>2023-07-20T17:23:25Z</time></trkpt>
<trkpt lat="46.74201" lon="6.45104"><ele>823.2</ele><time>2023-07-20T17:23:33Z</time></trkpt>
<trkpt lat="46.742" lon="6.451"><ele>823.4</ele><time>2023-07-20T17:23:35Z</time></trkpt>
<trkpt lat="46.74198" lon="6.45086"><ele>824.4</ele><time>2023-07-20T17:23:42Z</time></trkpt>
<trkpt lat="46.74197" lon="6.45081"><ele>824.8</ele><time>2023-07-20T17:23:45Z</time></trkpt>
<trkpt lat="46.74195" lon="6.45071"><ele>825.4</ele><time>2023-07-20T17:23:50Z</time></trkpt>
<trkpt lat="46.74193" lon="6.45065"><ele>825.8</ele><time>2023-07-20T17:23:53Z</time></trkpt>
<trkpt lat="46.74189" lon="6.45052"><ele>826.4</ele><time>2023-07-20T17:23:59Z</time></trkpt>
<trkpt lat="46.74187" lon="6.45043"><ele>826.8</ele><time>2023-07-20T17:24:03Z</time></trkpt>
<trkpt lat="46.74184" lon="6.45034"><ele>827.6</ele><time>2023-07-20T17:24:08Z</time></trkpt>
<trkpt lat="46.74181" lon="6.45022"><ele>828.4</ele><time>2023-07-20T17:24:14Z</time></trkpt>
<trkpt lat="46.74181" lon="6.45019"><ele>828.6</ele><time>2023-07-20T17:24:15Z</time></trkpt>
<trkpt lat="46.74179" lon="6.45004"><ele>829.8</ele><time>2023-07-20T17:24:22Z</time></trkpt>
<trkpt lat="46.74178" lon="6.45002"><ele>830</ele><time>2023-07-20T17:24:23Z</time></trkpt>
<trkpt lat="46.74175" lon="6.44988"><ele>830.8</ele><time>2023-07-20T17:24:30Z</time></trkpt>
<trkpt lat="46.74173" lon="6.44981"><ele>831.4</ele><time>2023-07-20T17:24:33Z</time></trkpt>
<trkpt lat="46.74171" lon="6.44967"><ele>831.8</ele><time>2023-07-20T17:24:40Z</time></trkpt>
<trkpt lat="46.74169" lon="6.44961"><ele>832.6</ele><time>2023-07-20T17:24:44Z</time></trkpt>
<trkpt lat="46.74166" lon="6.44956"><ele>833</ele><time>2023-07-20T17:24:47Z</time></trkpt>
<trkpt lat="46.74166" lon="6.4495"><ele>833.4</ele><time>2023-07-20T17:24:50Z</time></trkpt>
<trkpt lat="46.74166" lon="6.44948"><ele>833.4</ele><time>2023-07-20T17:24:51Z</time></trkpt>
<trkpt lat="46.74166" lon="6.44942"><ele>833.8</ele><time>2023-07-20T17:24:54Z</time></trkpt>
<trkpt lat="46.74165" lon="6.44939"><ele>834</ele><time>2023-07-20T17:24:56Z</time></trkpt>
<trkpt lat="46.74161" lon="6.44929"><ele>834.2</ele><time>2023-07-20T17:25:02Z</time></trkpt>
<trkpt lat="46.74158" lon="6.44922"><ele>835</ele><time>2023-07-20T17:25:06Z</time></trkpt>
<trkpt lat="46.74157" lon="6.44916"><ele>835.6</ele><time>2023-07-20T17:25:09Z</time></trkpt>
<trkpt lat="46.74157" lon="6.44911"><ele>836.2</ele><time>2023-07-20T17:25:12Z</time></trkpt>
<trkpt lat="46.74154" lon="6.44902"><ele>836.6</ele><time>2023-07-20T17:25:17Z</time></trkpt>
<trkpt lat="46.74153" lon="6.44899"><ele>836.8</ele><time>2023-07-20T17:25:19Z</time></trkpt>
<trkpt lat="46.7415" lon="6.44892"><ele>837.4</ele><time>2023-07-20T17:25:23Z</time></trkpt>
<trkpt lat="46.74148" lon="6.44889"><ele>837.6</ele><time>2023-07-20T17:25:25Z</time></trkpt>
<trkpt lat="46.74146" lon="6.44885"><ele>838</ele><time>2023-07-20T17:25:27Z</time></trkpt>
<trkpt lat="46.74146" lon="6.44881"><ele>838.2</ele><time>2023-07-20T17:25:29Z</time></trkpt>
<trkpt lat="46.74143" lon="6.44876"><ele>838.4</ele><time>2023-07-20T17:25:32Z</time></trkpt>
<trkpt lat="46.74141" lon="6.44872"><ele>838.8</ele><time>2023-07-20T17:25:35Z</time></trkpt>
<trkpt lat="46.74141" lon="6.4487"><ele>839</ele><time>2023-07-20T17:25:37Z</time></trkpt>
<trkpt lat="46.74141" lon="6.44867"><ele>839.4</ele><time>2023-07-20T17:25:39Z</time></trkpt>
<trkpt lat="46.7414" lon="6.44865"><ele>839.4</ele><time>2023-07-20T17:25:40Z</time></trkpt>
<trkpt lat="46.7414" lon="6.44863"><ele>839.6</ele><time>2023-07-20T17:25:41Z</time></trkpt>
<trkpt lat="46.74142" lon="6.44858"><ele>840</ele><time>2023-07-20T17:25:44Z</time></trkpt>
<trkpt lat="46.74141" lon="6.44855"><ele>840.2</ele><time>2023-07-20T17:25:46Z</time></trkpt>
<trkpt lat="46.7414" lon="6.4485"><ele>840.4</ele><time>2023-07-20T17:25:49Z</time></trkpt>
<trkpt lat="46.7414" lon="6.44848"><ele>840.8</ele><time>2023-07-20T17:25:50Z</time></trkpt>
<trkpt lat="46.74144" lon="6.44839"><ele>841.6</ele><time>2023-07-20T17:25:55Z</time></trkpt>
<trkpt lat="46.74146" lon="6.44839"><ele>841.8</ele><time>2023-07-20T17:25:56Z</time></trkpt>
<trkpt lat="46.74153" lon="6.4484"><ele>842.2</ele><time>2023-07-20T17:26:01Z</time></trkpt>
<trkpt lat="46.74161" lon="6.44846"><ele>843</ele><time>2023-07-20T17:26:08Z</time></trkpt>
<trkpt lat="46.74162" lon="6.44847"><ele>843</ele><time>2023-07-20T17:26:09Z</time></trkpt>
<trkpt lat="46.74171" lon="6.44861"><ele>843.6</ele><time>2023-07-20T17:26:16Z</time></trkpt>
<trkpt lat="46.74176" lon="6.44874"><ele>844</ele><time>2023-07-20T17:26:22Z</time></trkpt>
<trkpt lat="46.74178" lon="6.44879"><ele>844.2</ele><time>2023-07-20T17:26:24Z</time></trkpt>
<trkpt lat="46.74187" lon="6.44889"><ele>845.2</ele><time>2023-07-20T17:26:30Z</time></trkpt>
<trkpt lat="46.74198" lon="6.44902"><ele>846</ele><time>2023-07-20T17:26:38Z</time></trkpt>
<trkpt lat="46.742" lon="6.44905"><ele>846.2</ele><time>2023-07-20T17:26:40Z</time></trkpt>
<trkpt lat="46.74209" lon="6.44912"><ele>847</ele><time>2023-07-20T17:26:46Z</time></trkpt>
<trkpt lat="46.74213" lon="6.44917"><ele>847.2</ele><time>2023-07-20T17:26:49Z</time></trkpt>
<trkpt lat="46.7422" lon="6.44925"><ele>847.6</ele><time>2023-07-20T17:26:54Z</time></trkpt>
<trkpt lat="46.74228" lon="6.44932"><ele>848.4</ele><time>2023-07-20T17:26:59Z</time></trkpt>
<trkpt lat="46.74232" lon="6.44937"><ele>848.8</ele><time>2023-07-20T17:27:02Z</time></trkpt>
<trkpt lat="46.74235" lon="6.4494"><ele>849.8</ele><time>2023-07-20T17:27:04Z</time></trkpt>
<trkpt lat="46.74241" lon="6.44948"><ele>850.8</ele><time>2023-07-20T17:27:09Z</time></trkpt>
<trkpt lat="46.74244" lon="6.44951"><ele>850.8</ele><time>2023-07-20T17:27:11Z</time></trkpt>
<trkpt lat="46.74252" lon="6.4496"><ele>851.4</ele><time>2023-07-20T17:27:18Z</time></trkpt>
<trkpt lat="46.74259" lon="6.44965"><ele>851.8</ele><time>2023-07-20T17:27:23Z</time></trkpt>
<trkpt lat="46.7426" lon="6.44966"><ele>851.8</ele><time>2023-07-20T17:27:24Z</time></trkpt>
<trkpt lat="46.7427" lon="6.44975"><ele>852.8</ele><time>2023-07-20T17:27:31Z</time></trkpt>
<trkpt lat="46.74271" lon="6.44976"><ele>853</ele><time>2023-07-20T17:27:32Z</time></trkpt>
<trkpt lat="46.74281" lon="6.44988"><ele>853.8</ele><time>2023-07-20T17:27:39Z</time></trkpt>
<trkpt lat="46.74286" lon="6.44993"><ele>854</ele><time>2023-07-20T17:27:42Z</time></trkpt>
<trkpt lat="46.74292" lon="6.44998"><ele>854.6</ele><time>2023-07-20T17:27:45Z</time></trkpt>
<trkpt lat="46.74298" lon="6.45004"><ele>855.2</ele><time>2023-07-20T17:27:50Z</time></trkpt>
<trkpt lat="46.74301" lon="6.45007"><ele>855.4</ele><time>2023-07-20T17:27:52Z</time></trkpt>
<trkpt lat="46.74309" lon="6.45014"><ele>856.2</ele><time>2023-07-20T17:27:57Z</time></trkpt>
<trkpt lat="46.74313" lon="6.45017"><ele>856.6</ele><time>2023-07-20T17:27:59Z</time></trkpt>
<trkpt lat="46.74318" lon="6.45021"><ele>857.4</ele><time>2023-07-20T17:28:03Z</time></trkpt>
<trkpt lat="46.74322" lon="6.45025"><ele>857.8</ele><time>2023-07-20T17:28:06Z</time></trkpt>
<trkpt lat="46.74327" lon="6.45033"><ele>858.4</ele><time>2023-07-20T17:28:11Z</time></trkpt>
<trkpt lat="46.74329" lon="6.45035"><ele>858.4</ele><time>2023-07-20T17:28:12Z</time></trkpt>
<trkpt lat="46.74336" lon="6.45045"><ele>859.4</ele><time>2023-07-20T17:28:17Z</time></trkpt>
<trkpt lat="46.74339" lon="6.45047"><ele>859.8</ele><time>2023-07-20T17:28:19Z</time></trkpt>
<trkpt lat="46.74343" lon="6.4505"><ele>860.4</ele><time>2023-07-20T17:28:22Z</time></trkpt>
<trkpt lat="46.74348" lon="6.45055"><ele>861</ele><time>2023-07-20T17:28:26Z</time></trkpt>
<trkpt lat="46.74353" lon="6.45061"><ele>861.4</ele><time>2023-07-20T17:28:30Z</time></trkpt>
<trkpt lat="46.74356" lon="6.45063"><ele>861.8</ele><time>2023-07-20T17:28:32Z</time></trkpt>
<trkpt lat="46.7436" lon="6.45067"><ele>862.4</ele><time>2023-07-20T17:28:36Z</time></trkpt>
<trkpt lat="46.74362" lon="6.45068"><ele>862.6</ele><time>2023-07-20T17:28:37Z</time></trkpt>
<trkpt lat="46.74369" lon="6.45071"><ele>863.4</ele><time>2023-07-20T17:28:42Z</time></trkpt>
<trkpt lat="46.7437" lon="6.45072"><ele>863.8</ele><time>2023-07-20T17:28:43Z</time></trkpt>
<trkpt lat="46.74376" lon="6.45071"><ele>864.6</ele><time>2023-07-20T17:28:47Z</time></trkpt>
<trkpt lat="46.74379" lon="6.45071"><ele>864.8</ele><time>2023-07-20T17:28:49Z</time></trkpt>
<trkpt lat="46.74386" lon="6.45075"><ele>865.6</ele><time>2023-07-20T17:28:55Z</time></trkpt>
<trkpt lat="46.74387" lon="6.45075"><ele>865.8</ele><time>2023-07-20T17:28:56Z</time></trkpt>
<trkpt lat="46.74393" lon="6.45079"><ele>866.6</ele><time>2023-07-20T17:29:02Z</time></trkpt>
<trkpt lat="46.74394" lon="6.45079"><ele>867</ele><time>2023-07-20T17:29:03Z</time></trkpt>
<trkpt lat="46.74402" lon="6.45083"><ele>867.8</ele><time>2023-07-20T17:29:10Z</time></trkpt>
<trkpt lat="46.74412" lon="6.45088"><ele>868.8</ele><time>2023-07-20T17:29:17Z</time></trkpt>
<trkpt lat="46.74414" lon="6.45089"><ele>869</ele><time>2023-07-20T17:29:18Z</time></trkpt>
<trkpt lat="46.74422" lon="6.45095"><ele>870</ele><time>2023-07-20T17:29:24Z</time></trkpt>
<trkpt lat="46.74425" lon="6.45098"><ele>870.6</ele><time>2023-07-20T17:29:26Z</time></trkpt>
<trkpt lat="46.74427" lon="6.45101"><ele>871.2</ele><time>2023-07-20T17:29:28Z</time></trkpt>
<trkpt lat="46.74432" lon="6.45111"><ele>871.8</ele><time>2023-07-20T17:29:33Z</time></trkpt>
<trkpt lat="46.74434" lon="6.45114"><ele>872.2</ele><time>2023-07-20T17:29:35Z</time></trkpt>
<trkpt lat="46.74439" lon="6.45124"><ele>873.2</ele><time>2023-07-20T17:29:41Z</time></trkpt>
<trkpt lat="46.74448" lon="6.45137"><ele>874.2</ele><time>2023-07-20T17:29:50Z</time></trkpt>
<trkpt lat="46.7445" lon="6.45138"><ele>874.4</ele><time>2023-07-20T17:29:51Z</time></trkpt>
<trkpt lat="46.74458" lon="6.45143"><ele>875.2</ele><time>2023-07-20T17:29:58Z</time></trkpt>
<trkpt lat="46.74459" lon="6.45143"><ele>875.4</ele><time>2023-07-20T17:29:59Z</time></trkpt>
<trkpt lat="46.74469" lon="6.45147"><ele>876.4</ele><time>2023-07-20T17:30:06Z</time></trkpt>
<trkpt lat="46.7447" lon="6.45148"><ele>876.4</ele><time>2023-07-20T17:30:07Z</time></trkpt>
<trkpt lat="46.74472" lon="6.45148"><ele>876.6</ele><time>2023-07-20T17:30:08Z</time></trkpt>
<trkpt lat="46.74478" lon="6.45148"><ele>876.8</ele><time>2023-07-20T17:30:12Z</time></trkpt>
<trkpt lat="46.74486" lon="6.45152"><ele>877.6</ele><time>2023-07-20T17:30:17Z</time></trkpt>
<trkpt lat="46.7449" lon="6.45155"><ele>878</ele><time>2023-07-20T17:30:20Z</time></trkpt>
<trkpt lat="46.74493" lon="6.45158"><ele>878.6</ele><time>2023-07-20T17:30:23Z</time></trkpt>
<trkpt lat="46.74496" lon="6.45162"><ele>879.2</ele><time>2023-07-20T17:30:26Z</time></trkpt>
<trkpt lat="46.74498" lon="6.45167"><ele>879.6</ele><time>2023-07-20T17:30:29Z</time></trkpt>
<trkpt lat="46.74501" lon="6.45172"><ele>880</ele><time>2023-07-20T17:30:32Z</time></trkpt>
<trkpt lat="46.74504" lon="6.4518"><ele>880.8</ele><time>2023-07-20T17:30:36Z</time></trkpt>
<trkpt lat="46.74507" lon="6.45186"><ele>881.4</ele><time>2023-07-20T17:30:39Z</time></trkpt>
<trkpt lat="46.74508" lon="6.45188"><ele>881.6</ele><time>2023-07-20T17:30:40Z</time></trkpt>
<trkpt lat="46.74509" lon="6.45189"><ele>882</ele><time>2023-07-20T17:30:41Z</time></trkpt>
<trkpt lat="46.74515" lon="6.45197"><ele>883</ele><time>2023-07-20T17:30:46Z</time></trkpt>
<trkpt lat="46.74517" lon="6.452"><ele>883.4</ele><time>2023-07-20T17:30:48Z</time></trkpt>
<trkpt lat="46.74523" lon="6.45205"><ele>884.2</ele><time>2023-07-20T17:30:52Z</time></trkpt>
<trkpt lat="46.74527" lon="6.4521"><ele>884.6</ele><time>2023-07-20T17:30:55Z</time></trkpt>
<trkpt lat="46.74533" lon="6.45215"><ele>885.2</ele><time>2023-07-20T17:30:59Z</time></trkpt>
<trkpt lat="46.74536" lon="6.45219"><ele>885.8</ele><time>2023-07-20T17:31:02Z</time></trkpt>
<trkpt lat="46.7454" lon="6.45224"><ele>886.4</ele><time>2023-07-20T17:31:05Z</time></trkpt>
<trkpt lat="46.74547" lon="6.45229"><ele>887</ele><time>2023-07-20T17:31:10Z</time></trkpt>
<trkpt lat="46.74551" lon="6.45232"><ele>887.4</ele><time>2023-07-20T17:31:13Z</time></trkpt>
<trkpt lat="46.74556" lon="6.45235"><ele>888</ele><time>2023-07-20T17:31:17Z</time></trkpt>
<trkpt lat="46.74558" lon="6.45236"><ele>888</ele><time>2023-07-20T17:31:18Z</time></trkpt>
<trkpt lat="46.74563" lon="6.45239"><ele>888.6</ele><time>2023-07-20T17:31:22Z</time></trkpt>
<trkpt lat="46.74569" lon="6.45242"><ele>889.2</ele><time>2023-07-20T17:31:26Z</time></trkpt>
<trkpt lat="46.74572" lon="6.45245"><ele>889.8</ele><time>2023-07-20T17:31:29Z</time></trkpt>
<trkpt lat="46.74578" lon="6.45248"><ele>890.8</ele><time>2023-07-20T17:31:34Z</time></trkpt>
<trkpt lat="46.7458" lon="6.45248"><ele>891</ele><time>2023-07-20T17:31:35Z</time></trkpt>
<trkpt lat="46.74585" lon="6.45249"><ele>892.2</ele><time>2023-07-20T17:31:39Z</time></trkpt>
<trkpt lat="46.74589" lon="6.45248"><ele>892.6</ele><time>2023-07-20T17:31:42Z</time></trkpt>
<trkpt lat="46.74596" lon="6.45249"><ele>893.2</ele><time>2023-07-20T17:31:47Z</time></trkpt>
<trkpt lat="46.74599" lon="6.45251"><ele>893.8</ele><time>2023-07-20T17:31:50Z</time></trkpt>
<trkpt lat="46.74604" lon="6.45253"><ele>894.2</ele><time>2023-07-20T17:31:54Z</time></trkpt>
<trkpt lat="46.74613" lon="6.45254"><ele>894.8</ele><time>2023-07-20T17:31:59Z</time></trkpt>
<trkpt lat="46.74619" lon="6.45253"><ele>895.4</ele><time>2023-07-20T17:32:03Z</time></trkpt>
<trkpt lat="46.74622" lon="6.45253"><ele>895.6</ele><time>2023-07-20T17:32:05Z</time></trkpt>
<trkpt lat="46.74628" lon="6.45252"><ele>896.4</ele><time>2023-07-20T17:32:10Z</time></trkpt>
<trkpt lat="46.7463" lon="6.45252"><ele>896.4</ele><time>2023-07-20T17:32:11Z</time></trkpt>
<trkpt lat="46.74639" lon="6.45253"><ele>897.6</ele><time>2023-07-20T17:32:18Z</time></trkpt>
<trkpt lat="46.74642" lon="6.45252"><ele>897.8</ele><time>2023-07-20T17:32:21Z</time></trkpt>
<trkpt lat="46.74648" lon="6.4525"><ele>898.6</ele><time>2023-07-20T17:32:26Z</time></trkpt>
<trkpt lat="46.74652" lon="6.45249"><ele>899.2</ele><time>2023-07-20T17:32:29Z</time></trkpt>
<trkpt lat="46.74656" lon="6.45248"><ele>899.6</ele><time>2023-07-20T17:32:32Z</time></trkpt>
<trkpt lat="46.74664" lon="6.45245"><ele>900.6</ele><time>2023-07-20T17:32:37Z</time></trkpt>
<trkpt lat="46.74672" lon="6.45242"><ele>901.6</ele><time>2023-07-20T17:32:44Z</time></trkpt>
<trkpt lat="46.74673" lon="6.45242"><ele>901.8</ele><time>2023-07-20T17:32:45Z</time></trkpt>
<trkpt lat="46.74686" lon="6.45244"><ele>902.8</ele><time>2023-07-20T17:32:52Z</time></trkpt>
<trkpt lat="46.74695" lon="6.45252"><ele>904</ele><time>2023-07-20T17:32:59Z</time></trkpt>
<trkpt lat="46.74696" lon="6.45254"><ele>904.2</ele><time>2023-07-20T17:33:00Z</time></trkpt>
<trkpt lat="46.74699" lon="6.45268"><ele>905.2</ele><time>2023-07-20T17:33:08Z</time></trkpt>
<trkpt lat="46.74701" lon="6.45283"><ele>906.2</ele><time>2023-07-20T17:33:15Z</time></trkpt>
<trkpt lat="46.74701" lon="6.45284"><ele>906.4</ele><time>2023-07-20T17:33:16Z</time></trkpt>
<trkpt lat="46.747" lon="6.453"><ele>907.2</ele><time>2023-07-20T17:33:23Z</time></trkpt>
<trkpt lat="46.747" lon="6.45302"><ele>907.4</ele><time>2023-07-20T17:33:24Z</time></trkpt>
<trkpt lat="46.74702" lon="6.45313"><ele>908.4</ele><time>2023-07-20T17:33:30Z</time></trkpt>
<trkpt lat="46.74702" lon="6.45315"><ele>908.6</ele><time>2023-07-20T17:33:31Z</time></trkpt>
<trkpt lat="46.74705" lon="6.4533"><ele>909.6</ele><time>2023-07-20T17:33:38Z</time></trkpt>
<trkpt lat="46.74706" lon="6.45332"><ele>909.6</ele><time>2023-07-20T17:33:39Z</time></trkpt>
<trkpt lat="46.74713" lon="6.45345"><ele>910.6</ele><time>2023-07-20T17:33:46Z</time></trkpt>
<trkpt lat="46.74714" lon="6.45347"><ele>910.8</ele><time>2023-07-20T17:33:47Z</time></trkpt>
<trkpt lat="46.74717" lon="6.45354"><ele>911.8</ele><time>2023-07-20T17:33:52Z</time></trkpt>
<trkpt lat="46.74719" lon="6.45359"><ele>912.2</ele><time>2023-07-20T17:33:55Z</time></trkpt>
<trkpt lat="46.74723" lon="6.45363"><ele>912.8</ele><time>2023-07-20T17:33:59Z</time></trkpt>
<trkpt lat="46.74727" lon="6.45368"><ele>913.4</ele><time>2023-07-20T17:34:03Z</time></trkpt>
<trkpt lat="46.7473" lon="6.45372"><ele>913.8</ele><time>2023-07-20T17:34:06Z</time></trkpt>
<trkpt lat="46.74733" lon="6.45378"><ele>914.4</ele><time>2023-07-20T17:34:10Z</time></trkpt>
<trkpt lat="46.74735" lon="6.45384"><ele>915</ele><time>2023-07-20T17:34:14Z</time></trkpt>
<trkpt lat="46.74736" lon="6.45389"><ele>915.6</ele><time>2023-07-20T17:34:17Z</time></trkpt>
<trkpt lat="46.74736" lon="6.45397"><ele>916</ele><time>2023-07-20T17:34:21Z</time></trkpt>
<trkpt lat="46.74734" lon="6.45407"><ele>916.8</ele><time>2023-07-20T17:34:26Z</time></trkpt>
<trkpt lat="46.74733" lon="6.4541"><ele>917.2</ele><time>2023-07-20T17:34:28Z</time></trkpt>
<trkpt lat="46.7473" lon="6.45416"><ele>917.8</ele><time>2023-07-20T17:34:32Z</time></trkpt>
<trkpt lat="46.74728" lon="6.4542"><ele>918.2</ele><time>2023-07-20T17:34:35Z</time></trkpt>
<trkpt lat="46.74728" lon="6.45424"><ele>918.6</ele><time>2023-07-20T17:34:37Z</time></trkpt>
<trkpt lat="46.74727" lon="6.4543"><ele>919.2</ele><time>2023-07-20T17:34:41Z</time></trkpt>
<trkpt lat="46.74726" lon="6.45436"><ele>919.8</ele><time>2023-07-20T17:34:44Z</time></trkpt>
<trkpt lat="46.74725" lon="6.45441"><ele>920.6</ele><time>2023-07-20T17:34:47Z</time></trkpt>
<trkpt lat="46.74726" lon="6.45449"><ele>921.2</ele><time>2023-07-20T17:34:52Z</time></trkpt>
<trkpt lat="46.74726" lon="6.45451"><ele>921.6</ele><time>2023-07-20T17:34:53Z</time></trkpt>
<trkpt lat="46.7473" lon="6.45458"><ele>922.6</ele><time>2023-07-20T17:34:59Z</time></trkpt>
<trkpt lat="46.74736" lon="6.45463"><ele>923.6</ele><time>2023-07-20T17:35:04Z</time></trkpt>
<trkpt lat="46.7474" lon="6.45464"><ele>924.4</ele><time>2023-07-20T17:35:08Z</time></trkpt>
<trkpt lat="46.74743" lon="6.45464"><ele>924.6</ele><time>2023-07-20T17:35:10Z</time></trkpt>
<trkpt lat="46.74747" lon="6.45462"><ele>925</ele><time>2023-07-20T17:35:13Z</time></trkpt>
<trkpt lat="46.74748" lon="6.45461"><ele>925</ele><time>2023-07-20T17:35:14Z</time></trkpt>
<trkpt lat="46.74752" lon="6.45458"><ele>925.8</ele><time>2023-07-20T17:35:18Z</time></trkpt>
<trkpt lat="46.74754" lon="6.45455"><ele>926.2</ele><time>2023-07-20T17:35:20Z</time></trkpt>
<trkpt lat="46.74756" lon="6.4545"><ele>926.8</ele><time>2023-07-20T17:35:23Z</time></trkpt>
<trkpt lat="46.74759" lon="6.45444"><ele>927.4</ele><time>2023-07-20T17:35:26Z</time></trkpt>
<trkpt lat="46.74761" lon="6.4544"><ele>928</ele><time>2023-07-20T17:35:28Z</time></trkpt>
<trkpt lat="46.74766" lon="6.4543"><ele>929.2</ele><time>2023-07-20T17:35:34Z</time></trkpt>
<trkpt lat="46.74774" lon="6.45419"><ele>930.4</ele><time>2023-07-20T17:35:41Z</time></trkpt>
<trkpt lat="46.74783" lon="6.45403"><ele>931.4</ele><time>2023-07-20T17:35:49Z</time></trkpt>
<trkpt lat="46.74783" lon="6.45401"><ele>931.4</ele><time>2023-07-20T17:35:50Z</time></trkpt>
<trkpt lat="46.74785" lon="6.45381"><ele>932.4</ele><time>2023-07-20T17:35:58Z</time></trkpt>
<trkpt lat="46.74786" lon="6.45379"><ele>932.6</ele><time>2023-07-20T17:35:59Z</time></trkpt>
<trkpt lat="46.74783" lon="6.45361"><ele>933.4</ele><time>2023-07-20T17:36:06Z</time></trkpt>
<trkpt lat="46.74782" lon="6.45356"><ele>933.6</ele><time>2023-07-20T17:36:08Z</time></trkpt>
<trkpt lat="46.74774" lon="6.45339"><ele>934.6</ele><time>2023-07-20T17:36:15Z</time></trkpt>
<trkpt lat="46.74764" lon="6.45317"><ele>935.6</ele><time>2023-07-20T17:36:24Z</time></trkpt>
<trkpt lat="46.74758" lon="6.45299"><ele>936.6</ele><time>2023-07-20T17:36:31Z</time></trkpt>
<trkpt lat="46.74758" lon="6.45293"><ele>937</ele><time>2023-07-20T17:36:33Z</time></trkpt>
<trkpt lat="46.74759" lon="6.45277"><ele>937.6</ele><time>2023-07-20T17:36:39Z</time></trkpt>
<trkpt lat="46.7476" lon="6.45272"><ele>938</ele><time>2023-07-20T17:36:41Z</time></trkpt>
<trkpt lat="46.74765" lon="6.45257"><ele>938.8</ele><time>2023-07-20T17:36:47Z</time></trkpt>
<trkpt lat="46.7477" lon="6.45248"><ele>939.4</ele><time>2023-07-20T17:36:51Z</time></trkpt>
<trkpt lat="46.74775" lon="6.45239"><ele>940</ele><time>2023-07-20T17:36:55Z</time></trkpt>
<trkpt lat="46.74782" lon="6.45231"><ele>940.6</ele><time>2023-07-20T17:37:00Z</time></trkpt>
<trkpt lat="46.74786" lon="6.45226"><ele>941</ele><time>2023-07-20T17:37:03Z</time></trkpt>
<trkpt lat="46.74793" lon="6.45218"><ele>941.6</ele><time>2023-07-20T17:37:08Z</time></trkpt>
<trkpt lat="46.74798" lon="6.4521"><ele>942.2</ele><time>2023-07-20T17:37:12Z</time></trkpt>
<trkpt lat="46.74802" lon="6.45199"><ele>942.6</ele><time>2023-07-20T17:37:16Z</time></trkpt>
<trkpt lat="46.74804" lon="6.45189"><ele>943.4</ele><time>2023-07-20T17:37:20Z</time></trkpt>
<trkpt lat="46.74807" lon="6.4518"><ele>944.4</ele><time>2023-07-20T17:37:24Z</time></trkpt>
<trkpt lat="46.74807" lon="6.45178"><ele>944.6</ele><time>2023-07-20T17:37:25Z</time></trkpt>
<trkpt lat="46.74812" lon="6.45163"><ele>945.6</ele><time>2023-07-20T17:37:31Z</time></trkpt>
<trkpt lat="46.74814" lon="6.45156"><ele>946</ele><time>2023-07-20T17:37:34Z</time></trkpt>
<trkpt lat="46.74816" lon="6.45147"><ele>946.6</ele><time>2023-07-20T17:37:38Z</time></trkpt>
<trkpt lat="46.74818" lon="6.45134"><ele>947.4</ele><time>2023-07-20T17:37:43Z</time></trkpt>
<trkpt lat="46.74818" lon="6.45127"><ele>947.8</ele><time>2023-07-20T17:37:46Z</time></trkpt>
<trkpt lat="46.74816" lon="6.45116"><ele>948.2</ele><time>2023-07-20T17:37:51Z</time></trkpt>
<trkpt lat="46.7481" lon="6.45105"><ele>949</ele><time>2023-07-20T17:37:56Z</time></trkpt>
<trkpt lat="46.74806" lon="6.45101"><ele>949.6</ele><time>2023-07-20T17:37:59Z</time></trkpt>
<trkpt lat="46.74798" lon="6.45097"><ele>950</ele><time>2023-07-20T17:38:03Z</time></trkpt>
<trkpt lat="46.74791" lon="6.45097"><ele>950.6</ele><time>2023-07-20T17:38:07Z</time></trkpt>
<trkpt lat="46.74786" lon="6.45097"><ele>951</ele><time>2023-07-20T17:38:10Z</time></trkpt>
<trkpt lat="46.74775" lon="6.45095"><ele>952</ele><time>2023-07-20T17:38:16Z</time></trkpt>
<trkpt lat="46.74773" lon="6.45094"><ele>952.2</ele><time>2023-07-20T17:38:17Z</time></trkpt>
<trkpt lat="46.74762" lon="6.45092"><ele>953.2</ele><time>2023-07-20T17:38:23Z</time></trkpt>
<trkpt lat="46.7476" lon="6.45092"><ele>953.4</ele><time>2023-07-20T17:38:24Z</time></trkpt>
<trkpt lat="46.74749" lon="6.45091"><ele>954.4</ele><time>2023-07-20T17:38:30Z</time></trkpt>
<trkpt lat="46.74747" lon="6.4509"><ele>954.6</ele><time>2023-07-20T17:38:32Z</time></trkpt>
<trkpt lat="46.74736" lon="6.45085"><ele>955.4</ele><time>2023-07-20T17:38:39Z</time></trkpt>
<trkpt lat="46.74723" lon="6.45076"><ele>956.4</ele><time>2023-07-20T17:38:46Z</time></trkpt>
<trkpt lat="46.74712" lon="6.45071"><ele>957.4</ele><time>2023-07-20T17:38:52Z</time></trkpt>
<trkpt lat="46.7471" lon="6.45069"><ele>957.6</ele><time>2023-07-20T17:38:53Z</time></trkpt>
<trkpt lat="46.74701" lon="6.45056"><ele>958.6</ele><time>2023-07-20T17:39:00Z</time></trkpt>
<trkpt lat="46.747" lon="6.45054"><ele>959</ele><time>2023-07-20T17:39:01Z</time></trkpt>
<trkpt lat="46.74698" lon="6.45045"><ele>959.8</ele><time>2023-07-20T17:39:05Z</time></trkpt>
<trkpt lat="46.74697" lon="6.4504"><ele>960</ele><time>2023-07-20T17:39:07Z</time></trkpt>
<trkpt lat="46.74697" lon="6.45028"><ele>961</ele><time>2023-07-20T17:39:12Z</time></trkpt>
<trkpt lat="46.74697" lon="6.45016"><ele>961.8</ele><time>2023-07-20T17:39:17Z</time></trkpt>
<trkpt lat="46.74696" lon="6.45011"><ele>962.2</ele><time>2023-07-20T17:39:19Z</time></trkpt>
<trkpt lat="46.74694" lon="6.44992"><ele>963.2</ele><time>2023-07-20T17:39:27Z</time></trkpt>
<trkpt lat="46.74691" lon="6.44981"><ele>964.2</ele><time>2023-07-20T17:39:32Z</time></trkpt>
<trkpt lat="46.74688" lon="6.44971"><ele>965.2</ele><time>2023-07-20T17:39:37Z</time></trkpt>
<trkpt lat="46.74687" lon="6.4497"><ele>965.4</ele><time>2023-07-20T17:39:38Z</time></trkpt>
<trkpt lat="46.74683" lon="6.44954"><ele>966.4</ele><time>2023-07-20T17:39:45Z</time></trkpt>
<trkpt lat="46.74683" lon="6.44951"><ele>966.6</ele><time>2023-07-20T17:39:46Z</time></trkpt>
<trkpt lat="46.7468" lon="6.44936"><ele>967.4</ele><time>2023-07-20T17:39:53Z</time></trkpt>
<trkpt lat="46.74677" lon="6.4493"><ele>967.6</ele><time>2023-07-20T17:39:56Z</time></trkpt>
<trkpt lat="46.74675" lon="6.44925"><ele>968.4</ele><time>2023-07-20T17:39:59Z</time></trkpt>
<trkpt lat="46.74671" lon="6.44918"><ele>969.2</ele><time>2023-07-20T17:40:03Z</time></trkpt>
<trkpt lat="46.74668" lon="6.44915"><ele>969.4</ele><time>2023-07-20T17:40:05Z</time></trkpt>
<trkpt lat="46.74661" lon="6.44905"><ele>970.2</ele><time>2023-07-20T17:40:11Z</time></trkpt>
<trkpt lat="46.74658" lon="6.44902"><ele>970.6</ele><time>2023-07-20T17:40:13Z</time></trkpt>
<trkpt lat="46.74652" lon="6.44895"><ele>971.4</ele><time>2023-07-20T17:40:19Z</time></trkpt>
<trkpt lat="46.74649" lon="6.44892"><ele>971.6</ele><time>2023-07-20T17:40:21Z</time></trkpt>
<trkpt lat="46.74643" lon="6.44882"><ele>972.4</ele><time>2023-07-20T17:40:27Z</time></trkpt>
<trkpt lat="46.7464" lon="6.44877"><ele>972.6</ele><time>2023-07-20T17:40:30Z</time></trkpt>
<trkpt lat="46.74637" lon="6.44865"><ele>973.6</ele><time>2023-07-20T17:40:36Z</time></trkpt>
<trkpt lat="46.74636" lon="6.44863"><ele>973.8</ele><time>2023-07-20T17:40:37Z</time></trkpt>
<trkpt lat="46.74635" lon="6.44847"><ele>974.8</ele><time>2023-07-20T17:40:44Z</time></trkpt>
<trkpt lat="46.74635" lon="6.44844"><ele>975</ele><time>2023-07-20T17:40:45Z</time></trkpt>
<trkpt lat="46.74636" lon="6.44833"><ele>975.8</ele><time>2023-07-20T17:40:50Z</time></trkpt>
<trkpt lat="46.74635" lon="6.44825"><ele>976.2</ele><time>2023-07-20T17:40:53Z</time></trkpt>
<trkpt lat="46.74633" lon="6.44817"><ele>977</ele><time>2023-07-20T17:40:57Z</time></trkpt>
<trkpt lat="46.74632" lon="6.44813"><ele>977.4</ele><time>2023-07-20T17:40:59Z</time></trkpt>
<trkpt lat="46.7463" lon="6.44806"><ele>978</ele><time>2023-07-20T17:41:03Z</time></trkpt>
<trkpt lat="46.74628" lon="6.44801"><ele>978.2</ele><time>2023-07-20T17:41:06Z</time></trkpt>
<trkpt lat="46.74626" lon="6.44798"><ele>978.6</ele><time>2023-07-20T17:41:08Z</time></trkpt>
<trkpt lat="46.74622" lon="6.44796"><ele>979</ele><time>2023-07-20T17:41:11Z</time></trkpt>
<trkpt lat="46.74619" lon="6.44795"><ele>979.4</ele><time>2023-07-20T17:41:13Z</time></trkpt>
<trkpt lat="46.74613" lon="6.44789"><ele>980.2</ele><time>2023-07-20T17:41:17Z</time></trkpt>
<trkpt lat="46.7461" lon="6.44788"><ele>980.6</ele><time>2023-07-20T17:41:19Z</time></trkpt>
<trkpt lat="46.74603" lon="6.44785"><ele>981.2</ele><time>2023-07-20T17:41:23Z</time></trkpt>
<trkpt lat="46.74596" lon="6.44781"><ele>982</ele><time>2023-07-20T17:41:27Z</time></trkpt>
<trkpt lat="46.74593" lon="6.4478"><ele>982.4</ele><time>2023-07-20T17:41:29Z</time></trkpt>
<trkpt lat="46.74584" lon="6.44773"><ele>983.2</ele><time>2023-07-20T17:41:35Z</time></trkpt>
<trkpt lat="46.74583" lon="6.44771"><ele>983.4</ele><time>2023-07-20T17:41:36Z</time></trkpt>
<trkpt lat="46.74576" lon="6.44763"><ele>984.6</ele><time>2023-07-20T17:41:43Z</time></trkpt>
<trkpt lat="46.74574" lon="6.44762"><ele>984.6</ele><time>2023-07-20T17:41:44Z</time></trkpt>
<trkpt lat="46.74565" lon="6.44754"><ele>985.6</ele><time>2023-07-20T17:41:51Z</time></trkpt>
<trkpt lat="46.74562" lon="6.44751"><ele>986</ele><time>2023-07-20T17:41:54Z</time></trkpt>
<trkpt lat="46.74555" lon="6.44745"><ele>986.8</ele><time>2023-07-20T17:42:00Z</time></trkpt>
<trkpt lat="46.74544" lon="6.44739"><ele>987.6</ele><time>2023-07-20T17:42:07Z</time></trkpt>
<trkpt lat="46.74544" lon="6.44738"><ele>987.8</ele><time>2023-07-20T17:42:08Z</time></trkpt>
<trkpt lat="46.74537" lon="6.44732"><ele>988.6</ele><time>2023-07-20T17:42:14Z</time></trkpt>
<trkpt lat="46.74534" lon="6.4473"><ele>988.8</ele><time>2023-07-20T17:42:16Z</time></trkpt>
<trkpt lat="46.74527" lon="6.44722"><ele>989.6</ele><time>2023-07-20T17:42:22Z</time></trkpt>
<trkpt lat="46.74525" lon="6.44718"><ele>989.8</ele><time>2023-07-20T17:42:24Z</time></trkpt>
<trkpt lat="46.7452" lon="6.44709"><ele>990.8</ele><time>2023-07-20T17:42:30Z</time></trkpt>
<trkpt lat="46.74519" lon="6.44707"><ele>991</ele><time>2023-07-20T17:42:31Z</time></trkpt>
<trkpt lat="46.74512" lon="6.44698"><ele>992</ele><time>2023-07-20T17:42:37Z</time></trkpt>
<trkpt lat="46.7451" lon="6.44696"><ele>992.2</ele><time>2023-07-20T17:42:39Z</time></trkpt>
<trkpt lat="46.74502" lon="6.44687"><ele>993</ele><time>2023-07-20T17:42:45Z</time></trkpt>
<trkpt lat="46.74499" lon="6.44684"><ele>993.4</ele><time>2023-07-20T17:42:47Z</time></trkpt>
<trkpt lat="46.74493" lon="6.44679"><ele>994</ele><time>2023-07-20T17:42:52Z</time></trkpt>
<trkpt lat="46.74489" lon="6.44676"><ele>994.6</ele><time>2023-07-20T17:42:54Z</time></trkpt>
<trkpt lat="46.74485" lon="6.44669"><ele>995.2</ele><time>2023-07-20T17:42:58Z</time></trkpt>
<trkpt lat="46.74481" lon="6.44665"><ele>995.4</ele><time>2023-07-20T17:43:01Z</time></trkpt>
<trkpt lat="46.74468" lon="6.44654"><ele>996.2</ele><time>2023-07-20T17:43:08Z</time></trkpt>
<trkpt lat="46.74454" lon="6.44638"><ele>996.8</ele><time>2023-07-20T17:43:16Z</time></trkpt>
<trkpt lat="46.7445" lon="6.44634"><ele>996.8</ele><time>2023-07-20T17:43:18Z</time></trkpt>
<trkpt lat="46.74442" lon="6.44627"><ele>997.4</ele><time>2023-07-20T17:43:22Z</time></trkpt>
<trkpt lat="46.74437" lon="6.44622"><ele>997.6</ele><time>2023-07-20T17:43:25Z</time></trkpt>
<trkpt lat="46.74424" lon="6.44608"><ele>998.2</ele><time>2023-07-20T17:43:31Z</time></trkpt>
<trkpt lat="46.74417" lon="6.44601"><ele>998.6</ele><time>2023-07-20T17:43:34Z</time></trkpt>
<trkpt lat="46.74409" lon="6.44591"><ele>999</ele><time>2023-07-20T17:43:38Z</time></trkpt>
<trkpt lat="46.74401" lon="6.44582"><ele>999.6</ele><time>2023-07-20T17:43:42Z</time></trkpt>
<trkpt lat="46.74393" lon="6.44573"><ele>1000.2</ele><time>2023-07-20T17:43:46Z</time></trkpt>
<trkpt lat="46.7438" lon="6.44558"><ele>1000.8</ele><time>2023-07-20T17:43:53Z</time></trkpt>
<trkpt lat="46.74378" lon="6.44556"><ele>1000.8</ele><time>2023-07-20T17:43:54Z</time></trkpt>
<trkpt lat="46.74359" lon="6.44534"><ele>1001.6</ele><time>2023-07-20T17:44:03Z</time></trkpt>
<trkpt lat="46.74357" lon="6.44532"><ele>1001.8</ele><time>2023-07-20T17:44:04Z</time></trkpt>
<trkpt lat="46.7434" lon="6.44512"><ele>1002.6</ele><time>2023-07-20T17:44:12Z</time></trkpt>
<trkpt lat="46.74335" lon="6.44507"><ele>1002.8</ele><time>2023-07-20T17:44:14Z</time></trkpt>
<trkpt lat="46.74324" lon="6.44494"><ele>1003.2</ele><time>2023-07-20T17:44:19Z</time></trkpt>
<trkpt lat="46.74308" lon="6.4447"><ele>1003.6</ele><time>2023-07-20T17:44:27Z</time></trkpt>
<trkpt lat="46.74306" lon="6.44464"><ele>1004</ele><time>2023-07-20T17:44:29Z</time></trkpt>
<trkpt lat="46.74304" lon="6.44455"><ele>1005</ele><time>2023-07-20T17:44:33Z</time></trkpt>
<trkpt lat="46.74303" lon="6.44453"><ele>1005.4</ele><time>2023-07-20T17:44:34Z</time></trkpt>
<trkpt lat="46.74298" lon="6.4444"><ele>1006.6</ele><time>2023-07-20T17:44:40Z</time></trkpt>
<trkpt lat="46.74293" lon="6.44424"><ele>1007.6</ele><time>2023-07-20T17:44:47Z</time></trkpt>
<trkpt lat="46.74293" lon="6.44422"><ele>1007.6</ele><time>2023-07-20T17:44:48Z</time></trkpt>
<trkpt lat="46.74288" lon="6.44409"><ele>1008.4</ele><time>2023-07-20T17:44:54Z</time></trkpt>
<trkpt lat="46.74288" lon="6.44406"><ele>1008.6</ele><time>2023-07-20T17:44:55Z</time></trkpt>
<trkpt lat="46.74285" lon="6.44393"><ele>1009.4</ele><time>2023-07-20T17:45:01Z</time></trkpt>
<trkpt lat="46.74285" lon="6.4439"><ele>1009.8</ele><time>2023-07-20T17:45:03Z</time></trkpt>
<trkpt lat="46.74279" lon="6.44374"><ele>1010.8</ele><time>2023-07-20T17:45:10Z</time></trkpt>
<trkpt lat="46.74274" lon="6.44359"><ele>1011.8</ele><time>2023-07-20T17:45:17Z</time></trkpt>
<trkpt lat="46.74274" lon="6.44356"><ele>1012</ele><time>2023-07-20T17:45:18Z</time></trkpt>
<trkpt lat="46.7427" lon="6.44343"><ele>1013</ele><time>2023-07-20T17:45:25Z</time></trkpt>
<trkpt lat="46.7427" lon="6.44341"><ele>1013</ele><time>2023-07-20T17:45:26Z</time></trkpt>
<trkpt lat="46.74265" lon="6.44328"><ele>1014</ele><time>2023-07-20T17:45:32Z</time></trkpt>
<trkpt lat="46.74263" lon="6.44323"><ele>1014.2</ele><time>2023-07-20T17:45:34Z</time></trkpt>
<trkpt lat="46.74261" lon="6.44314"><ele>1014.8</ele><time>2023-07-20T17:45:38Z</time></trkpt>
<trkpt lat="46.7426" lon="6.44305"><ele>1015.4</ele><time>2023-07-20T17:45:42Z</time></trkpt>
<trkpt lat="46.7426" lon="6.44295"><ele>1016</ele><time>2023-07-20T17:45:46Z</time></trkpt>
<trkpt lat="46.74259" lon="6.44286"><ele>1016.4</ele><time>2023-07-20T17:45:50Z</time></trkpt>
<trkpt lat="46.74257" lon="6.44281"><ele>1016.6</ele><time>2023-07-20T17:45:52Z</time></trkpt>
<trkpt lat="46.74257" lon="6.44279"><ele>1016.8</ele><time>2023-07-20T17:45:53Z</time></trkpt>
<trkpt lat="46.74255" lon="6.44264"><ele>1017.6</ele><time>2023-07-20T17:45:59Z</time></trkpt>
<trkpt lat="46.74255" lon="6.44262"><ele>1017.8</ele><time>2023-07-20T17:46:00Z</time></trkpt>
<trkpt lat="46.74252" lon="6.44249"><ele>1018.8</ele><time>2023-07-20T17:46:05Z</time></trkpt>
<trkpt lat="46.74251" lon="6.44245"><ele>1019</ele><time>2023-07-20T17:46:07Z</time></trkpt>
<trkpt lat="46.74247" lon="6.44235"><ele>1019.8</ele><time>2023-07-20T17:46:11Z</time></trkpt>
<trkpt lat="46.74244" lon="6.44228"><ele>1020.8</ele><time>2023-07-20T17:46:14Z</time></trkpt>
<trkpt lat="46.74243" lon="6.44223"><ele>1020.8</ele><time>2023-07-20T17:46:16Z</time></trkpt>
<trkpt lat="46.7424" lon="6.4421"><ele>1021.8</ele><time>2023-07-20T17:46:22Z</time></trkpt>
<trkpt lat="46.7424" lon="6.44205"><ele>1022</ele><time>2023-07-20T17:46:24Z</time></trkpt>
<trkpt lat="46.74236" lon="6.44191"><ele>1022.8</ele><time>2023-07-20T17:46:30Z</time></trkpt>
<trkpt lat="46.74236" lon="6.44186"><ele>1023</ele><time>2023-07-20T17:46:32Z</time></trkpt>
<trkpt lat="46.74233" lon="6.44171"><ele>1023.8</ele><time>2023-07-20T17:46:39Z</time></trkpt>
<trkpt lat="46.74233" lon="6.44169"><ele>1024</ele><time>2023-07-20T17:46:40Z</time></trkpt>
<trkpt lat="46.74228" lon="6.44156"><ele>1024.6</ele><time>2023-07-20T17:46:46Z</time></trkpt>
<trkpt lat="46.74225" lon="6.44142"><ele>1025.2</ele><time>2023-07-20T17:46:52Z</time></trkpt>
<trkpt lat="46.74223" lon="6.4413"><ele>1026.2</ele><time>2023-07-20T17:46:58Z</time></trkpt>
<trkpt lat="46.74223" lon="6.44127"><ele>1026.6</ele><time>2023-07-20T17:46:59Z</time></trkpt>
<trkpt lat="46.7422" lon="6.44117"><ele>1027.4</ele><time>2023-07-20T17:47:04Z</time></trkpt>
<trkpt lat="46.74219" lon="6.44112"><ele>1027.6</ele><time>2023-07-20T17:47:06Z</time></trkpt>
<trkpt lat="46.74217" lon="6.44101"><ele>1028.4</ele><time>2023-07-20T17:47:11Z</time></trkpt>
<trkpt lat="46.74217" lon="6.44091"><ele>1028.8</ele><time>2023-07-20T17:47:15Z</time></trkpt>
<trkpt lat="46.74216" lon="6.44083"><ele>1029.4</ele><time>2023-07-20T17:47:19Z</time></trkpt>
<trkpt lat="46.74216" lon="6.44078"><ele>1029.6</ele><time>2023-07-20T17:47:21Z</time></trkpt>
<trkpt lat="46.74215" lon="6.44074"><ele>1030</ele><time>2023-07-20T17:47:23Z</time></trkpt>
<trkpt lat="46.74212" lon="6.44068"><ele>1030.4</ele><time>2023-07-20T17:47:26Z</time></trkpt>
<trkpt lat="46.74211" lon="6.44065"><ele>1030.6</ele><time>2023-07-20T17:47:27Z</time></trkpt>
<trkpt lat="46.74207" lon="6.44052"><ele>1031.8</ele><time>2023-07-20T17:47:33Z</time></trkpt>
<trkpt lat="46.74208" lon="6.4405"><ele>1031.8</ele><time>2023-07-20T17:47:34Z</time></trkpt>
<trkpt lat="46.74212" lon="6.44043"><ele>1032.2</ele><time>2023-07-20T17:47:38Z</time></trkpt>
<trkpt lat="46.74214" lon="6.44031"><ele>1032.6</ele><time>2023-07-20T17:47:43Z</time></trkpt>
<trkpt lat="46.74214" lon="6.44029"><ele>1032.8</ele><time>2023-07-20T17:47:44Z</time></trkpt>
<trkpt lat="46.74214" lon="6.44016"><ele>1033.6</ele><time>2023-07-20T17:47:51Z</time></trkpt>
<trkpt lat="46.74215" lon="6.4401"><ele>1034</ele><time>2023-07-20T17:47:54Z</time></trkpt>
<trkpt lat="46.74215" lon="6.44003"><ele>1034.4</ele><time>2023-07-20T17:47:57Z</time></trkpt>
<trkpt lat="46.74215" lon="6.43999"><ele>1034.8</ele><time>2023-07-20T17:47:59Z</time></trkpt>
<trkpt lat="46.74215" lon="6.43998"><ele>1035.2</ele><time>2023-07-20T17:48:00Z</time></trkpt>
<trkpt lat="46.74215" lon="6.43991"><ele>1035.8</ele><time>2023-07-20T17:48:03Z</time></trkpt>
<trkpt lat="46.74215" lon="6.43983"><ele>1036.2</ele><time>2023-07-20T17:48:07Z</time></trkpt>
<trkpt lat="46.74215" lon="6.43976"><ele>1036.4</ele><time>2023-07-20T17:48:10Z</time></trkpt>
<trkpt lat="46.74216" lon="6.4396"><ele>1037.2</ele><time>2023-07-20T17:48:18Z</time></trkpt>
<trkpt lat="46.74216" lon="6.43956"><ele>1037.4</ele><time>2023-07-20T17:48:20Z</time></trkpt>
<trkpt lat="46.74217" lon="6.43946"><ele>1038</ele><time>2023-07-20T17:48:25Z</time></trkpt>
<trkpt lat="46.74217" lon="6.4394"><ele>1038.4</ele><time>2023-07-20T17:48:28Z</time></trkpt>
<trkpt lat="46.74217" lon="6.43934"><ele>1038.8</ele><time>2023-07-20T17:48:31Z</time></trkpt>
<trkpt lat="46.74218" lon="6.43925"><ele>1039.2</ele><time>2023-07-20T17:48:36Z</time></trkpt>
<trkpt lat="46.7422" lon="6.43919"><ele>1039.6</ele><time>2023-07-20T17:48:39Z</time></trkpt>
<trkpt lat="46.74223" lon="6.43907"><ele>1040.4</ele><time>2023-07-20T17:48:45Z</time></trkpt>
<trkpt lat="46.74223" lon="6.43905"><ele>1040.6</ele><time>2023-07-20T17:48:46Z</time></trkpt>
<trkpt lat="46.74226" lon="6.43895"><ele>1041.8</ele><time>2023-07-20T17:48:51Z</time></trkpt>
<trkpt lat="46.74228" lon="6.43891"><ele>1042.4</ele><time>2023-07-20T17:48:53Z</time></trkpt>
<trkpt lat="46.7423" lon="6.43884"><ele>1042.8</ele><time>2023-07-20T17:48:57Z</time></trkpt>
<trkpt lat="46.74231" lon="6.43875"><ele>1043.2</ele><time>2023-07-20T17:49:01Z</time></trkpt>
<trkpt lat="46.74232" lon="6.43863"><ele>1044</ele><time>2023-07-20T17:49:07Z</time></trkpt>
<trkpt lat="46.74232" lon="6.43858"><ele>1044.2</ele><time>2023-07-20T17:49:09Z</time></trkpt>
<trkpt lat="46.7423" lon="6.43845"><ele>1044.8</ele><time>2023-07-20T17:49:16Z</time></trkpt>
<trkpt lat="46.74229" lon="6.43841"><ele>1045</ele><time>2023-07-20T17:49:18Z</time></trkpt>
<trkpt lat="46.74228" lon="6.43832"><ele>1045.8</ele><time>2023-07-20T17:49:23Z</time></trkpt>
<trkpt lat="46.74227" lon="6.43828"><ele>1046</ele><time>2023-07-20T17:49:25Z</time></trkpt>
<trkpt lat="46.74224" lon="6.43814"><ele>1046.8</ele><time>2023-07-20T17:49:32Z</time></trkpt>
<trkpt lat="46.74223" lon="6.4381"><ele>1047.2</ele><time>2023-07-20T17:49:34Z</time></trkpt>
<trkpt lat="46.74221" lon="6.43802"><ele>1047.6</ele><time>2023-07-20T17:49:38Z</time></trkpt>
<trkpt lat="46.7422" lon="6.43789"><ele>1048.2</ele><time>2023-07-20T17:49:44Z</time></trkpt>
<trkpt lat="46.7422" lon="6.43788"><ele>1048.4</ele><time>2023-07-20T17:49:45Z</time></trkpt>
<trkpt lat="46.74218" lon="6.43776"><ele>1049</ele><time>2023-07-20T17:49:51Z</time></trkpt>
<trkpt lat="46.74218" lon="6.43772"><ele>1049.2</ele><time>2023-07-20T17:49:53Z</time></trkpt>
<trkpt lat="46.74218" lon="6.43764"><ele>1050.2</ele><time>2023-07-20T17:49:57Z</time></trkpt>
<trkpt lat="46.74218" lon="6.43761"><ele>1050.4</ele><time>2023-07-20T17:49:58Z</time></trkpt>
<trkpt lat="46.74217" lon="6.43747"><ele>1051.2</ele><time>2023-07-20T17:50:04Z</time></trkpt>
<trkpt lat="46.74217" lon="6.43745"><ele>1051.6</ele><time>2023-07-20T17:50:05Z</time></trkpt>
<trkpt lat="46.74221" lon="6.43731"><ele>1052.6</ele><time>2023-07-20T17:50:11Z</time></trkpt>
<trkpt lat="46.74222" lon="6.43727"><ele>1052.6</ele><time>2023-07-20T17:50:13Z</time></trkpt>
<trkpt lat="46.74225" lon="6.43716"><ele>1053.2</ele><time>2023-07-20T17:50:19Z</time></trkpt>
<trkpt lat="46.74228" lon="6.43709"><ele>1053.6</ele><time>2023-07-20T17:50:23Z</time></trkpt>
<trkpt lat="46.74231" lon="6.43701"><ele>1054.2</ele><time>2023-07-20T17:50:27Z</time></trkpt>
<trkpt lat="46.74233" lon="6.43696"><ele>1054.6</ele><time>2023-07-20T17:50:30Z</time></trkpt>
<trkpt lat="46.74234" lon="6.43687"><ele>1055</ele><time>2023-07-20T17:50:34Z</time></trkpt>
<trkpt lat="46.74236" lon="6.43675"><ele>1055.6</ele><time>2023-07-20T17:50:40Z</time></trkpt>
<trkpt lat="46.74237" lon="6.43673"><ele>1055.8</ele><time>2023-07-20T17:50:41Z</time></trkpt>
<trkpt lat="46.7424" lon="6.43656"><ele>1056.6</ele><time>2023-07-20T17:50:49Z</time></trkpt>
<trkpt lat="46.74241" lon="6.43654"><ele>1056.8</ele><time>2023-07-20T17:50:50Z</time></trkpt>
<trkpt lat="46.74244" lon="6.43642"><ele>1057.8</ele><time>2023-07-20T17:50:56Z</time></trkpt>
<trkpt lat="46.74245" lon="6.4364"><ele>1057.8</ele><time>2023-07-20T17:50:57Z</time></trkpt>
<trkpt lat="46.74249" lon="6.43628"><ele>1059</ele><time>2023-07-20T17:51:04Z</time></trkpt>
<trkpt lat="46.74254" lon="6.43615"><ele>1059.8</ele><time>2023-07-20T17:51:12Z</time></trkpt>
<trkpt lat="46.74255" lon="6.43613"><ele>1060</ele><time>2023-07-20T17:51:13Z</time></trkpt>
<trkpt lat="46.74259" lon="6.43601"><ele>1060.4</ele><time>2023-07-20T17:51:19Z</time></trkpt>
<trkpt lat="46.74263" lon="6.43594"><ele>1061</ele><time>2023-07-20T17:51:23Z</time></trkpt>
<trkpt lat="46.74265" lon="6.43589"><ele>1061.4</ele><time>2023-07-20T17:51:26Z</time></trkpt>
<trkpt lat="46.74268" lon="6.43582"><ele>1062.2</ele><time>2023-07-20T17:51:30Z</time></trkpt>
<trkpt lat="46.74271" lon="6.43575"><ele>1062.8</ele><time>2023-07-20T17:51:34Z</time></trkpt>
<trkpt lat="46.74273" lon="6.43568"><ele>1063.2</ele><time>2023-07-20T17:51:38Z</time></trkpt>
<trkpt lat="46.74276" lon="6.43564"><ele>1063.4</ele><time>2023-07-20T17:51:41Z</time></trkpt>
<trkpt lat="46.74282" lon="6.43553"><ele>1064.2</ele><time>2023-07-20T17:51:48Z</time></trkpt>
<trkpt lat="46.74286" lon="6.43541"><ele>1065.2</ele><time>2023-07-20T17:51:55Z</time></trkpt>
<trkpt lat="46.74287" lon="6.43539"><ele>1065.2</ele><time>2023-07-20T17:51:56Z</time></trkpt>
<trkpt lat="46.74293" lon="6.43528"><ele>1066</ele><time>2023-07-20T17:52:03Z</time></trkpt>
<trkpt lat="46.74294" lon="6.43525"><ele>1066.2</ele><time>2023-07-20T17:52:05Z</time></trkpt>
<trkpt lat="46.74298" lon="6.43517"><ele>1066.8</ele><time>2023-07-20T17:52:10Z</time></trkpt>
<trkpt lat="46.743" lon="6.43511"><ele>1067.2</ele><time>2023-07-20T17:52:14Z</time></trkpt>
<trkpt lat="46.74305" lon="6.43503"><ele>1068</ele><time>2023-07-20T17:52:19Z</time></trkpt>
<trkpt lat="46.74307" lon="6.43498"><ele>1068.4</ele><time>2023-07-20T17:52:22Z</time></trkpt>
<trkpt lat="46.74311" lon="6.43491"><ele>1069.6</ele><time>2023-07-20T17:52:26Z</time></trkpt>
<trkpt lat="46.74313" lon="6.43487"><ele>1069.8</ele><time>2023-07-20T17:52:28Z</time></trkpt>
<trkpt lat="46.74319" lon="6.43473"><ele>1070.6</ele><time>2023-07-20T17:52:35Z</time></trkpt>
<trkpt lat="46.74326" lon="6.4346"><ele>1071.8</ele><time>2023-07-20T17:52:43Z</time></trkpt>
<trkpt lat="46.74334" lon="6.43448"><ele>1072.4</ele><time>2023-07-20T17:52:52Z</time></trkpt>
<trkpt lat="46.74336" lon="6.43445"><ele>1072.8</ele><time>2023-07-20T17:52:54Z</time></trkpt>
<trkpt lat="46.74343" lon="6.43434"><ele>1073.6</ele><time>2023-07-20T17:53:00Z</time></trkpt>
<trkpt lat="46.74347" lon="6.43427"><ele>1074</ele><time>2023-07-20T17:53:04Z</time></trkpt>
<trkpt lat="46.7435" lon="6.4342"><ele>1074.2</ele><time>2023-07-20T17:53:07Z</time></trkpt>
<trkpt lat="46.74353" lon="6.43415"><ele>1075</ele><time>2023-07-20T17:53:10Z</time></trkpt>
<trkpt lat="46.7436" lon="6.43406"><ele>1076</ele><time>2023-07-20T17:53:17Z</time></trkpt>
<trkpt lat="46.74362" lon="6.43403"><ele>1076.2</ele><time>2023-07-20T17:53:19Z</time></trkpt>
<trkpt lat="46.74371" lon="6.43391"><ele>1077</ele><time>2023-07-20T17:53:26Z</time></trkpt>
<trkpt lat="46.74375" lon="6.43385"><ele>1077.2</ele><time>2023-07-20T17:53:29Z</time></trkpt>
<trkpt lat="46.74385" lon="6.4338"><ele>1077.8</ele><time>2023-07-20T17:53:35Z</time></trkpt>
<trkpt lat="46.74391" lon="6.43379"><ele>1078.4</ele><time>2023-07-20T17:53:39Z</time></trkpt>
<trkpt lat="46.74396" lon="6.43379"><ele>1079</ele><time>2023-07-20T17:53:42Z</time></trkpt>
<trkpt lat="46.74402" lon="6.43381"><ele>1079.6</ele><time>2023-07-20T17:53:45Z</time></trkpt>
<trkpt lat="46.74408" lon="6.43385"><ele>1080</ele><time>2023-07-20T17:53:48Z</time></trkpt>
<trkpt lat="46.74415" lon="6.43391"><ele>1080.6</ele><time>2023-07-20T17:53:52Z</time></trkpt>
<trkpt lat="46.74421" lon="6.43396"><ele>1081.2</ele><time>2023-07-20T17:53:56Z</time></trkpt>
<trkpt lat="46.74426" lon="6.43401"><ele>1081.6</ele><time>2023-07-20T17:53:59Z</time></trkpt>
<trkpt lat="46.74434" lon="6.43407"><ele>1082.4</ele><time>2023-07-20T17:54:04Z</time></trkpt>
<trkpt lat="46.74439" lon="6.43412"><ele>1082.8</ele><time>2023-07-20T17:54:07Z</time></trkpt>
<trkpt lat="46.74448" lon="6.43416"><ele>1083.2</ele><time>2023-07-20T17:54:11Z</time></trkpt>
<trkpt lat="46.74457" lon="6.43421"><ele>1083.8</ele><time>2023-07-20T17:54:15Z</time></trkpt>
<trkpt lat="46.74463" lon="6.43423"><ele>1084.2</ele><time>2023-07-20T17:54:18Z</time></trkpt>
<trkpt lat="46.74474" lon="6.43425"><ele>1084.6</ele><time>2023-07-20T17:54:23Z</time></trkpt>
<trkpt lat="46.74478" lon="6.43425"><ele>1084.8</ele><time>2023-07-20T17:54:25Z</time></trkpt>
<trkpt lat="46.74481" lon="6.43424"><ele>1084.8</ele><time>2023-07-20T17:54:27Z</time></trkpt>
<trkpt lat="46.74494" lon="6.43417"><ele>1085.2</ele><time>2023-07-20T17:54:33Z</time></trkpt>
<trkpt lat="46.74508" lon="6.43405"><ele>1085.8</ele><time>2023-07-20T17:54:40Z</time></trkpt>
<trkpt lat="46.74525" lon="6.43381"><ele>1085.6</ele><time>2023-07-20T17:54:49Z</time></trkpt>
<trkpt lat="46.74531" lon="6.4337"><ele>1086</ele><time>2023-07-20T17:54:52Z</time></trkpt>
<trkpt lat="46.74538" lon="6.43357"><ele>1086.2</ele><time>2023-07-20T17:54:55Z</time></trkpt>
<trkpt lat="46.74547" lon="6.43338"><ele>1086.6</ele><time>2023-07-20T17:55:00Z</time></trkpt>
<trkpt lat="46.74551" lon="6.43328"><ele>1087</ele><time>2023-07-20T17:55:02Z</time></trkpt>
<trkpt lat="46.74555" lon="6.43306"><ele>1087.6</ele><time>2023-07-20T17:55:06Z</time></trkpt>
<trkpt lat="46.74554" lon="6.43274"><ele>1086.2</ele><time>2023-07-20T17:55:12Z</time></trkpt>
<trkpt lat="46.74546" lon="6.43215"><ele>1086.8</ele><time>2023-07-20T17:55:22Z</time></trkpt>
<trkpt lat="46.74544" lon="6.43171"><ele>1087.8</ele><time>2023-07-20T17:55:29Z</time></trkpt>
<trkpt lat="46.74545" lon="6.4316"><ele>1088</ele><time>2023-07-20T17:55:31Z</time></trkpt>
<trkpt lat="46.7455" lon="6.4313"><ele>1088.6</ele><time>2023-07-20T17:55:36Z</time></trkpt>
<trkpt lat="46.74551" lon="6.431"><ele>1089</ele><time>2023-07-20T17:55:41Z</time></trkpt>
<trkpt lat="46.7455" lon="6.43094"><ele>1089</ele><time>2023-07-20T17:55:42Z</time></trkpt>
<trkpt lat="46.74549" lon="6.43088"><ele>1089</ele><time>2023-07-20T17:55:43Z</time></trkpt>
<trkpt lat="46.7454" lon="6.43064"><ele>1089.6</ele><time>2023-07-20T17:55:48Z</time></trkpt>
<trkpt lat="46.74518" lon="6.43009"><ele>1089.4</ele><time>2023-07-20T17:55:59Z</time></trkpt>
<trkpt lat="46.74507" lon="6.42977"><ele>1089.4</ele><time>2023-07-20T17:56:05Z</time></trkpt>
<trkpt lat="46.74501" lon="6.42963"><ele>1089.2</ele><time>2023-07-20T17:56:08Z</time></trkpt>
<trkpt lat="46.74487" lon="6.42927"><ele>1090.4</ele><time>2023-07-20T17:56:16Z</time></trkpt>
<trkpt lat="46.74486" lon="6.42905"><ele>1091</ele><time>2023-07-20T17:56:21Z</time></trkpt>
<trkpt lat="46.74488" lon="6.42902"><ele>1091</ele><time>2023-07-20T17:56:22Z</time></trkpt>
<trkpt lat="46.74492" lon="6.42901"><ele>1091.2</ele><time>2023-07-20T17:56:24Z</time></trkpt>
<trkpt lat="46.74495" lon="6.42903"><ele>1091.2</ele><time>2023-07-20T17:56:25Z</time></trkpt>
<trkpt lat="46.74499" lon="6.42911"><ele>1091.4</ele><time>2023-07-20T17:56:28Z</time></trkpt>
<trkpt lat="46.74503" lon="6.42921"><ele>1091.8</ele><time>2023-07-20T17:56:31Z</time></trkpt>
<trkpt lat="46.74511" lon="6.42942"><ele>1092.6</ele><time>2023-07-20T17:56:38Z</time></trkpt>
<trkpt lat="46.74514" lon="6.42948"><ele>1093</ele><time>2023-07-20T17:56:40Z</time></trkpt>
<trkpt lat="46.74518" lon="6.42957"><ele>1093.4</ele><time>2023-07-20T17:56:43Z</time></trkpt>
<trkpt lat="46.74523" lon="6.42966"><ele>1093.8</ele><time>2023-07-20T17:56:46Z</time></trkpt>
<trkpt lat="46.74525" lon="6.42968"><ele>1094</ele><time>2023-07-20T17:56:47Z</time></trkpt>
<trkpt lat="46.74536" lon="6.42984"><ele>1095</ele><time>2023-07-20T17:56:54Z</time></trkpt>
<trkpt lat="46.74538" lon="6.4299"><ele>1095.2</ele><time>2023-07-20T17:56:56Z</time></trkpt>
<trkpt lat="46.74546" lon="6.43"><ele>1096</ele><time>2023-07-20T17:57:01Z</time></trkpt>
<trkpt lat="46.74549" lon="6.43007"><ele>1096.4</ele><time>2023-07-20T17:57:04Z</time></trkpt>
<trkpt lat="46.74556" lon="6.43018"><ele>1097.2</ele><time>2023-07-20T17:57:09Z</time></trkpt>
<trkpt lat="46.74557" lon="6.4302"><ele>1097.4</ele><time>2023-07-20T17:57:10Z</time></trkpt>
<trkpt lat="46.74564" lon="6.43034"><ele>1098.2</ele><time>2023-07-20T17:57:16Z</time></trkpt>
<trkpt lat="46.74567" lon="6.43038"><ele>1098.6</ele><time>2023-07-20T17:57:18Z</time></trkpt>
<trkpt lat="46.74572" lon="6.43045"><ele>1099.2</ele><time>2023-07-20T17:57:22Z</time></trkpt>
<trkpt lat="46.74577" lon="6.43054"><ele>1099.6</ele><time>2023-07-20T17:57:26Z</time></trkpt>
<trkpt lat="46.74584" lon="6.43064"><ele>1100.4</ele><time>2023-07-20T17:57:31Z</time></trkpt>
<trkpt lat="46.74588" lon="6.43068"><ele>1100.6</ele><time>2023-07-20T17:57:33Z</time></trkpt>
<trkpt lat="46.74599" lon="6.43078"><ele>1101.4</ele><time>2023-07-20T17:57:39Z</time></trkpt>
<trkpt lat="46.74601" lon="6.43079"><ele>1101.6</ele><time>2023-07-20T17:57:40Z</time></trkpt>
<trkpt lat="46.74613" lon="6.43089"><ele>1102.6</ele><time>2023-07-20T17:57:47Z</time></trkpt>
<trkpt lat="46.74624" lon="6.43101"><ele>1103.6</ele><time>2023-07-20T17:57:54Z</time></trkpt>
<trkpt lat="46.74629" lon="6.43113"><ele>1104.6</ele><time>2023-07-20T17:58:00Z</time></trkpt>
<trkpt lat="46.7463" lon="6.43117"><ele>1105</ele><time>2023-07-20T17:58:02Z</time></trkpt>
<trkpt lat="46.74631" lon="6.43127"><ele>1105.8</ele><time>2023-07-20T17:58:07Z</time></trkpt>
<trkpt lat="46.74633" lon="6.43132"><ele>1106</ele><time>2023-07-20T17:58:10Z</time></trkpt>
<trkpt lat="46.74636" lon="6.43141"><ele>1106.8</ele><time>2023-07-20T17:58:15Z</time></trkpt>
<trkpt lat="46.74636" lon="6.43143"><ele>1107</ele><time>2023-07-20T17:58:16Z</time></trkpt>
<trkpt lat="46.74641" lon="6.43151"><ele>1108</ele><time>2023-07-20T17:58:22Z</time></trkpt>
<trkpt lat="46.74642" lon="6.43153"><ele>1108</ele><time>2023-07-20T17:58:23Z</time></trkpt>
<trkpt lat="46.74646" lon="6.43167"><ele>1109</ele><time>2023-07-20T17:58:30Z</time></trkpt>
<trkpt lat="46.74647" lon="6.4317"><ele>1109.2</ele><time>2023-07-20T17:58:31Z</time></trkpt>
<trkpt lat="46.74652" lon="6.43184"><ele>1110.2</ele><time>2023-07-20T17:58:37Z</time></trkpt>
<trkpt lat="46.74655" lon="6.43196"><ele>1111.2</ele><time>2023-07-20T17:58:45Z</time></trkpt>
<trkpt lat="46.74656" lon="6.43198"><ele>1111.4</ele><time>2023-07-20T17:58:46Z</time></trkpt>
<trkpt lat="46.7466" lon="6.43209"><ele>1111.8</ele><time>2023-07-20T17:58:51Z</time></trkpt>
<trkpt lat="46.74662" lon="6.43216"><ele>1112.4</ele><time>2023-07-20T17:58:54Z</time></trkpt>
<trkpt lat="46.74667" lon="6.43225"><ele>1113</ele><time>2023-07-20T17:59:00Z</time></trkpt>
<trkpt lat="46.7467" lon="6.43235"><ele>1113.4</ele><time>2023-07-20T17:59:05Z</time></trkpt>
<trkpt lat="46.74672" lon="6.43241"><ele>1113.8</ele><time>2023-07-20T17:59:08Z</time></trkpt>
<trkpt lat="46.74677" lon="6.43253"><ele>1114.8</ele><time>2023-07-20T17:59:15Z</time></trkpt>
<trkpt lat="46.74677" lon="6.43255"><ele>1114.8</ele><time>2023-07-20T17:59:16Z</time></trkpt>
<trkpt lat="46.74682" lon="6.43268"><ele>1115.8</ele><time>2023-07-20T17:59:22Z</time></trkpt>
<trkpt lat="46.74685" lon="6.43273"><ele>1116.2</ele><time>2023-07-20T17:59:25Z</time></trkpt>
<trkpt lat="46.7469" lon="6.43284"><ele>1117</ele><time>2023-07-20T17:59:31Z</time></trkpt>
<trkpt lat="46.7469" lon="6.43286"><ele>1117.2</ele><time>2023-07-20T17:59:32Z</time></trkpt>
<trkpt lat="46.74694" lon="6.43298"><ele>1117.8</ele><time>2023-07-20T17:59:39Z</time></trkpt>
<trkpt lat="46.74696" lon="6.43302"><ele>1118.2</ele><time>2023-07-20T17:59:41Z</time></trkpt>
<trkpt lat="46.747" lon="6.43312"><ele>1119</ele><time>2023-07-20T17:59:46Z</time></trkpt>
<trkpt lat="46.74702" lon="6.43317"><ele>1119.2</ele><time>2023-07-20T17:59:48Z</time></trkpt>
<trkpt lat="46.74707" lon="6.43327"><ele>1120</ele><time>2023-07-20T17:59:54Z</time></trkpt>
<trkpt lat="46.74708" lon="6.43329"><ele>1120.2</ele><time>2023-07-20T17:59:55Z</time></trkpt>
<trkpt lat="46.74713" lon="6.43345"><ele>1121.4</ele><time>2023-07-20T18:00:03Z</time></trkpt>
<trkpt lat="46.74719" lon="6.4336"><ele>1122.4</ele><time>2023-07-20T18:00:11Z</time></trkpt>
<trkpt lat="46.74723" lon="6.43375"><ele>1123.4</ele><time>2023-07-20T18:00:19Z</time></trkpt>
<trkpt lat="46.74724" lon="6.43376"><ele>1123.6</ele><time>2023-07-20T18:00:20Z</time></trkpt>
<trkpt lat="46.74726" lon="6.4339"><ele>1124.4</ele><time>2023-07-20T18:00:26Z</time></trkpt>
<trkpt lat="46.74727" lon="6.43392"><ele>1124.6</ele><time>2023-07-20T18:00:27Z</time></trkpt>
<trkpt lat="46.74729" lon="6.43407"><ele>1125.4</ele><time>2023-07-20T18:00:33Z</time></trkpt>
<trkpt lat="46.74729" lon="6.43411"><ele>1125.8</ele><time>2023-07-20T18:00:35Z</time></trkpt>
<trkpt lat="46.74731" lon="6.43426"><ele>1126.6</ele><time>2023-07-20T18:00:42Z</time></trkpt>
<trkpt lat="46.74731" lon="6.43431"><ele>1126.8</ele><time>2023-07-20T18:00:44Z</time></trkpt>
<trkpt lat="46.74733" lon="6.4344"><ele>1127</ele><time>2023-07-20T18:00:48Z</time></trkpt>
<trkpt lat="46.74737" lon="6.43458"><ele>1127.8</ele><time>2023-07-20T18:00:55Z</time></trkpt>
<trkpt lat="46.74738" lon="6.43463"><ele>1128.2</ele><time>2023-07-20T18:00:57Z</time></trkpt>
<trkpt lat="46.7474" lon="6.4347"><ele>1129</ele><time>2023-07-20T18:01:00Z</time></trkpt>
<trkpt lat="46.74743" lon="6.43479"><ele>1129.6</ele><time>2023-07-20T18:01:04Z</time></trkpt>
<trkpt lat="46.74751" lon="6.43499"><ele>1130</ele><time>2023-07-20T18:01:12Z</time></trkpt>
<trkpt lat="46.74758" lon="6.43516"><ele>1130.6</ele><time>2023-07-20T18:01:19Z</time></trkpt>
<trkpt lat="46.7476" lon="6.43521"><ele>1130.6</ele><time>2023-07-20T18:01:21Z</time></trkpt>
<trkpt lat="46.74762" lon="6.43534"><ele>1131.2</ele><time>2023-07-20T18:01:26Z</time></trkpt>
<trkpt lat="46.74766" lon="6.43551"><ele>1131.8</ele><time>2023-07-20T18:01:32Z</time></trkpt>
<trkpt lat="46.74767" lon="6.43557"><ele>1132.2</ele><time>2023-07-20T18:01:34Z</time></trkpt>
<trkpt lat="46.7477" lon="6.43569"><ele>1132.6</ele><time>2023-07-20T18:01:38Z</time></trkpt>
<trkpt lat="46.74775" lon="6.43588"><ele>1133.4</ele><time>2023-07-20T18:01:44Z</time></trkpt>
<trkpt lat="46.74776" lon="6.43595"><ele>1133.6</ele><time>2023-07-20T18:01:46Z</time></trkpt>
<trkpt lat="46.74778" lon="6.43624"><ele>1134.2</ele><time>2023-07-20T18:01:54Z</time></trkpt>
<trkpt lat="46.74778" lon="6.43627"><ele>1134.4</ele><time>2023-07-20T18:01:55Z</time></trkpt>
<trkpt lat="46.74778" lon="6.43645"><ele>1134.8</ele><time>2023-07-20T18:02:00Z</time></trkpt>
<trkpt lat="46.74777" lon="6.43668"><ele>1135.4</ele><time>2023-07-20T18:02:06Z</time></trkpt>
<trkpt lat="46.74776" lon="6.43681"><ele>1135.8</ele><time>2023-07-20T18:02:10Z</time></trkpt>
<trkpt lat="46.74774" lon="6.43707"><ele>1136.4</ele><time>2023-07-20T18:02:17Z</time></trkpt>
<trkpt lat="46.74774" lon="6.4371"><ele>1136.4</ele><time>2023-07-20T18:02:18Z</time></trkpt>
<trkpt lat="46.74776" lon="6.4373"><ele>1137.4</ele><time>2023-07-20T18:02:24Z</time></trkpt>
<trkpt lat="46.74776" lon="6.43734"><ele>1137.6</ele><time>2023-07-20T18:02:25Z</time></trkpt>
<trkpt lat="46.74781" lon="6.43766"><ele>1138.8</ele><time>2023-07-20T18:02:35Z</time></trkpt>
<trkpt lat="46.74785" lon="6.43785"><ele>1139.6</ele><time>2023-07-20T18:02:42Z</time></trkpt>
<trkpt lat="46.74786" lon="6.43791"><ele>1140</ele><time>2023-07-20T18:02:44Z</time></trkpt>
<trkpt lat="46.74787" lon="6.43794"><ele>1140</ele><time>2023-07-20T18:02:45Z</time></trkpt>
<trkpt lat="46.7479" lon="6.43813"><ele>1141</ele><time>2023-07-20T18:02:52Z</time></trkpt>
<trkpt lat="46.74791" lon="6.43821"><ele>1141.4</ele><time>2023-07-20T18:02:55Z</time></trkpt>
<trkpt lat="46.74793" lon="6.43833"><ele>1142</ele><time>2023-07-20T18:03:00Z</time></trkpt>
<trkpt lat="46.74794" lon="6.43844"><ele>1142.6</ele><time>2023-07-20T18:03:04Z</time></trkpt>
<trkpt lat="46.74795" lon="6.43849"><ele>1143</ele><time>2023-07-20T18:03:06Z</time></trkpt>
<trkpt lat="46.74799" lon="6.43869"><ele>1144.2</ele><time>2023-07-20T18:03:14Z</time></trkpt>
<trkpt lat="46.748" lon="6.43874"><ele>1144.4</ele><time>2023-07-20T18:03:16Z</time></trkpt>
<trkpt lat="46.74803" lon="6.43894"><ele>1145.4</ele><time>2023-07-20T18:03:24Z</time></trkpt>
<trkpt lat="46.74803" lon="6.43897"><ele>1145.6</ele><time>2023-07-20T18:03:25Z</time></trkpt>
<trkpt lat="46.74805" lon="6.43906"><ele>1146.6</ele><time>2023-07-20T18:03:29Z</time></trkpt>
<trkpt lat="46.74806" lon="6.43914"><ele>1146.8</ele><time>2023-07-20T18:03:32Z</time></trkpt>
<trkpt lat="46.7481" lon="6.43936"><ele>1147.6</ele><time>2023-07-20T18:03:41Z</time></trkpt>
<trkpt lat="46.74812" lon="6.43953"><ele>1148.8</ele><time>2023-07-20T18:03:48Z</time></trkpt>
<trkpt lat="46.74816" lon="6.43974"><ele>1149.8</ele><time>2023-07-20T18:03:56Z</time></trkpt>
<trkpt lat="46.74816" lon="6.43976"><ele>1150</ele><time>2023-07-20T18:03:57Z</time></trkpt>
<trkpt lat="46.7482" lon="6.43993"><ele>1151</ele><time>2023-07-20T18:04:04Z</time></trkpt>
<trkpt lat="46.74821" lon="6.43998"><ele>1151.2</ele><time>2023-07-20T18:04:06Z</time></trkpt>
<trkpt lat="46.74824" lon="6.4401"><ele>1152</ele><time>2023-07-20T18:04:11Z</time></trkpt>
<trkpt lat="46.74827" lon="6.44017"><ele>1152.4</ele><time>2023-07-20T18:04:14Z</time></trkpt>
<trkpt lat="46.74834" lon="6.44036"><ele>1153</ele><time>2023-07-20T18:04:22Z</time></trkpt>
<trkpt lat="46.74836" lon="6.4404"><ele>1153.2</ele><time>2023-07-20T18:04:24Z</time></trkpt>
<trkpt lat="46.74841" lon="6.44051"><ele>1154.2</ele><time>2023-07-20T18:04:29Z</time></trkpt>
<trkpt lat="46.74845" lon="6.44058"><ele>1155</ele><time>2023-07-20T18:04:33Z</time></trkpt>
<trkpt lat="46.74846" lon="6.4406"><ele>1155.2</ele><time>2023-07-20T18:04:34Z</time></trkpt>
<trkpt lat="46.74851" lon="6.44069"><ele>1156.4</ele><time>2023-07-20T18:04:39Z</time></trkpt>
<trkpt lat="46.74854" lon="6.44076"><ele>1156.6</ele><time>2023-07-20T18:04:42Z</time></trkpt>
<trkpt lat="46.7486" lon="6.44088"><ele>1157.4</ele><time>2023-07-20T18:04:48Z</time></trkpt>
<trkpt lat="46.74863" lon="6.44092"><ele>1157.6</ele><time>2023-07-20T18:04:50Z</time></trkpt>
<trkpt lat="46.7487" lon="6.44098"><ele>1158.4</ele><time>2023-07-20T18:04:55Z</time></trkpt>
<trkpt lat="46.74871" lon="6.44101"><ele>1158.4</ele><time>2023-07-20T18:04:56Z</time></trkpt>
<trkpt lat="46.74872" lon="6.44104"><ele>1158.6</ele><time>2023-07-20T18:04:57Z</time></trkpt>
<trkpt lat="46.7488" lon="6.44119"><ele>1159.4</ele><time>2023-07-20T18:05:05Z</time></trkpt>
<trkpt lat="46.74889" lon="6.44135"><ele>1160.6</ele><time>2023-07-20T18:05:13Z</time></trkpt>
<trkpt lat="46.74893" lon="6.44141"><ele>1160.8</ele><time>2023-07-20T18:05:16Z</time></trkpt>
<trkpt lat="46.74897" lon="6.44151"><ele>1161.6</ele><time>2023-07-20T18:05:21Z</time></trkpt>
<trkpt lat="46.74902" lon="6.44159"><ele>1162.2</ele><time>2023-07-20T18:05:25Z</time></trkpt>
<trkpt lat="46.74906" lon="6.4417"><ele>1162.8</ele><time>2023-07-20T18:05:30Z</time></trkpt>
<trkpt lat="46.74909" lon="6.4418"><ele>1163.4</ele><time>2023-07-20T18:05:34Z</time></trkpt>
<trkpt lat="46.74913" lon="6.44189"><ele>1164</ele><time>2023-07-20T18:05:38Z</time></trkpt>
<trkpt lat="46.74914" lon="6.44195"><ele>1164.4</ele><time>2023-07-20T18:05:41Z</time></trkpt>
<trkpt lat="46.74919" lon="6.44207"><ele>1165</ele><time>2023-07-20T18:05:46Z</time></trkpt>
<trkpt lat="46.74924" lon="6.4422"><ele>1165.8</ele><time>2023-07-20T18:05:52Z</time></trkpt>
<trkpt lat="46.74925" lon="6.44222"><ele>1166.2</ele><time>2023-07-20T18:05:53Z</time></trkpt>
<trkpt lat="46.74932" lon="6.44243"><ele>1167.2</ele><time>2023-07-20T18:06:01Z</time></trkpt>
<trkpt lat="46.74933" lon="6.44246"><ele>1167.2</ele><time>2023-07-20T18:06:02Z</time></trkpt>
<trkpt lat="46.74939" lon="6.44264"><ele>1168.4</ele><time>2023-07-20T18:06:10Z</time></trkpt>
<trkpt lat="46.74941" lon="6.44269"><ele>1168.6</ele><time>2023-07-20T18:06:12Z</time></trkpt>
<trkpt lat="46.74944" lon="6.44283"><ele>1169.4</ele><time>2023-07-20T18:06:18Z</time></trkpt>
<trkpt lat="46.74945" lon="6.44291"><ele>1169.8</ele><time>2023-07-20T18:06:21Z</time></trkpt>
<trkpt lat="46.74949" lon="6.44304"><ele>1170.6</ele><time>2023-07-20T18:06:26Z</time></trkpt>
<trkpt lat="46.74954" lon="6.44319"><ele>1171.4</ele><time>2023-07-20T18:06:32Z</time></trkpt>
<trkpt lat="46.74957" lon="6.44325"><ele>1171.6</ele><time>2023-07-20T18:06:35Z</time></trkpt>
<trkpt lat="46.74961" lon="6.44337"><ele>1172.4</ele><time>2023-07-20T18:06:40Z</time></trkpt>
<trkpt lat="46.74962" lon="6.4434"><ele>1172.6</ele><time>2023-07-20T18:06:41Z</time></trkpt>
<trkpt lat="46.74967" lon="6.44353"><ele>1173.6</ele><time>2023-07-20T18:06:47Z</time></trkpt>
<trkpt lat="46.74974" lon="6.44369"><ele>1174.6</ele><time>2023-07-20T18:06:54Z</time></trkpt>
<trkpt lat="46.74982" lon="6.44381"><ele>1175.8</ele><time>2023-07-20T18:07:00Z</time></trkpt>
<trkpt lat="46.74983" lon="6.44384"><ele>1176</ele><time>2023-07-20T18:07:01Z</time></trkpt>
<trkpt lat="46.7499" lon="6.44392"><ele>1177</ele><time>2023-07-20T18:07:06Z</time></trkpt>
<trkpt lat="46.74993" lon="6.44395"><ele>1177.6</ele><time>2023-07-20T18:07:08Z</time></trkpt>
<trkpt lat="46.74998" lon="6.444"><ele>1178.2</ele><time>2023-07-20T18:07:11Z</time></trkpt>
<trkpt lat="46.75005" lon="6.44406"><ele>1179</ele><time>2023-07-20T18:07:16Z</time></trkpt>
<trkpt lat="46.75007" lon="6.44408"><ele>1179.2</ele><time>2023-07-20T18:07:17Z</time></trkpt>
<trkpt lat="46.75016" lon="6.44415"><ele>1180</ele><time>2023-07-20T18:07:24Z</time></trkpt>
<trkpt lat="46.7502" lon="6.44417"><ele>1180.2</ele><time>2023-07-20T18:07:27Z</time></trkpt>
<trkpt lat="46.75025" lon="6.4442"><ele>1181</ele><time>2023-07-20T18:07:31Z</time></trkpt>
<trkpt lat="46.75031" lon="6.44424"><ele>1181.4</ele><time>2023-07-20T18:07:35Z</time></trkpt>
<trkpt lat="46.75036" lon="6.44429"><ele>1181.8</ele><time>2023-07-20T18:07:38Z</time></trkpt>
<trkpt lat="46.75042" lon="6.44437"><ele>1182.6</ele><time>2023-07-20T18:07:42Z</time></trkpt>
<trkpt lat="46.75046" lon="6.44441"><ele>1182.8</ele><time>2023-07-20T18:07:44Z</time></trkpt>
<trkpt lat="46.75053" lon="6.4445"><ele>1183.6</ele><time>2023-07-20T18:07:49Z</time></trkpt>
<trkpt lat="46.75055" lon="6.44453"><ele>1184</ele><time>2023-07-20T18:07:51Z</time></trkpt>
<trkpt lat="46.75062" lon="6.44461"><ele>1184.8</ele><time>2023-07-20T18:07:56Z</time></trkpt>
<trkpt lat="46.75069" lon="6.44471"><ele>1185.4</ele><time>2023-07-20T18:08:01Z</time></trkpt>
<trkpt lat="46.75075" lon="6.44477"><ele>1186</ele><time>2023-07-20T18:08:05Z</time></trkpt>
<trkpt lat="46.75084" lon="6.44487"><ele>1187</ele><time>2023-07-20T18:08:11Z</time></trkpt>
<trkpt lat="46.75096" lon="6.44496"><ele>1188.2</ele><time>2023-07-20T18:08:18Z</time></trkpt>
<trkpt lat="46.75098" lon="6.44497"><ele>1188.2</ele><time>2023-07-20T18:08:19Z</time></trkpt>
<trkpt lat="46.75108" lon="6.44502"><ele>1189.2</ele><time>2023-07-20T18:08:25Z</time></trkpt>
<trkpt lat="46.75116" lon="6.44507"><ele>1189.6</ele><time>2023-07-20T18:08:29Z</time></trkpt>
<trkpt lat="46.75124" lon="6.4451"><ele>1190.2</ele><time>2023-07-20T18:08:33Z</time></trkpt>
<trkpt lat="46.75133" lon="6.44516"><ele>1190.8</ele><time>2023-07-20T18:08:39Z</time></trkpt>
<trkpt lat="46.75137" lon="6.44516"><ele>1191.2</ele><time>2023-07-20T18:08:41Z</time></trkpt>
<trkpt lat="46.75147" lon="6.44521"><ele>1192</ele><time>2023-07-20T18:08:46Z</time></trkpt>
<trkpt lat="46.75152" lon="6.44524"><ele>1192.4</ele><time>2023-07-20T18:08:49Z</time></trkpt>
<trkpt lat="46.75163" lon="6.44528"><ele>1193.4</ele><time>2023-07-20T18:08:55Z</time></trkpt>
<trkpt lat="46.75165" lon="6.44529"><ele>1193.6</ele><time>2023-07-20T18:08:56Z</time></trkpt>
<trkpt lat="46.75174" lon="6.44535"><ele>1194.8</ele><time>2023-07-20T18:09:01Z</time></trkpt>
<trkpt lat="46.75179" lon="6.4454"><ele>1195.2</ele><time>2023-07-20T18:09:04Z</time></trkpt>
<trkpt lat="46.75184" lon="6.44545"><ele>1195.8</ele><time>2023-07-20T18:09:07Z</time></trkpt>
<trkpt lat="46.75191" lon="6.44553"><ele>1196.6</ele><time>2023-07-20T18:09:13Z</time></trkpt>
<trkpt lat="46.75193" lon="6.44555"><ele>1196.8</ele><time>2023-07-20T18:09:15Z</time></trkpt>
<trkpt lat="46.75198" lon="6.44562"><ele>1197.2</ele><time>2023-07-20T18:09:20Z</time></trkpt>
<trkpt lat="46.75205" lon="6.4457"><ele>1197.8</ele><time>2023-07-20T18:09:26Z</time></trkpt>
<trkpt lat="46.75205" lon="6.44572"><ele>1198</ele><time>2023-07-20T18:09:27Z</time></trkpt>
<trkpt lat="46.75212" lon="6.44584"><ele>1198.8</ele><time>2023-07-20T18:09:34Z</time></trkpt>
<trkpt lat="46.7522" lon="6.44591"><ele>1199.8</ele><time>2023-07-20T18:09:40Z</time></trkpt>
<trkpt lat="46.75221" lon="6.44593"><ele>1200.2</ele><time>2023-07-20T18:09:41Z</time></trkpt>
<trkpt lat="46.75221" lon="6.44597"><ele>1200.4</ele><time>2023-07-20T18:09:43Z</time></trkpt>
<trkpt lat="46.75222" lon="6.446"><ele>1200.8</ele><time>2023-07-20T18:09:45Z</time></trkpt>
<trkpt lat="46.75223" lon="6.44601"><ele>1200.8</ele><time>2023-07-20T18:09:50Z</time></trkpt>
<trkpt lat="46.75223" lon="6.44601"><ele>1201</ele><time>2023-07-20T18:09:51Z</time></trkpt>
<trkpt lat="46.75222" lon="6.446"><ele>1201</ele><time>2023-07-20T18:09:53Z</time></trkpt>
<trkpt lat="46.7522" lon="6.44601"><ele>1201</ele><time>2023-07-20T18:09:55Z</time></trkpt>
<trkpt lat="46.75218" lon="6.44603"><ele>1200.8</ele><time>2023-07-20T18:10:01Z</time></trkpt>
<trkpt lat="46.75218" lon="6.44603"><ele>1200.6</ele><time>2023-07-20T18:10:04Z</time></trkpt>
<trkpt lat="46.75218" lon="6.44605"><ele>1200.4</ele><time>2023-07-20T18:10:09Z</time></trkpt>
<trkpt lat="46.75219" lon="6.44604"><ele>1200.4</ele><time>2023-07-20T18:10:14Z</time></trkpt>
<trkpt lat="46.75219" lon="6.44604"><ele>1200.2</ele><time>2023-07-20T18:10:21Z</time></trkpt>
<trkpt lat="46.75219" lon="6.44604"><ele>1200.2</ele><time>2023-07-20T18:10:27Z</time></trkpt>
<trkpt lat="46.75219" lon="6.44604"><ele>1200.6</ele><time>2023-07-20T18:10:32Z</time></trkpt>
<trkpt lat="46.75219" lon="6.44604"><ele>1200.6</ele><time>2023-07-20T18:10:33Z</time></trkpt>
<trkpt lat="46.75219" lon="6.44604"><ele>1200.8</ele><time>2023-07-20T18:10:34Z</time></trkpt>
<trkpt lat="46.75219" lon="6.44604"><ele>1201</ele><time>2023-07-20T18:10:36Z</time></trkpt>
<trkpt lat="46.75219" lon="6.44604"><ele>1201</ele><time>2023-07-20T18:10:39Z</time></trkpt>
<trkpt lat="46.75219" lon="6.44604"><ele>1201.2</ele><time>2023-07-20T18:10:41Z</time></trkpt>
<trkpt lat="46.75219" lon="6.44604"><ele>1201.2</ele><time>2023-07-20T18:10:43Z</time></trkpt>
<trkpt lat="46.75219" lon="6.44602"><ele>1201.2</ele><time>2023-07-20T18:10:51Z</time></trkpt>
<trkpt lat="46.75219" lon="6.44602"><ele>1201.2</ele><time>2023-07-20T18:11:03Z</time></trkpt>
<trkpt lat="46.75219" lon="6.44602"><ele>1201.2</ele><time>2023-07-20T18:11:06Z</time></trkpt>
<trkpt lat="46.75219" lon="6.44602"><ele>1201.2</ele><time>2023-07-20T18:11:08Z</time></trkpt>
<trkpt lat="46.7522" lon="6.44606"><ele>1201.2</ele><time>2023-07-20T18:11:17Z</time></trkpt>
<trkpt lat="46.7522" lon="6.44606"><ele>1201.2</ele><time>2023-07-20T18:11:24Z</time></trkpt>
<trkpt lat="46.7522" lon="6.44606"><ele>1201.2</ele><time>2023-07-20T18:11:28Z</time></trkpt>
<trkpt lat="46.7522" lon="6.44606"><ele>1201.2</ele><time>2023-07-20T18:11:35Z</time></trkpt>
<trkpt lat="46.7522" lon="6.44606"><ele>1201.2</ele><time>2023-07-20T18:11:38Z</time></trkpt>
<trkpt lat="46.7522" lon="6.44605"><ele>1201.2</ele><time>2023-07-20T18:11:43Z</time></trkpt>
<trkpt lat="46.75219" lon="6.44604"><ele>1201.2</ele><time>2023-07-20T18:11:48Z</time></trkpt>
<trkpt lat="46.75219" lon="6.44604"><ele>1201.2</ele><time>2023-07-20T18:11:49Z</time></trkpt>
<trkpt lat="46.75219" lon="6.44604"><ele>1201.2</ele><time>2023-07-20T18:11:53Z</time></trkpt>
<trkpt lat="46.75219" lon="6.44604"><ele>1201.2</ele><time>2023-07-20T18:11:55Z</time></trkpt>
<trkpt lat="46.75219" lon="6.44604"><ele>1201.2</ele><time>2023-07-20T18:11:57Z</time></trkpt>
<trkpt lat="46.75219" lon="6.44602"><ele>1201.2</ele><time>2023-07-20T18:12:03Z</time></trkpt>
<trkpt lat="46.75219" lon="6.44602"><ele>1201.2</ele><time>2023-07-20T18:12:12Z</time></trkpt>
<trkpt lat="46.75219" lon="6.44602"><ele>1201.2</ele><time>2023-07-20T18:12:13Z</time></trkpt>
<trkpt lat="46.75219" lon="6.44602"><ele>1201.2</ele><time>2023-07-20T18:12:14Z</time></trkpt>
<trkpt lat="46.75219" lon="6.44602"><ele>1201.2</ele><time>2023-07-20T18:12:15Z</time></trkpt>
<trkpt lat="46.75219" lon="6.44602"><ele>1201.2</ele><time>2023-07-20T18:12:17Z</time></trkpt>
<trkpt lat="46.75219" lon="6.44602"><ele>1201.2</ele><time>2023-07-20T18:12:22Z</time></trkpt>
<trkpt lat="46.75219" lon="6.44602"><ele>1201.2</ele><time>2023-07-20T18:12:23Z</time></trkpt>
<trkpt lat="46.75219" lon="6.44602"><ele>1201.2</ele><time>2023-07-20T18:12:24Z</time></trkpt>
<trkpt lat="46.75219" lon="6.44602"><ele>1201.2</ele><time>2023-07-20T18:12:31Z</time></trkpt>
<trkpt lat="46.75219" lon="6.44602"><ele>1201.2</ele><time>2023-07-20T18:12:37Z</time></trkpt>
<trkpt lat="46.75219" lon="6.44602"><ele>1201.2</ele><time>2023-07-20T18:12:46Z</time></trkpt>
<trkpt lat="46.75219" lon="6.44602"><ele>1201.2</ele><time>2023-07-20T18:12:53Z</time></trkpt>
<trkpt lat="46.75219" lon="6.44602"><ele>1201.2</ele><time>2023-07-20T18:12:54Z</time></trkpt>
<trkpt lat="46.75219" lon="6.44602"><ele>1201.2</ele><time>2023-07-20T18:12:56Z</time></trkpt>
<trkpt lat="46.75219" lon="6.44602"><ele>1201.2</ele><time>2023-07-20T18:13:00Z</time></trkpt>
<trkpt lat="46.75219" lon="6.44602"><ele>1201.2</ele><time>2023-07-20T18:13:02Z</time></trkpt>
<trkpt lat="46.75219" lon="6.44602"><ele>1201.2</ele><time>2023-07-20T18:13:06Z</time></trkpt>
<trkpt lat="46.75219" lon="6.44602"><ele>1201.2</ele><time>2023-07-20T18:13:14Z</time></trkpt>
<trkpt lat="46.75219" lon="6.44602"><ele>1201.2</ele><time>2023-07-20T18:13:26Z</time></trkpt>
<trkpt lat="46.75219" lon="6.44602"><ele>1201.2</ele><time>2023-07-20T18:13:30Z</time></trkpt>
<trkpt lat="46.75219" lon="6.44602"><ele>1201.2</ele><time>2023-07-20T18:13:33Z</time></trkpt>
<trkpt lat="46.75219" lon="6.44602"><ele>1201.2</ele><time>2023-07-20T18:13:36Z</time></trkpt>
<trkpt lat="46.75219" lon="6.44602"><ele>1201.2</ele><time>2023-07-20T18:13:41Z</time></trkpt>
<trkpt lat="46.75219" lon="6.44602"><ele>1201.2</ele><time>2023-07-20T18:13:43Z</time></trkpt>
<trkpt lat="46.75219" lon="6.44602"><ele>1201.2</ele><time>2023-07-20T18:13:49Z</time></trkpt>
<trkpt lat="46.75219" lon="6.44602"><ele>1201.2</ele><time>2023-07-20T18:13:50Z</time></trkpt>
<trkpt lat="46.75219" lon="6.44602"><ele>1201.2</ele><time>2023-07-20T18:14:04Z</time></trkpt>
<trkpt lat="46.75219" lon="6.44602"><ele>1201.2</ele><time>2023-07-20T18:14:12Z</time></trkpt>
<trkpt lat="46.75219" lon="6.44603"><ele>1201.2</ele><time>2023-07-20T18:14:34Z</time></trkpt>
<trkpt lat="46.75219" lon="6.44604"><ele>1201.2</ele><time>2023-07-20T18:14:45Z</time></trkpt>
<trkpt lat="46.7522" lon="6.44604"><ele>1201.2</ele><time>2023-07-20T18:14:54Z</time></trkpt>
<trkpt lat="46.75218" lon="6.44603"><ele>1201.2</ele><time>2023-07-20T18:15:02Z</time></trkpt>
<trkpt lat="46.75219" lon="6.44605"><ele>1201.2</ele><time>2023-07-20T18:15:11Z</time></trkpt>
<trkpt lat="46.75218" lon="6.44603"><ele>1201.2</ele><time>2023-07-20T18:15:23Z</time></trkpt>
<trkpt lat="46.75218" lon="6.44603"><ele>1201.2</ele><time>2023-07-20T18:15:25Z</time></trkpt>
<trkpt lat="46.75218" lon="6.44603"><ele>1201.2</ele><time>2023-07-20T18:15:26Z</time></trkpt>
<trkpt lat="46.75219" lon="6.44601"><ele>1201.2</ele><time>2023-07-20T18:15:32Z</time></trkpt>
<trkpt lat="46.75218" lon="6.44601"><ele>1201.2</ele><time>2023-07-20T18:15:33Z</time></trkpt>
<trkpt lat="46.75218" lon="6.44601"><ele>1201.2</ele><time>2023-07-20T18:15:35Z</time></trkpt>
<trkpt lat="46.75219" lon="6.446"><ele>1201.2</ele><time>2023-07-20T18:15:36Z</time></trkpt>
<trkpt lat="46.75221" lon="6.44599"><ele>1201.2</ele><time>2023-07-20T18:15:40Z</time></trkpt>
<trkpt lat="46.75222" lon="6.446"><ele>1201.2</ele><time>2023-07-20T18:15:41Z</time></trkpt>
<trkpt lat="46.75222" lon="6.44601"><ele>1201.6</ele><time>2023-07-20T18:15:46Z</time></trkpt>
<trkpt lat="46.75222" lon="6.44602"><ele>1201.6</ele><time>2023-07-20T18:15:48Z</time></trkpt>
<trkpt lat="46.75222" lon="6.446"><ele>1201.6</ele><time>2023-07-20T18:15:52Z</time></trkpt>
<trkpt lat="46.75222" lon="6.44601"><ele>1201.4</ele><time>2023-07-20T18:15:58Z</time></trkpt>
<trkpt lat="46.75221" lon="6.44602"><ele>1201.4</ele><time>2023-07-20T18:16:03Z</time></trkpt>
<trkpt lat="46.75221" lon="6.44603"><ele>1201.6</ele><time>2023-07-20T18:16:06Z</time></trkpt>
<trkpt lat="46.75222" lon="6.44603"><ele>1201.8</ele><time>2023-07-20T18:16:13Z</time></trkpt>
<trkpt lat="46.75221" lon="6.44601"><ele>1201.6</ele><time>2023-07-20T18:16:20Z</time></trkpt>
<trkpt lat="46.75222" lon="6.44602"><ele>1201.8</ele><time>2023-07-20T18:16:23Z</time></trkpt>
<trkpt lat="46.75224" lon="6.44601"><ele>1202</ele><time>2023-07-20T18:16:25Z</time></trkpt>
<trkpt lat="46.75225" lon="6.44604"><ele>1202.2</ele><time>2023-07-20T18:16:28Z</time></trkpt>
<trkpt lat="46.75226" lon="6.44606"><ele>1202.4</ele><time>2023-07-20T18:16:29Z</time></trkpt>
<trkpt lat="46.75233" lon="6.44616"><ele>1202.4</ele><time>2023-07-20T18:16:34Z</time></trkpt>
<trkpt lat="46.75239" lon="6.44623"><ele>1203.2</ele><time>2023-07-20T18:16:38Z</time></trkpt>
<trkpt lat="46.75241" lon="6.44624"><ele>1203.8</ele><time>2023-07-20T18:16:40Z</time></trkpt>
<trkpt lat="46.75244" lon="6.44627"><ele>1204.2</ele><time>2023-07-20T18:16:42Z</time></trkpt>
<trkpt lat="46.75251" lon="6.44633"><ele>1205</ele><time>2023-07-20T18:16:46Z</time></trkpt>
<trkpt lat="46.75252" lon="6.44634"><ele>1205.4</ele><time>2023-07-20T18:16:47Z</time></trkpt>
<trkpt lat="46.7526" lon="6.4464"><ele>1206.2</ele><time>2023-07-20T18:16:52Z</time></trkpt>
<trkpt lat="46.75262" lon="6.44642"><ele>1206.4</ele><time>2023-07-20T18:16:53Z</time></trkpt>
<trkpt lat="46.75271" lon="6.44645"><ele>1207.2</ele><time>2023-07-20T18:16:58Z</time></trkpt>
<trkpt lat="46.75275" lon="6.44647"><ele>1207.6</ele><time>2023-07-20T18:17:00Z</time></trkpt>
<trkpt lat="46.75286" lon="6.44654"><ele>1208.8</ele><time>2023-07-20T18:17:07Z</time></trkpt>
<trkpt lat="46.75288" lon="6.44655"><ele>1209</ele><time>2023-07-20T18:17:08Z</time></trkpt>
<trkpt lat="46.75303" lon="6.44664"><ele>1209.8</ele><time>2023-07-20T18:17:15Z</time></trkpt>
<trkpt lat="46.75307" lon="6.44667"><ele>1210.2</ele><time>2023-07-20T18:17:17Z</time></trkpt>
<trkpt lat="46.75313" lon="6.44673"><ele>1210.4</ele><time>2023-07-20T18:17:20Z</time></trkpt>
<trkpt lat="46.75316" lon="6.44678"><ele>1210.8</ele><time>2023-07-20T18:17:22Z</time></trkpt>
<trkpt lat="46.75319" lon="6.44682"><ele>1211.4</ele><time>2023-07-20T18:17:24Z</time></trkpt>
<trkpt lat="46.75326" lon="6.44693"><ele>1212</ele><time>2023-07-20T18:17:29Z</time></trkpt>
<trkpt lat="46.7533" lon="6.44698"><ele>1212</ele><time>2023-07-20T18:17:31Z</time></trkpt>
<trkpt lat="46.75332" lon="6.447"><ele>1212</ele><time>2023-07-20T18:17:32Z</time></trkpt>
<trkpt lat="46.75337" lon="6.44711"><ele>1212.2</ele><time>2023-07-20T18:17:35Z</time></trkpt>
<trkpt lat="46.7534" lon="6.44725"><ele>1212.4</ele><time>2023-07-20T18:17:38Z</time></trkpt>
<trkpt lat="46.75339" lon="6.44738"><ele>1213</ele><time>2023-07-20T18:17:42Z</time></trkpt>
<trkpt lat="46.75334" lon="6.44745"><ele>1214.2</ele><time>2023-07-20T18:17:47Z</time></trkpt>
<trkpt lat="46.75333" lon="6.44747"><ele>1214.2</ele><time>2023-07-20T18:17:48Z</time></trkpt>
<trkpt lat="46.75327" lon="6.44756"><ele>1215.2</ele><time>2023-07-20T18:17:54Z</time></trkpt>
<trkpt lat="46.75326" lon="6.44757"><ele>1215.4</ele><time>2023-07-20T18:17:55Z</time></trkpt>
<trkpt lat="46.75321" lon="6.44762"><ele>1216.2</ele><time>2023-07-20T18:17:59Z</time></trkpt>
<trkpt lat="46.75318" lon="6.44766"><ele>1216.8</ele><time>2023-07-20T18:18:02Z</time></trkpt>
<trkpt lat="46.75313" lon="6.44771"><ele>1217.4</ele><time>2023-07-20T18:18:06Z</time></trkpt>
<trkpt lat="46.7531" lon="6.44777"><ele>1217.6</ele><time>2023-07-20T18:18:09Z</time></trkpt>
<trkpt lat="46.75306" lon="6.44785"><ele>1218.4</ele><time>2023-07-20T18:18:13Z</time></trkpt>
<trkpt lat="46.75304" lon="6.44792"><ele>1219.2</ele><time>2023-07-20T18:18:16Z</time></trkpt>
<trkpt lat="46.75303" lon="6.44794"><ele>1219.4</ele><time>2023-07-20T18:18:17Z</time></trkpt>
<trkpt lat="46.75296" lon="6.44809"><ele>1220.6</ele><time>2023-07-20T18:18:23Z</time></trkpt>
<trkpt lat="46.75295" lon="6.44811"><ele>1220.8</ele><time>2023-07-20T18:18:24Z</time></trkpt>
<trkpt lat="46.75292" lon="6.4482"><ele>1221.6</ele><time>2023-07-20T18:18:27Z</time></trkpt>
<trkpt lat="46.75287" lon="6.44832"><ele>1222.2</ele><time>2023-07-20T18:18:31Z</time></trkpt>
<trkpt lat="46.75283" lon="6.44841"><ele>1222.8</ele><time>2023-07-20T18:18:34Z</time></trkpt>
<trkpt lat="46.75279" lon="6.44851"><ele>1223.2</ele><time>2023-07-20T18:18:37Z</time></trkpt>
<trkpt lat="46.75277" lon="6.44858"><ele>1223.6</ele><time>2023-07-20T18:18:39Z</time></trkpt>
<trkpt lat="46.75276" lon="6.44861"><ele>1223.8</ele><time>2023-07-20T18:18:40Z</time></trkpt>
<trkpt lat="46.75271" lon="6.44877"><ele>1225</ele><time>2023-07-20T18:18:46Z</time></trkpt>
<trkpt lat="46.7527" lon="6.44883"><ele>1225.2</ele><time>2023-07-20T18:18:48Z</time></trkpt>
<trkpt lat="46.75266" lon="6.44893"><ele>1226</ele><time>2023-07-20T18:18:52Z</time></trkpt>
<trkpt lat="46.75263" lon="6.44904"><ele>1226.6</ele><time>2023-07-20T18:18:56Z</time></trkpt>
<trkpt lat="46.75261" lon="6.44916"><ele>1227.4</ele><time>2023-07-20T18:19:00Z</time></trkpt>
<trkpt lat="46.75261" lon="6.44919"><ele>1227.8</ele><time>2023-07-20T18:19:01Z</time></trkpt>
<trkpt lat="46.7526" lon="6.44925"><ele>1228.2</ele><time>2023-07-20T18:19:03Z</time></trkpt>
<trkpt lat="46.7526" lon="6.44928"><ele>1228.4</ele><time>2023-07-20T18:19:04Z</time></trkpt>
<trkpt lat="46.75259" lon="6.44942"><ele>1229.6</ele><time>2023-07-20T18:19:09Z</time></trkpt>
<trkpt lat="46.75259" lon="6.44945"><ele>1229.6</ele><time>2023-07-20T18:19:10Z</time></trkpt>
<trkpt lat="46.7526" lon="6.44962"><ele>1230.6</ele><time>2023-07-20T18:19:16Z</time></trkpt>
<trkpt lat="46.7526" lon="6.44969"><ele>1231</ele><time>2023-07-20T18:19:18Z</time></trkpt>
<trkpt lat="46.75263" lon="6.44985"><ele>1231.8</ele><time>2023-07-20T18:19:23Z</time></trkpt>
<trkpt lat="46.75266" lon="6.44994"><ele>1232.4</ele><time>2023-07-20T18:19:26Z</time></trkpt>
<trkpt lat="46.75269" lon="6.45003"><ele>1232.8</ele><time>2023-07-20T18:19:29Z</time></trkpt>
<trkpt lat="46.75272" lon="6.45016"><ele>1233.8</ele><time>2023-07-20T18:19:34Z</time></trkpt>
<trkpt lat="46.75274" lon="6.45019"><ele>1234</ele><time>2023-07-20T18:19:35Z</time></trkpt>
<trkpt lat="46.7528" lon="6.45034"><ele>1235</ele><time>2023-07-20T18:19:41Z</time></trkpt>
<trkpt lat="46.75285" lon="6.45049"><ele>1236</ele><time>2023-07-20T18:19:47Z</time></trkpt>
<trkpt lat="46.75286" lon="6.45052"><ele>1236.2</ele><time>2023-07-20T18:19:48Z</time></trkpt>
<trkpt lat="46.75293" lon="6.45067"><ele>1237.2</ele><time>2023-07-20T18:19:54Z</time></trkpt>
<trkpt lat="46.75296" lon="6.45071"><ele>1237.6</ele><time>2023-07-20T18:19:56Z</time></trkpt>
<trkpt lat="46.75302" lon="6.45082"><ele>1238.4</ele><time>2023-07-20T18:20:01Z</time></trkpt>
<trkpt lat="46.75305" lon="6.45087"><ele>1238.8</ele><time>2023-07-20T18:20:03Z</time></trkpt>
<trkpt lat="46.7531" lon="6.45096"><ele>1239.4</ele><time>2023-07-20T18:20:07Z</time></trkpt>
<trkpt lat="46.75315" lon="6.45104"><ele>1240</ele><time>2023-07-20T18:20:11Z</time></trkpt>
<trkpt lat="46.75319" lon="6.4511"><ele>1240.6</ele><time>2023-07-20T18:20:14Z</time></trkpt>
<trkpt lat="46.75326" lon="6.4512"><ele>1241.6</ele><time>2023-07-20T18:20:20Z</time></trkpt>
<trkpt lat="46.75327" lon="6.45122"><ele>1241.8</ele><time>2023-07-20T18:20:21Z</time></trkpt>
<trkpt lat="46.75337" lon="6.4513"><ele>1242.8</ele><time>2023-07-20T18:20:28Z</time></trkpt>
<trkpt lat="46.75346" lon="6.45135"><ele>1244</ele><time>2023-07-20T18:20:34Z</time></trkpt>
<trkpt lat="46.75348" lon="6.45136"><ele>1244</ele><time>2023-07-20T18:20:35Z</time></trkpt>
<trkpt lat="46.75359" lon="6.45143"><ele>1245</ele><time>2023-07-20T18:20:41Z</time></trkpt>
<trkpt lat="46.75364" lon="6.45147"><ele>1245.4</ele><time>2023-07-20T18:20:44Z</time></trkpt>
<trkpt lat="46.75371" lon="6.4515"><ele>1246</ele><time>2023-07-20T18:20:48Z</time></trkpt>
<trkpt lat="46.75375" lon="6.45153"><ele>1246.8</ele><time>2023-07-20T18:20:51Z</time></trkpt>
<trkpt lat="46.75381" lon="6.45155"><ele>1247.2</ele><time>2023-07-20T18:20:54Z</time></trkpt>
<trkpt lat="46.7539" lon="6.45162"><ele>1248</ele><time>2023-07-20T18:20:59Z</time></trkpt>
<trkpt lat="46.75395" lon="6.45164"><ele>1248.2</ele><time>2023-07-20T18:21:01Z</time></trkpt>
<trkpt lat="46.75402" lon="6.45167"><ele>1249.2</ele><time>2023-07-20T18:21:05Z</time></trkpt>
<trkpt lat="46.75406" lon="6.45169"><ele>1249.8</ele><time>2023-07-20T18:21:07Z</time></trkpt>
<trkpt lat="46.75414" lon="6.45171"><ele>1250.4</ele><time>2023-07-20T18:21:11Z</time></trkpt>
<trkpt lat="46.75421" lon="6.45175"><ele>1250.6</ele><time>2023-07-20T18:21:15Z</time></trkpt>
<trkpt lat="46.75427" lon="6.45179"><ele>1251.4</ele><time>2023-07-20T18:21:19Z</time></trkpt>
<trkpt lat="46.75433" lon="6.45184"><ele>1251.8</ele><time>2023-07-20T18:21:22Z</time></trkpt>
<trkpt lat="46.7544" lon="6.45188"><ele>1252.4</ele><time>2023-07-20T18:21:26Z</time></trkpt>
<trkpt lat="46.75445" lon="6.45191"><ele>1253</ele><time>2023-07-20T18:21:29Z</time></trkpt>
<trkpt lat="46.7545" lon="6.45194"><ele>1253.4</ele><time>2023-07-20T18:21:32Z</time></trkpt>
<trkpt lat="46.75457" lon="6.45199"><ele>1254.2</ele><time>2023-07-20T18:21:37Z</time></trkpt>
<trkpt lat="46.75461" lon="6.45201"><ele>1254.6</ele><time>2023-07-20T18:21:39Z</time></trkpt>
<trkpt lat="46.75473" lon="6.45207"><ele>1255.6</ele><time>2023-07-20T18:21:45Z</time></trkpt>
<trkpt lat="46.75485" lon="6.45212"><ele>1256.6</ele><time>2023-07-20T18:21:52Z</time></trkpt>
<trkpt lat="46.75487" lon="6.45213"><ele>1256.8</ele><time>2023-07-20T18:21:53Z</time></trkpt>
<trkpt lat="46.75502" lon="6.45216"><ele>1257.8</ele><time>2023-07-20T18:22:00Z</time></trkpt>
<trkpt lat="46.75506" lon="6.45217"><ele>1258.2</ele><time>2023-07-20T18:22:02Z</time></trkpt>
<trkpt lat="46.75514" lon="6.45219"><ele>1258.8</ele><time>2023-07-20T18:22:07Z</time></trkpt>
<trkpt lat="46.75522" lon="6.45221"><ele>1259.6</ele><time>2023-07-20T18:22:11Z</time></trkpt>
<trkpt lat="46.75526" lon="6.45222"><ele>1260</ele><time>2023-07-20T18:22:13Z</time></trkpt>
<trkpt lat="46.7554" lon="6.45224"><ele>1261</ele><time>2023-07-20T18:22:21Z</time></trkpt>
<trkpt lat="46.75552" lon="6.45227"><ele>1262</ele><time>2023-07-20T18:22:28Z</time></trkpt>
<trkpt lat="46.75554" lon="6.45227"><ele>1262</ele><time>2023-07-20T18:22:29Z</time></trkpt>
<trkpt lat="46.75568" lon="6.4523"><ele>1263.2</ele><time>2023-07-20T18:22:37Z</time></trkpt>
<trkpt lat="46.75579" lon="6.45231"><ele>1264.2</ele><time>2023-07-20T18:22:43Z</time></trkpt>
<trkpt lat="46.75587" lon="6.45232"><ele>1264.6</ele><time>2023-07-20T18:22:47Z</time></trkpt>
<trkpt lat="46.75595" lon="6.45233"><ele>1265.2</ele><time>2023-07-20T18:22:51Z</time></trkpt>
<trkpt lat="46.75598" lon="6.45233"><ele>1265.6</ele><time>2023-07-20T18:22:53Z</time></trkpt>
<trkpt lat="46.75605" lon="6.45233"><ele>1266.2</ele><time>2023-07-20T18:22:57Z</time></trkpt>
<trkpt lat="46.75609" lon="6.45233"><ele>1266.6</ele><time>2023-07-20T18:23:00Z</time></trkpt>
<trkpt lat="46.75616" lon="6.45235"><ele>1267.4</ele><time>2023-07-20T18:23:04Z</time></trkpt>
<trkpt lat="46.75625" lon="6.45236"><ele>1268.2</ele><time>2023-07-20T18:23:09Z</time></trkpt>
<trkpt lat="46.75629" lon="6.45236"><ele>1268.4</ele><time>2023-07-20T18:23:11Z</time></trkpt>
<trkpt lat="46.7564" lon="6.45237"><ele>1269.2</ele><time>2023-07-20T18:23:17Z</time></trkpt>
<trkpt lat="46.75642" lon="6.45238"><ele>1269.4</ele><time>2023-07-20T18:23:18Z</time></trkpt>
<trkpt lat="46.75656" lon="6.45238"><ele>1270.6</ele><time>2023-07-20T18:23:25Z</time></trkpt>
<trkpt lat="46.75673" lon="6.45239"><ele>1271.6</ele><time>2023-07-20T18:23:33Z</time></trkpt>
<trkpt lat="46.75687" lon="6.4524"><ele>1272.6</ele><time>2023-07-20T18:23:40Z</time></trkpt>
<trkpt lat="46.75691" lon="6.45241"><ele>1272.8</ele><time>2023-07-20T18:23:42Z</time></trkpt>
<trkpt lat="46.75704" lon="6.4524"><ele>1273.8</ele><time>2023-07-20T18:23:49Z</time></trkpt>
<trkpt lat="46.75706" lon="6.4524"><ele>1273.8</ele><time>2023-07-20T18:23:50Z</time></trkpt>
<trkpt lat="46.75717" lon="6.45239"><ele>1274.8</ele><time>2023-07-20T18:23:56Z</time></trkpt>
<trkpt lat="46.75723" lon="6.45238"><ele>1275.8</ele><time>2023-07-20T18:23:59Z</time></trkpt>
<trkpt lat="46.75725" lon="6.45237"><ele>1276</ele><time>2023-07-20T18:24:00Z</time></trkpt>
<trkpt lat="46.75735" lon="6.45229"><ele>1276.6</ele><time>2023-07-20T18:24:07Z</time></trkpt>
<trkpt lat="46.7574" lon="6.45224"><ele>1277</ele><time>2023-07-20T18:24:10Z</time></trkpt>
<trkpt lat="46.75743" lon="6.45217"><ele>1278</ele><time>2023-07-20T18:24:15Z</time></trkpt>
<trkpt lat="46.75744" lon="6.45215"><ele>1278.2</ele><time>2023-07-20T18:24:16Z</time></trkpt>
<trkpt lat="46.75748" lon="6.45211"><ele>1278.6</ele><time>2023-07-20T18:24:20Z</time></trkpt>
<trkpt lat="46.75749" lon="6.45208"><ele>1278.8</ele><time>2023-07-20T18:24:22Z</time></trkpt>
<trkpt lat="46.75751" lon="6.45201"><ele>1279.2</ele><time>2023-07-20T18:24:25Z</time></trkpt>
<trkpt lat="46.75755" lon="6.45186"><ele>1280.2</ele><time>2023-07-20T18:24:31Z</time></trkpt>
<trkpt lat="46.75755" lon="6.45184"><ele>1280.2</ele><time>2023-07-20T18:24:32Z</time></trkpt>
<trkpt lat="46.75758" lon="6.45168"><ele>1281</ele><time>2023-07-20T18:24:38Z</time></trkpt>
<trkpt lat="46.75758" lon="6.45163"><ele>1281.4</ele><time>2023-07-20T18:24:40Z</time></trkpt>
<trkpt lat="46.75757" lon="6.4515"><ele>1282</ele><time>2023-07-20T18:24:45Z</time></trkpt>
<trkpt lat="46.75756" lon="6.45142"><ele>1282.4</ele><time>2023-07-20T18:24:48Z</time></trkpt>
<trkpt lat="46.75753" lon="6.4513"><ele>1283.2</ele><time>2023-07-20T18:24:53Z</time></trkpt>
<trkpt lat="46.75751" lon="6.45125"><ele>1283.6</ele><time>2023-07-20T18:24:55Z</time></trkpt>
<trkpt lat="46.75749" lon="6.45116"><ele>1284.2</ele><time>2023-07-20T18:24:59Z</time></trkpt>
<trkpt lat="46.75747" lon="6.45106"><ele>1284.8</ele><time>2023-07-20T18:25:03Z</time></trkpt>
<trkpt lat="46.75745" lon="6.45096"><ele>1285.2</ele><time>2023-07-20T18:25:07Z</time></trkpt>
<trkpt lat="46.75742" lon="6.45086"><ele>1285.8</ele><time>2023-07-20T18:25:11Z</time></trkpt>
<trkpt lat="46.7574" lon="6.45078"><ele>1286.4</ele><time>2023-07-20T18:25:14Z</time></trkpt>
<trkpt lat="46.75738" lon="6.45071"><ele>1287</ele><time>2023-07-20T18:25:17Z</time></trkpt>
<trkpt lat="46.75734" lon="6.45057"><ele>1287.6</ele><time>2023-07-20T18:25:22Z</time></trkpt>
<trkpt lat="46.75733" lon="6.4505"><ele>1288</ele><time>2023-07-20T18:25:25Z</time></trkpt>
<trkpt lat="46.7573" lon="6.4504"><ele>1289</ele><time>2023-07-20T18:25:29Z</time></trkpt>
<trkpt lat="46.75729" lon="6.45035"><ele>1289</ele><time>2023-07-20T18:25:31Z</time></trkpt>
<trkpt lat="46.75725" lon="6.45021"><ele>1290.2</ele><time>2023-07-20T18:25:37Z</time></trkpt>
<trkpt lat="46.75725" lon="6.45018"><ele>1290.4</ele><time>2023-07-20T18:25:38Z</time></trkpt>
<trkpt lat="46.75722" lon="6.45006"><ele>1291.4</ele><time>2023-07-20T18:25:43Z</time></trkpt>
<trkpt lat="46.75721" lon="6.45004"><ele>1291.4</ele><time>2023-07-20T18:25:44Z</time></trkpt>
<trkpt lat="46.75718" lon="6.44991"><ele>1292.4</ele><time>2023-07-20T18:25:50Z</time></trkpt>
<trkpt lat="46.75717" lon="6.44984"><ele>1293</ele><time>2023-07-20T18:25:53Z</time></trkpt>
<trkpt lat="46.75716" lon="6.44977"><ele>1293.6</ele><time>2023-07-20T18:25:56Z</time></trkpt>
<trkpt lat="46.75715" lon="6.44966"><ele>1294.2</ele><time>2023-07-20T18:26:00Z</time></trkpt>
<trkpt lat="46.75715" lon="6.44959"><ele>1294.6</ele><time>2023-07-20T18:26:03Z</time></trkpt>
<trkpt lat="46.75716" lon="6.44951"><ele>1295</ele><time>2023-07-20T18:26:06Z</time></trkpt>
<trkpt lat="46.75715" lon="6.44945"><ele>1295.4</ele><time>2023-07-20T18:26:08Z</time></trkpt>
<trkpt lat="46.75715" lon="6.44939"><ele>1295.8</ele><time>2023-07-20T18:26:10Z</time></trkpt>
<trkpt lat="46.75716" lon="6.44928"><ele>1296.8</ele><time>2023-07-20T18:26:14Z</time></trkpt>
<trkpt lat="46.75716" lon="6.44926"><ele>1297</ele><time>2023-07-20T18:26:15Z</time></trkpt>
<trkpt lat="46.75716" lon="6.44924"><ele>1297</ele><time>2023-07-20T18:26:16Z</time></trkpt>
<trkpt lat="46.75719" lon="6.44918"><ele>1297.6</ele><time>2023-07-20T18:26:19Z</time></trkpt>
<trkpt lat="46.75722" lon="6.4491"><ele>1298.2</ele><time>2023-07-20T18:26:23Z</time></trkpt>
<trkpt lat="46.75728" lon="6.44902"><ele>1298.8</ele><time>2023-07-20T18:26:28Z</time></trkpt>
<trkpt lat="46.75732" lon="6.44898"><ele>1299.2</ele><time>2023-07-20T18:26:31Z</time></trkpt>
<trkpt lat="46.75739" lon="6.44894"><ele>1299.8</ele><time>2023-07-20T18:26:36Z</time></trkpt>
<trkpt lat="46.75743" lon="6.44892"><ele>1300.4</ele><time>2023-07-20T18:26:39Z</time></trkpt>
<trkpt lat="46.75752" lon="6.44889"><ele>1301.4</ele><time>2023-07-20T18:26:44Z</time></trkpt>
<trkpt lat="46.75753" lon="6.44889"><ele>1301.6</ele><time>2023-07-20T18:26:45Z</time></trkpt>
<trkpt lat="46.75761" lon="6.44888"><ele>1302.6</ele><time>2023-07-20T18:26:50Z</time></trkpt>
<trkpt lat="46.75768" lon="6.44888"><ele>1303.2</ele><time>2023-07-20T18:26:54Z</time></trkpt>
<trkpt lat="46.75774" lon="6.44887"><ele>1303.8</ele><time>2023-07-20T18:26:57Z</time></trkpt>
<trkpt lat="46.75783" lon="6.44886"><ele>1304.4</ele><time>2023-07-20T18:27:03Z</time></trkpt>
<trkpt lat="46.75787" lon="6.44886"><ele>1304.8</ele><time>2023-07-20T18:27:05Z</time></trkpt>
<trkpt lat="46.75798" lon="6.44886"><ele>1305.8</ele><time>2023-07-20T18:27:11Z</time></trkpt>
<trkpt lat="46.75799" lon="6.44886"><ele>1305.8</ele><time>2023-07-20T18:27:12Z</time></trkpt>
<trkpt lat="46.75811" lon="6.44885"><ele>1306.8</ele><time>2023-07-20T18:27:18Z</time></trkpt>
<trkpt lat="46.75815" lon="6.44885"><ele>1307.2</ele><time>2023-07-20T18:27:20Z</time></trkpt>
<trkpt lat="46.75823" lon="6.44884"><ele>1307.8</ele><time>2023-07-20T18:27:24Z</time></trkpt>
<trkpt lat="46.75832" lon="6.44883"><ele>1308.2</ele><time>2023-07-20T18:27:28Z</time></trkpt>
<trkpt lat="46.75837" lon="6.44881"><ele>1309</ele><time>2023-07-20T18:27:31Z</time></trkpt>
<trkpt lat="46.75845" lon="6.44877"><ele>1309.6</ele><time>2023-07-20T18:27:36Z</time></trkpt>
<trkpt lat="46.7585" lon="6.44874"><ele>1310</ele><time>2023-07-20T18:27:39Z</time></trkpt>
<trkpt lat="46.75859" lon="6.44868"><ele>1310.6</ele><time>2023-07-20T18:27:44Z</time></trkpt>
<trkpt lat="46.75865" lon="6.44862"><ele>1311</ele><time>2023-07-20T18:27:47Z</time></trkpt>
<trkpt lat="46.75872" lon="6.44851"><ele>1311.2</ele><time>2023-07-20T18:27:51Z</time></trkpt>
<trkpt lat="46.75882" lon="6.44839"><ele>1311.8</ele><time>2023-07-20T18:27:57Z</time></trkpt>
<trkpt lat="46.75888" lon="6.44834"><ele>1312.2</ele><time>2023-07-20T18:28:00Z</time></trkpt>
<trkpt lat="46.75898" lon="6.44829"><ele>1312.6</ele><time>2023-07-20T18:28:04Z</time></trkpt>
<trkpt lat="46.75916" lon="6.44828"><ele>1313</ele><time>2023-07-20T18:28:11Z</time></trkpt>
<trkpt lat="46.75922" lon="6.44829"><ele>1313.2</ele><time>2023-07-20T18:28:13Z</time></trkpt>
<trkpt lat="46.75937" lon="6.44834"><ele>1313.6</ele><time>2023-07-20T18:28:19Z</time></trkpt>
<trkpt lat="46.75956" lon="6.44842"><ele>1314.2</ele><time>2023-07-20T18:28:26Z</time></trkpt>
<trkpt lat="46.75979" lon="6.44853"><ele>1315.2</ele><time>2023-07-20T18:28:36Z</time></trkpt>
<trkpt lat="46.75981" lon="6.44854"><ele>1315.6</ele><time>2023-07-20T18:28:37Z</time></trkpt>
<trkpt lat="46.76004" lon="6.44861"><ele>1316</ele><time>2023-07-20T18:28:46Z</time></trkpt>
<trkpt lat="46.7602" lon="6.44864"><ele>1316.8</ele><time>2023-07-20T18:28:54Z</time></trkpt>
<trkpt lat="46.76031" lon="6.44869"><ele>1317.8</ele><time>2023-07-20T18:29:00Z</time></trkpt>
<trkpt lat="46.76039" lon="6.44873"><ele>1318.4</ele><time>2023-07-20T18:29:04Z</time></trkpt>
<trkpt lat="46.76046" lon="6.44879"><ele>1318.8</ele><time>2023-07-20T18:29:08Z</time></trkpt>
<trkpt lat="46.76056" lon="6.44888"><ele>1319.4</ele><time>2023-07-20T18:29:14Z</time></trkpt>
<trkpt lat="46.76061" lon="6.44893"><ele>1319.8</ele><time>2023-07-20T18:29:17Z</time></trkpt>
<trkpt lat="46.76071" lon="6.44906"><ele>1320.4</ele><time>2023-07-20T18:29:23Z</time></trkpt>
<trkpt lat="46.76084" lon="6.44925"><ele>1320.8</ele><time>2023-07-20T18:29:31Z</time></trkpt>
<trkpt lat="46.76088" lon="6.44928"><ele>1321.6</ele><time>2023-07-20T18:29:33Z</time></trkpt>
<trkpt lat="46.76093" lon="6.44935"><ele>1322</ele><time>2023-07-20T18:29:36Z</time></trkpt>
<trkpt lat="46.76104" lon="6.44955"><ele>1322.8</ele><time>2023-07-20T18:29:43Z</time></trkpt>
<trkpt lat="46.76106" lon="6.44958"><ele>1323</ele><time>2023-07-20T18:29:44Z</time></trkpt>
<trkpt lat="46.76117" lon="6.44983"><ele>1323.8</ele><time>2023-07-20T18:29:51Z</time></trkpt>
<trkpt lat="46.76121" lon="6.44994"><ele>1324.2</ele><time>2023-07-20T18:29:54Z</time></trkpt>
<trkpt lat="46.76129" lon="6.45025"><ele>1325</ele><time>2023-07-20T18:30:02Z</time></trkpt>
<trkpt lat="46.76136" lon="6.45052"><ele>1325.2</ele><time>2023-07-20T18:30:08Z</time></trkpt>
<trkpt lat="46.76139" lon="6.45067"><ele>1325.4</ele><time>2023-07-20T18:30:11Z</time></trkpt>
<trkpt lat="46.76144" lon="6.45104"><ele>1325.8</ele><time>2023-07-20T18:30:19Z</time></trkpt>
<trkpt lat="46.76144" lon="6.45127"><ele>1326</ele><time>2023-07-20T18:30:24Z</time></trkpt>
<trkpt lat="46.76142" lon="6.45144"><ele>1326.2</ele><time>2023-07-20T18:30:28Z</time></trkpt>
<trkpt lat="46.76142" lon="6.45148"><ele>1326.4</ele><time>2023-07-20T18:30:29Z</time></trkpt>
<trkpt lat="46.76139" lon="6.45174"><ele>1326.8</ele><time>2023-07-20T18:30:35Z</time></trkpt>
<trkpt lat="46.76139" lon="6.45178"><ele>1327</ele><time>2023-07-20T18:30:36Z</time></trkpt>
<trkpt lat="46.76138" lon="6.45187"><ele>1327.6</ele><time>2023-07-20T18:30:39Z</time></trkpt>
<trkpt lat="46.76136" lon="6.452"><ele>1327.8</ele><time>2023-07-20T18:30:44Z</time></trkpt>
<trkpt lat="46.76136" lon="6.452"><ele>1328</ele><time>2023-07-20T18:30:49Z</time></trkpt>
<trkpt lat="46.76136" lon="6.452"><ele>1328</ele><time>2023-07-20T18:30:54Z</time></trkpt>
<trkpt lat="46.76136" lon="6.452"><ele>1328</ele><time>2023-07-20T18:31:01Z</time></trkpt>
<trkpt lat="46.76136" lon="6.452"><ele>1327.8</ele><time>2023-07-20T18:31:07Z</time></trkpt>
<trkpt lat="46.76136" lon="6.452"><ele>1327.8</ele><time>2023-07-20T18:31:12Z</time></trkpt>
<trkpt lat="46.76135" lon="6.45199"><ele>1327.6</ele><time>2023-07-20T18:31:23Z</time></trkpt>
<trkpt lat="46.76135" lon="6.45199"><ele>1328</ele><time>2023-07-20T18:31:34Z</time></trkpt>
<trkpt lat="46.76134" lon="6.45198"><ele>1327.8</ele><time>2023-07-20T18:31:41Z</time></trkpt>
<trkpt lat="46.76134" lon="6.45198"><ele>1327.8</ele><time>2023-07-20T18:31:42Z</time></trkpt>
<trkpt lat="46.76136" lon="6.45201"><ele>1328.2</ele><time>2023-07-20T18:31:46Z</time></trkpt>
<trkpt lat="46.76136" lon="6.45203"><ele>1328.2</ele><time>2023-07-20T18:31:47Z</time></trkpt>
<trkpt lat="46.76137" lon="6.45223"><ele>1328.6</ele><time>2023-07-20T18:31:53Z</time></trkpt>
<trkpt lat="46.76137" lon="6.45227"><ele>1328.6</ele><time>2023-07-20T18:31:54Z</time></trkpt>
<trkpt lat="46.76137" lon="6.45241"><ele>1329.6</ele><time>2023-07-20T18:31:58Z</time></trkpt>
<trkpt lat="46.76137" lon="6.45247"><ele>1330</ele><time>2023-07-20T18:32:00Z</time></trkpt>
<trkpt lat="46.76137" lon="6.45258"><ele>1330.8</ele><time>2023-07-20T18:32:03Z</time></trkpt>
<trkpt lat="46.76138" lon="6.45266"><ele>1331.4</ele><time>2023-07-20T18:32:06Z</time></trkpt>
<trkpt lat="46.76139" lon="6.45276"><ele>1331.8</ele><time>2023-07-20T18:32:09Z</time></trkpt>
<trkpt lat="46.7614" lon="6.45279"><ele>1332</ele><time>2023-07-20T18:32:10Z</time></trkpt>
<trkpt lat="46.76141" lon="6.45287"><ele>1332.6</ele><time>2023-07-20T18:32:13Z</time></trkpt>
<trkpt lat="46.76142" lon="6.45292"><ele>1332.8</ele><time>2023-07-20T18:32:15Z</time></trkpt>
<trkpt lat="46.76141" lon="6.45296"><ele>1333.2</ele><time>2023-07-20T18:32:17Z</time></trkpt>
<trkpt lat="46.7614" lon="6.45302"><ele>1333.6</ele><time>2023-07-20T18:32:21Z</time></trkpt>
<trkpt lat="46.76141" lon="6.45317"><ele>1333.2</ele><time>2023-07-20T18:32:25Z</time></trkpt>
<trkpt lat="46.76147" lon="6.45336"><ele>1332.4</ele><time>2023-07-20T18:32:30Z</time></trkpt>
<trkpt lat="46.7615" lon="6.45339"><ele>1332.6</ele><time>2023-07-20T18:32:32Z</time></trkpt>
<trkpt lat="46.76153" lon="6.45341"><ele>1332.8</ele><time>2023-07-20T18:32:34Z</time></trkpt>
<trkpt lat="46.76154" lon="6.45342"><ele>1332.8</ele><time>2023-07-20T18:32:35Z</time></trkpt>
<trkpt lat="46.76155" lon="6.45342"><ele>1333.2</ele><time>2023-07-20T18:32:36Z</time></trkpt>
<trkpt lat="46.7616" lon="6.45335"><ele>1333</ele><time>2023-07-20T18:32:41Z</time></trkpt>
<trkpt lat="46.76171" lon="6.45332"><ele>1333.8</ele><time>2023-07-20T18:32:48Z</time></trkpt>
<trkpt lat="46.76173" lon="6.45333"><ele>1334</ele><time>2023-07-20T18:32:53Z</time></trkpt>
<trkpt lat="46.76172" lon="6.45333"><ele>1333.8</ele><time>2023-07-20T18:33:00Z</time></trkpt>
<trkpt lat="46.76173" lon="6.45333"><ele>1334.2</ele><time>2023-07-20T18:33:02Z</time></trkpt>
<trkpt lat="46.76175" lon="6.45332"><ele>1334</ele><time>2023-07-20T18:33:09Z</time></trkpt>
<trkpt lat="46.76174" lon="6.45329"><ele>1333.8</ele><time>2023-07-20T18:33:11Z</time></trkpt>
<trkpt lat="46.76171" lon="6.45329"><ele>1333.8</ele><time>2023-07-20T18:33:13Z</time></trkpt>
<trkpt lat="46.76159" lon="6.45337"><ele>1333.8</ele><time>2023-07-20T18:33:19Z</time></trkpt>
<trkpt lat="46.76148" lon="6.45337"><ele>1333.8</ele><time>2023-07-20T18:33:23Z</time></trkpt>
<trkpt lat="46.76145" lon="6.45334"><ele>1333.4</ele><time>2023-07-20T18:33:24Z</time></trkpt>
<trkpt lat="46.76143" lon="6.4533"><ele>1333.2</ele><time>2023-07-20T18:33:25Z</time></trkpt>
<trkpt lat="46.76141" lon="6.45318"><ele>1332.8</ele><time>2023-07-20T18:33:28Z</time></trkpt>
<trkpt lat="46.76141" lon="6.453"><ele>1332.6</ele><time>2023-07-20T18:33:34Z</time></trkpt>
<trkpt lat="46.76142" lon="6.45298"><ele>1332.8</ele><time>2023-07-20T18:33:35Z</time></trkpt>
<trkpt lat="46.76142" lon="6.45293"><ele>1332.8</ele><time>2023-07-20T18:33:37Z</time></trkpt>
<trkpt lat="46.7614" lon="6.45282"><ele>1333</ele><time>2023-07-20T18:33:40Z</time></trkpt>
<trkpt lat="46.76138" lon="6.45263"><ele>1332</ele><time>2023-07-20T18:33:44Z</time></trkpt>
<trkpt lat="46.76137" lon="6.45256"><ele>1330.8</ele><time>2023-07-20T18:33:46Z</time></trkpt>
<trkpt lat="46.76137" lon="6.45253"><ele>1330.4</ele><time>2023-07-20T18:33:47Z</time></trkpt>
<trkpt lat="46.76137" lon="6.45241"><ele>1329.8</ele><time>2023-07-20T18:33:51Z</time></trkpt>
<trkpt lat="46.76136" lon="6.45238"><ele>1329.6</ele><time>2023-07-20T18:33:52Z</time></trkpt>
<trkpt lat="46.76135" lon="6.4521"><ele>1328.6</ele><time>2023-07-20T18:33:58Z</time></trkpt>
<trkpt lat="46.76135" lon="6.45205"><ele>1328.6</ele><time>2023-07-20T18:33:59Z</time></trkpt>
<trkpt lat="46.76139" lon="6.45178"><ele>1328</ele><time>2023-07-20T18:34:06Z</time></trkpt>
<trkpt lat="46.76142" lon="6.45158"><ele>1327.6</ele><time>2023-07-20T18:34:11Z</time></trkpt>
<trkpt lat="46.76144" lon="6.45146"><ele>1327.4</ele><time>2023-07-20T18:34:14Z</time></trkpt>
<trkpt lat="46.76145" lon="6.4513"><ele>1327</ele><time>2023-07-20T18:34:18Z</time></trkpt>
<trkpt lat="46.76146" lon="6.45115"><ele>1326.6</ele><time>2023-07-20T18:34:22Z</time></trkpt>
<trkpt lat="46.76146" lon="6.45111"><ele>1326.4</ele><time>2023-07-20T18:34:23Z</time></trkpt>
<trkpt lat="46.76146" lon="6.45103"><ele>1326.4</ele><time>2023-07-20T18:34:25Z</time></trkpt>
<trkpt lat="46.7614" lon="6.45068"><ele>1325.4</ele><time>2023-07-20T18:34:33Z</time></trkpt>
<trkpt lat="46.7613" lon="6.45022"><ele>1324.8</ele><time>2023-07-20T18:34:42Z</time></trkpt>
<trkpt lat="46.76119" lon="6.44989"><ele>1325.2</ele><time>2023-07-20T18:34:48Z</time></trkpt>
<trkpt lat="46.76116" lon="6.44983"><ele>1325.2</ele><time>2023-07-20T18:34:49Z</time></trkpt>
<trkpt lat="46.76095" lon="6.44938"><ele>1325.2</ele><time>2023-07-20T18:34:56Z</time></trkpt>
<trkpt lat="46.76063" lon="6.44895"><ele>1324.2</ele><time>2023-07-20T18:35:03Z</time></trkpt>
<trkpt lat="46.76048" lon="6.44878"><ele>1323.2</ele><time>2023-07-20T18:35:06Z</time></trkpt>
<trkpt lat="46.76038" lon="6.44869"><ele>1322.4</ele><time>2023-07-20T18:35:08Z</time></trkpt>
<trkpt lat="46.76033" lon="6.44867"><ele>1321.8</ele><time>2023-07-20T18:35:09Z</time></trkpt>
<trkpt lat="46.76027" lon="6.44864"><ele>1321.6</ele><time>2023-07-20T18:35:10Z</time></trkpt>
<trkpt lat="46.76011" lon="6.44862"><ele>1320.6</ele><time>2023-07-20T18:35:13Z</time></trkpt>
<trkpt lat="46.76005" lon="6.44861"><ele>1320.4</ele><time>2023-07-20T18:35:14Z</time></trkpt>
<trkpt lat="46.75987" lon="6.44855"><ele>1319.6</ele><time>2023-07-20T18:35:17Z</time></trkpt>
<trkpt lat="46.7597" lon="6.44848"><ele>1318.4</ele><time>2023-07-20T18:35:20Z</time></trkpt>
<trkpt lat="46.75964" lon="6.44846"><ele>1318.2</ele><time>2023-07-20T18:35:21Z</time></trkpt>
<trkpt lat="46.75953" lon="6.44841"><ele>1318</ele><time>2023-07-20T18:35:23Z</time></trkpt>
<trkpt lat="46.75941" lon="6.44835"><ele>1317.2</ele><time>2023-07-20T18:35:25Z</time></trkpt>
<trkpt lat="46.75931" lon="6.44832"><ele>1316.4</ele><time>2023-07-20T18:35:27Z</time></trkpt>
<trkpt lat="46.75926" lon="6.4483"><ele>1316.2</ele><time>2023-07-20T18:35:28Z</time></trkpt>
<trkpt lat="46.75912" lon="6.44827"><ele>1315</ele><time>2023-07-20T18:35:31Z</time></trkpt>
<trkpt lat="46.75903" lon="6.44826"><ele>1314.8</ele><time>2023-07-20T18:35:33Z</time></trkpt>
<trkpt lat="46.75899" lon="6.44824"><ele>1314.8</ele><time>2023-07-20T18:35:34Z</time></trkpt>
<trkpt lat="46.75892" lon="6.44815"><ele>1314.6</ele><time>2023-07-20T18:35:36Z</time></trkpt>
<trkpt lat="46.75893" lon="6.448"><ele>1313.8</ele><time>2023-07-20T18:35:39Z</time></trkpt>
<trkpt lat="46.75892" lon="6.44782"><ele>1314</ele><time>2023-07-20T18:35:44Z</time></trkpt>
<trkpt lat="46.75887" lon="6.44765"><ele>1315.2</ele><time>2023-07-20T18:35:49Z</time></trkpt>
<trkpt lat="46.75884" lon="6.44759"><ele>1315.2</ele><time>2023-07-20T18:35:51Z</time></trkpt>
<trkpt lat="46.75874" lon="6.44748"><ele>1316</ele><time>2023-07-20T18:35:56Z</time></trkpt>
<trkpt lat="46.75872" lon="6.44746"><ele>1316.2</ele><time>2023-07-20T18:35:57Z</time></trkpt>
<trkpt lat="46.7587" lon="6.44745"><ele>1316.2</ele><time>2023-07-20T18:35:58Z</time></trkpt>
<trkpt lat="46.75856" lon="6.44737"><ele>1317.4</ele><time>2023-07-20T18:36:04Z</time></trkpt>
<trkpt lat="46.75848" lon="6.44735"><ele>1318.6</ele><time>2023-07-20T18:36:07Z</time></trkpt>
<trkpt lat="46.75838" lon="6.44733"><ele>1319.6</ele><time>2023-07-20T18:36:12Z</time></trkpt>
<trkpt lat="46.75833" lon="6.44733"><ele>1320.2</ele><time>2023-07-20T18:36:15Z</time></trkpt>
<trkpt lat="46.75816" lon="6.44728"><ele>1320.2</ele><time>2023-07-20T18:36:21Z</time></trkpt>
<trkpt lat="46.75797" lon="6.44715"><ele>1318.8</ele><time>2023-07-20T18:36:27Z</time></trkpt>
<trkpt lat="46.75789" lon="6.4471"><ele>1318.6</ele><time>2023-07-20T18:36:29Z</time></trkpt>
<trkpt lat="46.75781" lon="6.44704"><ele>1317.6</ele><time>2023-07-20T18:36:31Z</time></trkpt>
<trkpt lat="46.75777" lon="6.447"><ele>1317.4</ele><time>2023-07-20T18:36:32Z</time></trkpt>
<trkpt lat="46.75759" lon="6.44685"><ele>1315.4</ele><time>2023-07-20T18:36:36Z</time></trkpt>
<trkpt lat="46.75737" lon="6.44665"><ele>1314</ele><time>2023-07-20T18:36:41Z</time></trkpt>
<trkpt lat="46.75725" lon="6.44645"><ele>1312.8</ele><time>2023-07-20T18:36:45Z</time></trkpt>
<trkpt lat="46.75721" lon="6.4464"><ele>1312.4</ele><time>2023-07-20T18:36:46Z</time></trkpt>
<trkpt lat="46.75716" lon="6.44638"><ele>1312</ele><time>2023-07-20T18:36:47Z</time></trkpt>
<trkpt lat="46.7571" lon="6.44637"><ele>1311.2</ele><time>2023-07-20T18:36:48Z</time></trkpt>
<trkpt lat="46.75699" lon="6.44641"><ele>1309.4</ele><time>2023-07-20T18:36:50Z</time></trkpt>
<trkpt lat="46.75689" lon="6.4465"><ele>1308.2</ele><time>2023-07-20T18:36:52Z</time></trkpt>
<trkpt lat="46.75676" lon="6.44664"><ele>1307.2</ele><time>2023-07-20T18:36:55Z</time></trkpt>
<trkpt lat="46.75654" lon="6.44683"><ele>1306.8</ele><time>2023-07-20T18:37:00Z</time></trkpt>
<trkpt lat="46.75649" lon="6.44686"><ele>1306.6</ele><time>2023-07-20T18:37:01Z</time></trkpt>
<trkpt lat="46.75631" lon="6.44699"><ele>1306.2</ele><time>2023-07-20T18:37:05Z</time></trkpt>
<trkpt lat="46.75626" lon="6.447"><ele>1305.8</ele><time>2023-07-20T18:37:06Z</time></trkpt>
<trkpt lat="46.75621" lon="6.447"><ele>1305.6</ele><time>2023-07-20T18:37:07Z</time></trkpt>
<trkpt lat="46.75607" lon="6.44694"><ele>1305</ele><time>2023-07-20T18:37:10Z</time></trkpt>
<trkpt lat="46.75602" lon="6.44692"><ele>1304.8</ele><time>2023-07-20T18:37:11Z</time></trkpt>
<trkpt lat="46.75583" lon="6.4468"><ele>1303.8</ele><time>2023-07-20T18:37:15Z</time></trkpt>
<trkpt lat="46.75579" lon="6.44676"><ele>1303.4</ele><time>2023-07-20T18:37:16Z</time></trkpt>
<trkpt lat="46.75574" lon="6.44672"><ele>1303.2</ele><time>2023-07-20T18:37:17Z</time></trkpt>
<trkpt lat="46.75569" lon="6.44667"><ele>1303</ele><time>2023-07-20T18:37:18Z</time></trkpt>
<trkpt lat="46.75559" lon="6.44655"><ele>1302</ele><time>2023-07-20T18:37:20Z</time></trkpt>
<trkpt lat="46.75555" lon="6.44649"><ele>1301.6</ele><time>2023-07-20T18:37:21Z</time></trkpt>
<trkpt lat="46.75545" lon="6.44636"><ele>1300.8</ele><time>2023-07-20T18:37:23Z</time></trkpt>
<trkpt lat="46.75528" lon="6.44607"><ele>1299.8</ele><time>2023-07-20T18:37:27Z</time></trkpt>
<trkpt lat="46.75523" lon="6.446"><ele>1299.4</ele><time>2023-07-20T18:37:28Z</time></trkpt>
<trkpt lat="46.75519" lon="6.44594"><ele>1298.4</ele><time>2023-07-20T18:37:29Z</time></trkpt>
<trkpt lat="46.75501" lon="6.44577"><ele>1297</ele><time>2023-07-20T18:37:32Z</time></trkpt>
<trkpt lat="46.75495" lon="6.44572"><ele>1296.6</ele><time>2023-07-20T18:37:33Z</time></trkpt>
<trkpt lat="46.75489" lon="6.44567"><ele>1296</ele><time>2023-07-20T18:37:34Z</time></trkpt>
<trkpt lat="46.75477" lon="6.44558"><ele>1295</ele><time>2023-07-20T18:37:36Z</time></trkpt>
<trkpt lat="46.75466" lon="6.44547"><ele>1293.6</ele><time>2023-07-20T18:37:38Z</time></trkpt>
<trkpt lat="46.75449" lon="6.44527"><ele>1292.2</ele><time>2023-07-20T18:37:41Z</time></trkpt>
<trkpt lat="46.75437" lon="6.44507"><ele>1292</ele><time>2023-07-20T18:37:44Z</time></trkpt>
<trkpt lat="46.75428" lon="6.44492"><ele>1293.6</ele><time>2023-07-20T18:37:48Z</time></trkpt>
<trkpt lat="46.75425" lon="6.44489"><ele>1294.6</ele><time>2023-07-20T18:37:50Z</time></trkpt>
<trkpt lat="46.75419" lon="6.44481"><ele>1295.6</ele><time>2023-07-20T18:37:54Z</time></trkpt>
<trkpt lat="46.75418" lon="6.44479"><ele>1295.8</ele><time>2023-07-20T18:37:55Z</time></trkpt>
<trkpt lat="46.75413" lon="6.44467"><ele>1296.8</ele><time>2023-07-20T18:38:00Z</time></trkpt>
<trkpt lat="46.75411" lon="6.44463"><ele>1297.4</ele><time>2023-07-20T18:38:02Z</time></trkpt>
<trkpt lat="46.75411" lon="6.44461"><ele>1297.8</ele><time>2023-07-20T18:38:04Z</time></trkpt>
<trkpt lat="46.75411" lon="6.44459"><ele>1297.8</ele><time>2023-07-20T18:38:05Z</time></trkpt>
<trkpt lat="46.75411" lon="6.44457"><ele>1298</ele><time>2023-07-20T18:38:07Z</time></trkpt>
<trkpt lat="46.75409" lon="6.44452"><ele>1298.2</ele><time>2023-07-20T18:38:09Z</time></trkpt>
<trkpt lat="46.75407" lon="6.44444"><ele>1298.8</ele><time>2023-07-20T18:38:13Z</time></trkpt>
<trkpt lat="46.75406" lon="6.44439"><ele>1299</ele><time>2023-07-20T18:38:15Z</time></trkpt>
<trkpt lat="46.75406" lon="6.44438"><ele>1299.2</ele><time>2023-07-20T18:38:16Z</time></trkpt>
<trkpt lat="46.75403" lon="6.44427"><ele>1300</ele><time>2023-07-20T18:38:23Z</time></trkpt>
<trkpt lat="46.75402" lon="6.44426"><ele>1300.2</ele><time>2023-07-20T18:38:24Z</time></trkpt>
<trkpt lat="46.75401" lon="6.44422"><ele>1300.4</ele><time>2023-07-20T18:38:26Z</time></trkpt>
<trkpt lat="46.75401" lon="6.44421"><ele>1300.6</ele><time>2023-07-20T18:38:27Z</time></trkpt>
<trkpt lat="46.75399" lon="6.44416"><ele>1300.8</ele><time>2023-07-20T18:38:29Z</time></trkpt>
<trkpt lat="46.75399" lon="6.44412"><ele>1301</ele><time>2023-07-20T18:38:31Z</time></trkpt>
<trkpt lat="46.75398" lon="6.4441"><ele>1301.2</ele><time>2023-07-20T18:38:32Z</time></trkpt>
<trkpt lat="46.75394" lon="6.44401"><ele>1302.2</ele><time>2023-07-20T18:38:38Z</time></trkpt>
<trkpt lat="46.75394" lon="6.44399"><ele>1302.4</ele><time>2023-07-20T18:38:39Z</time></trkpt>
<trkpt lat="46.75392" lon="6.44391"><ele>1303.4</ele><time>2023-07-20T18:38:44Z</time></trkpt>
<trkpt lat="46.75392" lon="6.44389"><ele>1303.6</ele><time>2023-07-20T18:38:45Z</time></trkpt>
<trkpt lat="46.75389" lon="6.44379"><ele>1304.6</ele><time>2023-07-20T18:38:50Z</time></trkpt>
<trkpt lat="46.75389" lon="6.44377"><ele>1305</ele><time>2023-07-20T18:38:51Z</time></trkpt>
<trkpt lat="46.75388" lon="6.4437"><ele>1305.4</ele><time>2023-07-20T18:38:55Z</time></trkpt>
<trkpt lat="46.75389" lon="6.44367"><ele>1305.6</ele><time>2023-07-20T18:38:57Z</time></trkpt>
<trkpt lat="46.75389" lon="6.44363"><ele>1306</ele><time>2023-07-20T18:38:59Z</time></trkpt>
<trkpt lat="46.75388" lon="6.44359"><ele>1306.2</ele><time>2023-07-20T18:39:01Z</time></trkpt>
<trkpt lat="46.75388" lon="6.44358"><ele>1306.4</ele><time>2023-07-20T18:39:02Z</time></trkpt>
<trkpt lat="46.75387" lon="6.44356"><ele>1306.4</ele><time>2023-07-20T18:39:03Z</time></trkpt>
<trkpt lat="46.75387" lon="6.44354"><ele>1306.6</ele><time>2023-07-20T18:39:04Z</time></trkpt>
<trkpt lat="46.75386" lon="6.44351"><ele>1306.8</ele><time>2023-07-20T18:39:06Z</time></trkpt>
<trkpt lat="46.75386" lon="6.44348"><ele>1307</ele><time>2023-07-20T18:39:08Z</time></trkpt>
<trkpt lat="46.75384" lon="6.44339"><ele>1307.8</ele><time>2023-07-20T18:39:13Z</time></trkpt>
<trkpt lat="46.75384" lon="6.44337"><ele>1307.8</ele><time>2023-07-20T18:39:14Z</time></trkpt>
<trkpt lat="46.75383" lon="6.44329"><ele>1308.8</ele><time>2023-07-20T18:39:18Z</time></trkpt>
<trkpt lat="46.7538" lon="6.44324"><ele>1309.4</ele><time>2023-07-20T18:39:22Z</time></trkpt>
<trkpt lat="46.75379" lon="6.44318"><ele>1309.8</ele><time>2023-07-20T18:39:25Z</time></trkpt>
<trkpt lat="46.75378" lon="6.44317"><ele>1310</ele><time>2023-07-20T18:39:26Z</time></trkpt>
<trkpt lat="46.75378" lon="6.44311"><ele>1310.4</ele><time>2023-07-20T18:39:29Z</time></trkpt>
<trkpt lat="46.75379" lon="6.44305"><ele>1310.8</ele><time>2023-07-20T18:39:32Z</time></trkpt>
<trkpt lat="46.75378" lon="6.44299"><ele>1311.2</ele><time>2023-07-20T18:39:35Z</time></trkpt>
<trkpt lat="46.75378" lon="6.44297"><ele>1311.2</ele><time>2023-07-20T18:39:36Z</time></trkpt>
<trkpt lat="46.75377" lon="6.44287"><ele>1312.2</ele><time>2023-07-20T18:39:41Z</time></trkpt>
<trkpt lat="46.75377" lon="6.44286"><ele>1312.2</ele><time>2023-07-20T18:39:42Z</time></trkpt>
<trkpt lat="46.75375" lon="6.44277"><ele>1313.4</ele><time>2023-07-20T18:39:47Z</time></trkpt>
<trkpt lat="46.75374" lon="6.44273"><ele>1314</ele><time>2023-07-20T18:39:49Z</time></trkpt>
<trkpt lat="46.7537" lon="6.44265"><ele>1314.4</ele><time>2023-07-20T18:39:54Z</time></trkpt>
<trkpt lat="46.75368" lon="6.44258"><ele>1314.6</ele><time>2023-07-20T18:39:58Z</time></trkpt>
<trkpt lat="46.75364" lon="6.44249"><ele>1315.2</ele><time>2023-07-20T18:40:04Z</time></trkpt>
<trkpt lat="46.75361" lon="6.44244"><ele>1315.6</ele><time>2023-07-20T18:40:07Z</time></trkpt>
<trkpt lat="46.75358" lon="6.4424"><ele>1316.2</ele><time>2023-07-20T18:40:10Z</time></trkpt>
<trkpt lat="46.75356" lon="6.44238"><ele>1316.8</ele><time>2023-07-20T18:40:12Z</time></trkpt>
<trkpt lat="46.7535" lon="6.4423"><ele>1317.8</ele><time>2023-07-20T18:40:18Z</time></trkpt>
<trkpt lat="46.75345" lon="6.4422"><ele>1318.6</ele><time>2023-07-20T18:40:25Z</time></trkpt>
<trkpt lat="46.75339" lon="6.4421"><ele>1318.8</ele><time>2023-07-20T18:40:31Z</time></trkpt>
<trkpt lat="46.75337" lon="6.44204"><ele>1318.8</ele><time>2023-07-20T18:40:34Z</time></trkpt>
<trkpt lat="46.75332" lon="6.44187"><ele>1318.8</ele><time>2023-07-20T18:40:40Z</time></trkpt>
<trkpt lat="46.75324" lon="6.4416"><ele>1319</ele><time>2023-07-20T18:40:48Z</time></trkpt>
<trkpt lat="46.75321" lon="6.44131"><ele>1318.8</ele><time>2023-07-20T18:40:55Z</time></trkpt>
<trkpt lat="46.75321" lon="6.44103"><ele>1317.6</ele><time>2023-07-20T18:41:01Z</time></trkpt>
<trkpt lat="46.75321" lon="6.44098"><ele>1317.6</ele><time>2023-07-20T18:41:02Z</time></trkpt>
<trkpt lat="46.75321" lon="6.44077"><ele>1317.6</ele><time>2023-07-20T18:41:06Z</time></trkpt>
<trkpt lat="46.75321" lon="6.44062"><ele>1317.8</ele><time>2023-07-20T18:41:09Z</time></trkpt>
<trkpt lat="46.75319" lon="6.44036"><ele>1318.6</ele><time>2023-07-20T18:41:15Z</time></trkpt>
<trkpt lat="46.75317" lon="6.44025"><ele>1318.8</ele><time>2023-07-20T18:41:18Z</time></trkpt>
<trkpt lat="46.75314" lon="6.4401"><ele>1319.2</ele><time>2023-07-20T18:41:22Z</time></trkpt>
<trkpt lat="46.75312" lon="6.44004"><ele>1320</ele><time>2023-07-20T18:41:24Z</time></trkpt>
<trkpt lat="46.75308" lon="6.43989"><ele>1320.6</ele><time>2023-07-20T18:41:29Z</time></trkpt>
<trkpt lat="46.75307" lon="6.43983"><ele>1321</ele><time>2023-07-20T18:41:31Z</time></trkpt>
<trkpt lat="46.75305" lon="6.43974"><ele>1321.2</ele><time>2023-07-20T18:41:34Z</time></trkpt>
<trkpt lat="46.75303" lon="6.43966"><ele>1321.6</ele><time>2023-07-20T18:41:37Z</time></trkpt>
<trkpt lat="46.75298" lon="6.43952"><ele>1322</ele><time>2023-07-20T18:41:43Z</time></trkpt>
<trkpt lat="46.75297" lon="6.43951"><ele>1322</ele><time>2023-07-20T18:41:45Z</time></trkpt>
<trkpt lat="46.75298" lon="6.43952"><ele>1322</ele><time>2023-07-20T18:41:51Z</time></trkpt>
<trkpt lat="46.75301" lon="6.43949"><ele>1321.8</ele><time>2023-07-20T18:41:57Z</time></trkpt>
<trkpt lat="46.75299" lon="6.43949"><ele>1321.6</ele><time>2023-07-20T18:42:07Z</time></trkpt>
<trkpt lat="46.75299" lon="6.43949"><ele>1321.4</ele><time>2023-07-20T18:42:18Z</time></trkpt>
<trkpt lat="46.75299" lon="6.43949"><ele>1321.6</ele><time>2023-07-20T18:42:22Z</time></trkpt>
<trkpt lat="46.753" lon="6.43949"><ele>1321.8</ele><time>2023-07-20T18:42:28Z</time></trkpt>
<trkpt lat="46.753" lon="6.43949"><ele>1321.8</ele><time>2023-07-20T18:42:33Z</time></trkpt>
<trkpt lat="46.75301" lon="6.43948"><ele>1321.8</ele><time>2023-07-20T18:42:41Z</time></trkpt>
<trkpt lat="46.75299" lon="6.43949"><ele>1321.8</ele><time>2023-07-20T18:42:44Z</time></trkpt>
<trkpt lat="46.75298" lon="6.4395"><ele>1321.4</ele><time>2023-07-20T18:42:50Z</time></trkpt>
<trkpt lat="46.75299" lon="6.4395"><ele>1321.4</ele><time>2023-07-20T18:42:56Z</time></trkpt>
<trkpt lat="46.75299" lon="6.43951"><ele>1321.4</ele><time>2023-07-20T18:43:00Z</time></trkpt>
<trkpt lat="46.75298" lon="6.43951"><ele>1321.4</ele><time>2023-07-20T18:43:04Z</time></trkpt>
<trkpt lat="46.753" lon="6.43951"><ele>1321.4</ele><time>2023-07-20T18:43:13Z</time></trkpt>
<trkpt lat="46.753" lon="6.43951"><ele>1321.4</ele><time>2023-07-20T18:43:23Z</time></trkpt>
<trkpt lat="46.753" lon="6.43951"><ele>1321.4</ele><time>2023-07-20T18:43:30Z</time></trkpt>
<trkpt lat="46.753" lon="6.43951"><ele>1321.4</ele><time>2023-07-20T18:43:50Z</time></trkpt>
<trkpt lat="46.75299" lon="6.4395"><ele>1321.4</ele><time>2023-07-20T18:43:58Z</time></trkpt>
<trkpt lat="46.75298" lon="6.4395"><ele>1321.4</ele><time>2023-07-20T18:44:07Z</time></trkpt>
<trkpt lat="46.75298" lon="6.43949"><ele>1321.4</ele><time>2023-07-20T18:44:10Z</time></trkpt>
<trkpt lat="46.75298" lon="6.4395"><ele>1321.4</ele><time>2023-07-20T18:44:12Z</time></trkpt>
<trkpt lat="46.753" lon="6.43952"><ele>1321.4</ele><time>2023-07-20T18:44:19Z</time></trkpt>
<trkpt lat="46.75299" lon="6.43953"><ele>1321.4</ele><time>2023-07-20T18:44:23Z</time></trkpt>
<trkpt lat="46.75298" lon="6.43952"><ele>1321.4</ele><time>2023-07-20T18:44:26Z</time></trkpt>
<trkpt lat="46.75298" lon="6.43951"><ele>1321.4</ele><time>2023-07-20T18:44:35Z</time></trkpt>
<trkpt lat="46.75299" lon="6.43951"><ele>1321.4</ele><time>2023-07-20T18:44:38Z</time></trkpt>
<trkpt lat="46.75299" lon="6.43951"><ele>1321.4</ele><time>2023-07-20T18:44:41Z</time></trkpt>
<trkpt lat="46.75299" lon="6.43953"><ele>1321.4</ele><time>2023-07-20T18:44:42Z</time></trkpt>
<trkpt lat="46.75301" lon="6.43958"><ele>1321.4</ele><time>2023-07-20T18:44:45Z</time></trkpt>
<trkpt lat="46.75302" lon="6.43965"><ele>1321.6</ele><time>2023-07-20T18:44:49Z</time></trkpt>
<trkpt lat="46.75303" lon="6.43967"><ele>1321.6</ele><time>2023-07-20T18:44:50Z</time></trkpt>
<trkpt lat="46.75303" lon="6.4397"><ele>1321.6</ele><time>2023-07-20T18:44:51Z</time></trkpt>
<trkpt lat="46.75306" lon="6.43974"><ele>1321.6</ele><time>2023-07-20T18:44:53Z</time></trkpt>
<trkpt lat="46.75308" lon="6.43982"><ele>1321.4</ele><time>2023-07-20T18:44:56Z</time></trkpt>
<trkpt lat="46.75313" lon="6.43998"><ele>1320.4</ele><time>2023-07-20T18:45:03Z</time></trkpt>
<trkpt lat="46.75313" lon="6.43998"><ele>1319.8</ele><time>2023-07-20T18:45:05Z</time></trkpt>
<trkpt lat="46.75314" lon="6.43999"><ele>1319.8</ele><time>2023-07-20T18:45:11Z</time></trkpt>
<trkpt lat="46.75316" lon="6.44013"><ele>1319.8</ele><time>2023-07-20T18:45:15Z</time></trkpt>
<trkpt lat="46.7532" lon="6.44046"><ele>1318.8</ele><time>2023-07-20T18:45:21Z</time></trkpt>
<trkpt lat="46.7532" lon="6.44082"><ele>1318</ele><time>2023-07-20T18:45:28Z</time></trkpt>
<trkpt lat="46.75321" lon="6.44087"><ele>1317.8</ele><time>2023-07-20T18:45:29Z</time></trkpt>
<trkpt lat="46.7532" lon="6.441"><ele>1318</ele><time>2023-07-20T18:45:32Z</time></trkpt>
<trkpt lat="46.7532" lon="6.44118"><ele>1318</ele><time>2023-07-20T18:45:36Z</time></trkpt>
<trkpt lat="46.75321" lon="6.44141"><ele>1318.4</ele><time>2023-07-20T18:45:42Z</time></trkpt>
<trkpt lat="46.75322" lon="6.44151"><ele>1319.2</ele><time>2023-07-20T18:45:45Z</time></trkpt>
<trkpt lat="46.75325" lon="6.44166"><ele>1319.4</ele><time>2023-07-20T18:45:49Z</time></trkpt>
<trkpt lat="46.75335" lon="6.44197"><ele>1319.2</ele><time>2023-07-20T18:45:56Z</time></trkpt>
<trkpt lat="46.75343" lon="6.44217"><ele>1319.2</ele><time>2023-07-20T18:46:02Z</time></trkpt>
<trkpt lat="46.75357" lon="6.44243"><ele>1318.8</ele><time>2023-07-20T18:46:09Z</time></trkpt>
<trkpt lat="46.75365" lon="6.44258"><ele>1318</ele><time>2023-07-20T18:46:12Z</time></trkpt>
<trkpt lat="46.7537" lon="6.4427"><ele>1317</ele><time>2023-07-20T18:46:14Z</time></trkpt>
<trkpt lat="46.75372" lon="6.44275"><ele>1316.6</ele><time>2023-07-20T18:46:15Z</time></trkpt>
<trkpt lat="46.75374" lon="6.44288"><ele>1315.2</ele><time>2023-07-20T18:46:17Z</time></trkpt>
<trkpt lat="46.75378" lon="6.44301"><ele>1314</ele><time>2023-07-20T18:46:19Z</time></trkpt>
<trkpt lat="46.75379" lon="6.44308"><ele>1313.6</ele><time>2023-07-20T18:46:20Z</time></trkpt>
<trkpt lat="46.75382" lon="6.4432"><ele>1312.4</ele><time>2023-07-20T18:46:22Z</time></trkpt>
<trkpt lat="46.75384" lon="6.44333"><ele>1311.2</ele><time>2023-07-20T18:46:24Z</time></trkpt>
<trkpt lat="46.75386" lon="6.44344"><ele>1310.2</ele><time>2023-07-20T18:46:26Z</time></trkpt>
<trkpt lat="46.75388" lon="6.44349"><ele>1309.8</ele><time>2023-07-20T18:46:27Z</time></trkpt>
<trkpt lat="46.75392" lon="6.44365"><ele>1308.6</ele><time>2023-07-20T18:46:30Z</time></trkpt>
<trkpt lat="46.75394" lon="6.44382"><ele>1307.2</ele><time>2023-07-20T18:46:33Z</time></trkpt>
<trkpt lat="46.75395" lon="6.44389"><ele>1306</ele><time>2023-07-20T18:46:34Z</time></trkpt>
<trkpt lat="46.75399" lon="6.44404"><ele>1304.8</ele><time>2023-07-20T18:46:36Z</time></trkpt>
<trkpt lat="46.75403" lon="6.44419"><ele>1303.4</ele><time>2023-07-20T18:46:38Z</time></trkpt>
<trkpt lat="46.75405" lon="6.44427"><ele>1302.2</ele><time>2023-07-20T18:46:39Z</time></trkpt>
<trkpt lat="46.75411" lon="6.44447"><ele>1301.2</ele><time>2023-07-20T18:46:42Z</time></trkpt>
<trkpt lat="46.75412" lon="6.44453"><ele>1300.4</ele><time>2023-07-20T18:46:43Z</time></trkpt>
<trkpt lat="46.75415" lon="6.44462"><ele>1299.8</ele><time>2023-07-20T18:46:45Z</time></trkpt>
<trkpt lat="46.75421" lon="6.44473"><ele>1298.6</ele><time>2023-07-20T18:46:48Z</time></trkpt>
<trkpt lat="46.75431" lon="6.44489"><ele>1297.2</ele><time>2023-07-20T18:46:51Z</time></trkpt>
<trkpt lat="46.75438" lon="6.44501"><ele>1296</ele><time>2023-07-20T18:46:53Z</time></trkpt>
<trkpt lat="46.75454" lon="6.44524"><ele>1294.4</ele><time>2023-07-20T18:46:56Z</time></trkpt>
<trkpt lat="46.75463" lon="6.44538"><ele>1293.2</ele><time>2023-07-20T18:46:58Z</time></trkpt>
<trkpt lat="46.75478" lon="6.44553"><ele>1293.8</ele><time>2023-07-20T18:47:02Z</time></trkpt>
<trkpt lat="46.75484" lon="6.4456"><ele>1294.2</ele><time>2023-07-20T18:47:05Z</time></trkpt>
<trkpt lat="46.7549" lon="6.44565"><ele>1294.4</ele><time>2023-07-20T18:47:08Z</time></trkpt>
<trkpt lat="46.75499" lon="6.44576"><ele>1295.2</ele><time>2023-07-20T18:47:13Z</time></trkpt>
<trkpt lat="46.75504" lon="6.44582"><ele>1295.8</ele><time>2023-07-20T18:47:16Z</time></trkpt>
<trkpt lat="46.7551" lon="6.44587"><ele>1296.2</ele><time>2023-07-20T18:47:20Z</time></trkpt>
<trkpt lat="46.75513" lon="6.44591"><ele>1296.8</ele><time>2023-07-20T18:47:22Z</time></trkpt>
<trkpt lat="46.75517" lon="6.44595"><ele>1297.4</ele><time>2023-07-20T18:47:25Z</time></trkpt>
<trkpt lat="46.75523" lon="6.44601"><ele>1298.2</ele><time>2023-07-20T18:47:29Z</time></trkpt>
<trkpt lat="46.75525" lon="6.44604"><ele>1298.6</ele><time>2023-07-20T18:47:31Z</time></trkpt>
<trkpt lat="46.7553" lon="6.44611"><ele>1299.2</ele><time>2023-07-20T18:47:35Z</time></trkpt>
<trkpt lat="46.75531" lon="6.44612"><ele>1299.2</ele><time>2023-07-20T18:47:36Z</time></trkpt>
<trkpt lat="46.75532" lon="6.44614"><ele>1299.4</ele><time>2023-07-20T18:47:37Z</time></trkpt>
<trkpt lat="46.75533" lon="6.44616"><ele>1299.6</ele><time>2023-07-20T18:47:38Z</time></trkpt>
<trkpt lat="46.75534" lon="6.44618"><ele>1300</ele><time>2023-07-20T18:47:39Z</time></trkpt>
<trkpt lat="46.75536" lon="6.44622"><ele>1300.2</ele><time>2023-07-20T18:47:41Z</time></trkpt>
<trkpt lat="46.75539" lon="6.44628"><ele>1300.8</ele><time>2023-07-20T18:47:44Z</time></trkpt>
<trkpt lat="46.75542" lon="6.44632"><ele>1301</ele><time>2023-07-20T18:47:46Z</time></trkpt>
<trkpt lat="46.75545" lon="6.44638"><ele>1301.6</ele><time>2023-07-20T18:47:49Z</time></trkpt>
<trkpt lat="46.75549" lon="6.44643"><ele>1302</ele><time>2023-07-20T18:47:51Z</time></trkpt>
<trkpt lat="46.75553" lon="6.44649"><ele>1302.2</ele><time>2023-07-20T18:47:54Z</time></trkpt>
<trkpt lat="46.75565" lon="6.44663"><ele>1302.8</ele><time>2023-07-20T18:48:01Z</time></trkpt>
<trkpt lat="46.75567" lon="6.44666"><ele>1303</ele><time>2023-07-20T18:48:02Z</time></trkpt>
<trkpt lat="46.75579" lon="6.44678"><ele>1303.8</ele><time>2023-07-20T18:48:09Z</time></trkpt>
<trkpt lat="46.75583" lon="6.44682"><ele>1304</ele><time>2023-07-20T18:48:11Z</time></trkpt>
<trkpt lat="46.75591" lon="6.44688"><ele>1304.8</ele><time>2023-07-20T18:48:15Z</time></trkpt>
<trkpt lat="46.75595" lon="6.4469"><ele>1305.2</ele><time>2023-07-20T18:48:17Z</time></trkpt>
<trkpt lat="46.7561" lon="6.44699"><ele>1305.8</ele><time>2023-07-20T18:48:24Z</time></trkpt>
<trkpt lat="46.75625" lon="6.44702"><ele>1306.2</ele><time>2023-07-20T18:48:30Z</time></trkpt>
<trkpt lat="46.75628" lon="6.44702"><ele>1306.2</ele><time>2023-07-20T18:48:31Z</time></trkpt>
<trkpt lat="46.75645" lon="6.44694"><ele>1306.4</ele><time>2023-07-20T18:48:38Z</time></trkpt>
<trkpt lat="46.75659" lon="6.44681"><ele>1306.8</ele><time>2023-07-20T18:48:45Z</time></trkpt>
<trkpt lat="46.75663" lon="6.44676"><ele>1307.2</ele><time>2023-07-20T18:48:48Z</time></trkpt>
<trkpt lat="46.7567" lon="6.4467"><ele>1307.6</ele><time>2023-07-20T18:48:52Z</time></trkpt>
<trkpt lat="46.75683" lon="6.44659"><ele>1308.4</ele><time>2023-07-20T18:48:59Z</time></trkpt>
<trkpt lat="46.75697" lon="6.44646"><ele>1308.8</ele><time>2023-07-20T18:49:04Z</time></trkpt>
<trkpt lat="46.75702" lon="6.44642"><ele>1309</ele><time>2023-07-20T18:49:06Z</time></trkpt>
<trkpt lat="46.75708" lon="6.44639"><ele>1309.6</ele><time>2023-07-20T18:49:09Z</time></trkpt>
<trkpt lat="46.75714" lon="6.4464"><ele>1310.2</ele><time>2023-07-20T18:49:12Z</time></trkpt>
<trkpt lat="46.75721" lon="6.44643"><ele>1310.6</ele><time>2023-07-20T18:49:15Z</time></trkpt>
<trkpt lat="46.75726" lon="6.44648"><ele>1311.4</ele><time>2023-07-20T18:49:18Z</time></trkpt>
<trkpt lat="46.75727" lon="6.4465"><ele>1312</ele><time>2023-07-20T18:49:19Z</time></trkpt>
<trkpt lat="46.75733" lon="6.44658"><ele>1313</ele><time>2023-07-20T18:49:23Z</time></trkpt>
<trkpt lat="46.75736" lon="6.44661"><ele>1313.8</ele><time>2023-07-20T18:49:25Z</time></trkpt>
<trkpt lat="46.75743" lon="6.44671"><ele>1314</ele><time>2023-07-20T18:49:30Z</time></trkpt>
<trkpt lat="46.75749" lon="6.44676"><ele>1315.4</ele><time>2023-07-20T18:49:33Z</time></trkpt>
<trkpt lat="46.75758" lon="6.44686"><ele>1316.4</ele><time>2023-07-20T18:49:40Z</time></trkpt>
<trkpt lat="46.75762" lon="6.4469"><ele>1316.8</ele><time>2023-07-20T18:49:43Z</time></trkpt>
<trkpt lat="46.75765" lon="6.44693"><ele>1317</ele><time>2023-07-20T18:49:45Z</time></trkpt>
<trkpt lat="46.75771" lon="6.44697"><ele>1317.4</ele><time>2023-07-20T18:49:48Z</time></trkpt>
<trkpt lat="46.75773" lon="6.44698"><ele>1317.4</ele><time>2023-07-20T18:49:49Z</time></trkpt>
<trkpt lat="46.75782" lon="6.44703"><ele>1318.2</ele><time>2023-07-20T18:49:54Z</time></trkpt>
<trkpt lat="46.75787" lon="6.44706"><ele>1318.6</ele><time>2023-07-20T18:49:57Z</time></trkpt>
<trkpt lat="46.75795" lon="6.44712"><ele>1319</ele><time>2023-07-20T18:50:02Z</time></trkpt>
<trkpt lat="46.75798" lon="6.44714"><ele>1319.6</ele><time>2023-07-20T18:50:04Z</time></trkpt>
<trkpt lat="46.75807" lon="6.44721"><ele>1320.6</ele><time>2023-07-20T18:50:10Z</time></trkpt>
<trkpt lat="46.75809" lon="6.44722"><ele>1320.8</ele><time>2023-07-20T18:50:11Z</time></trkpt>
<trkpt lat="46.75813" lon="6.44725"><ele>1320.8</ele><time>2023-07-20T18:50:14Z</time></trkpt>
<trkpt lat="46.75821" lon="6.44729"><ele>1321.2</ele><time>2023-07-20T18:50:19Z</time></trkpt>
<trkpt lat="46.75835" lon="6.44732"><ele>1321.2</ele><time>2023-07-20T18:50:27Z</time></trkpt>
<trkpt lat="46.75853" lon="6.44736"><ele>1320.6</ele><time>2023-07-20T18:50:33Z</time></trkpt>
<trkpt lat="46.75864" lon="6.44741"><ele>1319.6</ele><time>2023-07-20T18:50:36Z</time></trkpt>
<trkpt lat="46.75873" lon="6.44746"><ele>1319</ele><time>2023-07-20T18:50:38Z</time></trkpt>
<trkpt lat="46.75877" lon="6.4475"><ele>1319</ele><time>2023-07-20T18:50:39Z</time></trkpt>
<trkpt lat="46.75885" lon="6.44759"><ele>1318.6</ele><time>2023-07-20T18:50:41Z</time></trkpt>
<trkpt lat="46.75892" lon="6.44771"><ele>1318</ele><time>2023-07-20T18:50:43Z</time></trkpt>
<trkpt lat="46.75895" lon="6.44785"><ele>1317.6</ele><time>2023-07-20T18:50:45Z</time></trkpt>
<trkpt lat="46.75894" lon="6.44799"><ele>1317.2</ele><time>2023-07-20T18:50:47Z</time></trkpt>
<trkpt lat="46.7589" lon="6.44812"><ele>1316.8</ele><time>2023-07-20T18:50:49Z</time></trkpt>
<trkpt lat="46.75883" lon="6.44832"><ele>1316.4</ele><time>2023-07-20T18:50:52Z</time></trkpt>
<trkpt lat="46.75861" lon="6.44869"><ele>1315.4</ele><time>2023-07-20T18:50:58Z</time></trkpt>
<trkpt lat="46.7585" lon="6.44875"><ele>1314.8</ele><time>2023-07-20T18:51:00Z</time></trkpt>
<trkpt lat="46.75836" lon="6.44879"><ele>1314</ele><time>2023-07-20T18:51:02Z</time></trkpt>
<trkpt lat="46.7581" lon="6.44882"><ele>1312.6</ele><time>2023-07-20T18:51:05Z</time></trkpt>
<trkpt lat="46.75792" lon="6.44883"><ele>1311.2</ele><time>2023-07-20T18:51:07Z</time></trkpt>
<trkpt lat="46.75775" lon="6.44882"><ele>1309.6</ele><time>2023-07-20T18:51:09Z</time></trkpt>
<trkpt lat="46.75759" lon="6.44884"><ele>1308.2</ele><time>2023-07-20T18:51:11Z</time></trkpt>
<trkpt lat="46.75752" lon="6.44886"><ele>1307.2</ele><time>2023-07-20T18:51:12Z</time></trkpt>
<trkpt lat="46.75744" lon="6.44889"><ele>1306.4</ele><time>2023-07-20T18:51:13Z</time></trkpt>
<trkpt lat="46.75729" lon="6.44896"><ele>1305.4</ele><time>2023-07-20T18:51:15Z</time></trkpt>
<trkpt lat="46.75719" lon="6.44908"><ele>1304</ele><time>2023-07-20T18:51:17Z</time></trkpt>
<trkpt lat="46.75714" lon="6.4493"><ele>1303</ele><time>2023-07-20T18:51:19Z</time></trkpt>
<trkpt lat="46.75713" lon="6.44943"><ele>1302.8</ele><time>2023-07-20T18:51:20Z</time></trkpt>
<trkpt lat="46.75714" lon="6.44955"><ele>1302.6</ele><time>2023-07-20T18:51:21Z</time></trkpt>
<trkpt lat="46.75715" lon="6.44969"><ele>1301.8</ele><time>2023-07-20T18:51:22Z</time></trkpt>
<trkpt lat="46.75718" lon="6.44982"><ele>1300.8</ele><time>2023-07-20T18:51:23Z</time></trkpt>
<trkpt lat="46.75721" lon="6.44996"><ele>1299</ele><time>2023-07-20T18:51:24Z</time></trkpt>
<trkpt lat="46.75728" lon="6.45026"><ele>1297.2</ele><time>2023-07-20T18:51:26Z</time></trkpt>
<trkpt lat="46.75737" lon="6.45057"><ele>1296</ele><time>2023-07-20T18:51:28Z</time></trkpt>
<trkpt lat="46.75741" lon="6.45072"><ele>1295.4</ele><time>2023-07-20T18:51:29Z</time></trkpt>
<trkpt lat="46.75745" lon="6.45089"><ele>1294.6</ele><time>2023-07-20T18:51:30Z</time></trkpt>
<trkpt lat="46.75749" lon="6.45107"><ele>1293.4</ele><time>2023-07-20T18:51:31Z</time></trkpt>
<trkpt lat="46.75753" lon="6.45124"><ele>1291.8</ele><time>2023-07-20T18:51:32Z</time></trkpt>
<trkpt lat="46.75759" lon="6.4516"><ele>1290.4</ele><time>2023-07-20T18:51:34Z</time></trkpt>
<trkpt lat="46.75759" lon="6.45176"><ele>1288.4</ele><time>2023-07-20T18:51:35Z</time></trkpt>
<trkpt lat="46.75756" lon="6.4519"><ele>1286.8</ele><time>2023-07-20T18:51:36Z</time></trkpt>
<trkpt lat="46.75753" lon="6.45202"><ele>1286.2</ele><time>2023-07-20T18:51:37Z</time></trkpt>
<trkpt lat="46.75748" lon="6.45211"><ele>1286.2</ele><time>2023-07-20T18:51:38Z</time></trkpt>
<trkpt lat="46.75737" lon="6.45228"><ele>1285.6</ele><time>2023-07-20T18:51:40Z</time></trkpt>
<trkpt lat="46.75732" lon="6.45233"><ele>1285</ele><time>2023-07-20T18:51:41Z</time></trkpt>
<trkpt lat="46.75728" lon="6.45238"><ele>1283.6</ele><time>2023-07-20T18:51:42Z</time></trkpt>
<trkpt lat="46.75722" lon="6.4524"><ele>1282.6</ele><time>2023-07-20T18:51:43Z</time></trkpt>
<trkpt lat="46.75716" lon="6.45241"><ele>1282.6</ele><time>2023-07-20T18:51:44Z</time></trkpt>
<trkpt lat="46.7571" lon="6.45241"><ele>1282.2</ele><time>2023-07-20T18:51:45Z</time></trkpt>
<trkpt lat="46.75697" lon="6.45243"><ele>1281.4</ele><time>2023-07-20T18:51:47Z</time></trkpt>
<trkpt lat="46.75673" lon="6.45241"><ele>1280.2</ele><time>2023-07-20T18:51:50Z</time></trkpt>
<trkpt lat="46.75665" lon="6.45239"><ele>1278.6</ele><time>2023-07-20T18:51:51Z</time></trkpt>
<trkpt lat="46.75656" lon="6.45238"><ele>1276.8</ele><time>2023-07-20T18:51:52Z</time></trkpt>
<trkpt lat="46.75617" lon="6.45232"><ele>1275.8</ele><time>2023-07-20T18:51:56Z</time></trkpt>
<trkpt lat="46.75607" lon="6.45231"><ele>1275.4</ele><time>2023-07-20T18:51:57Z</time></trkpt>
<trkpt lat="46.75596" lon="6.4523"><ele>1274.2</ele><time>2023-07-20T18:51:58Z</time></trkpt>
<trkpt lat="46.75585" lon="6.45229"><ele>1273.2</ele><time>2023-07-20T18:51:59Z</time></trkpt>
<trkpt lat="46.75562" lon="6.45226"><ele>1271.8</ele><time>2023-07-20T18:52:01Z</time></trkpt>
<trkpt lat="46.7555" lon="6.45225"><ele>1270.4</ele><time>2023-07-20T18:52:02Z</time></trkpt>
<trkpt lat="46.75538" lon="6.45223"><ele>1269.4</ele><time>2023-07-20T18:52:03Z</time></trkpt>
<trkpt lat="46.75514" lon="6.45216"><ele>1267.4</ele><time>2023-07-20T18:52:05Z</time></trkpt>
<trkpt lat="46.75491" lon="6.4521"><ele>1266.4</ele><time>2023-07-20T18:52:07Z</time></trkpt>
<trkpt lat="46.75479" lon="6.45206"><ele>1265.4</ele><time>2023-07-20T18:52:08Z</time></trkpt>
<trkpt lat="46.75468" lon="6.452"><ele>1264.8</ele><time>2023-07-20T18:52:09Z</time></trkpt>
<trkpt lat="46.75445" lon="6.45188"><ele>1262.2</ele><time>2023-07-20T18:52:11Z</time></trkpt>
<trkpt lat="46.75433" lon="6.45181"><ele>1261</ele><time>2023-07-20T18:52:12Z</time></trkpt>
<trkpt lat="46.7541" lon="6.45168"><ele>1259.2</ele><time>2023-07-20T18:52:14Z</time></trkpt>
<trkpt lat="46.75386" lon="6.45156"><ele>1257.4</ele><time>2023-07-20T18:52:16Z</time></trkpt>
<trkpt lat="46.75363" lon="6.45143"><ele>1255.8</ele><time>2023-07-20T18:52:18Z</time></trkpt>
<trkpt lat="46.75342" lon="6.4513"><ele>1254.6</ele><time>2023-07-20T18:52:20Z</time></trkpt>
<trkpt lat="46.75332" lon="6.45123"><ele>1253.4</ele><time>2023-07-20T18:52:21Z</time></trkpt>
<trkpt lat="46.75324" lon="6.45115"><ele>1252</ele><time>2023-07-20T18:52:22Z</time></trkpt>
<trkpt lat="46.75316" lon="6.45106"><ele>1250.8</ele><time>2023-07-20T18:52:23Z</time></trkpt>
<trkpt lat="46.75309" lon="6.45097"><ele>1249.4</ele><time>2023-07-20T18:52:24Z</time></trkpt>
<trkpt lat="46.75302" lon="6.45085"><ele>1248.4</ele><time>2023-07-20T18:52:25Z</time></trkpt>
<trkpt lat="46.75295" lon="6.45073"><ele>1247.4</ele><time>2023-07-20T18:52:26Z</time></trkpt>
<trkpt lat="46.75289" lon="6.45061"><ele>1246</ele><time>2023-07-20T18:52:27Z</time></trkpt>
<trkpt lat="46.75282" lon="6.45047"><ele>1244.6</ele><time>2023-07-20T18:52:28Z</time></trkpt>
<trkpt lat="46.75266" lon="6.45004"><ele>1243.2</ele><time>2023-07-20T18:52:31Z</time></trkpt>
<trkpt lat="46.75263" lon="6.4499"><ele>1242.2</ele><time>2023-07-20T18:52:32Z</time></trkpt>
<trkpt lat="46.75261" lon="6.44975"><ele>1241.4</ele><time>2023-07-20T18:52:33Z</time></trkpt>
<trkpt lat="46.7526" lon="6.44961"><ele>1240.4</ele><time>2023-07-20T18:52:34Z</time></trkpt>
<trkpt lat="46.75259" lon="6.44948"><ele>1239</ele><time>2023-07-20T18:52:35Z</time></trkpt>
<trkpt lat="46.75259" lon="6.44921"><ele>1237.4</ele><time>2023-07-20T18:52:37Z</time></trkpt>
<trkpt lat="46.75264" lon="6.44895"><ele>1235.4</ele><time>2023-07-20T18:52:39Z</time></trkpt>
<trkpt lat="46.75271" lon="6.4487"><ele>1234</ele><time>2023-07-20T18:52:41Z</time></trkpt>
<trkpt lat="46.75283" lon="6.44834"><ele>1232.4</ele><time>2023-07-20T18:52:44Z</time></trkpt>
<trkpt lat="46.75293" lon="6.44809"><ele>1230.6</ele><time>2023-07-20T18:52:46Z</time></trkpt>
<trkpt lat="46.75304" lon="6.44785"><ele>1229.2</ele><time>2023-07-20T18:52:48Z</time></trkpt>
<trkpt lat="46.75311" lon="6.44775"><ele>1228.8</ele><time>2023-07-20T18:52:49Z</time></trkpt>
<trkpt lat="46.75318" lon="6.44766"><ele>1228.2</ele><time>2023-07-20T18:52:50Z</time></trkpt>
<trkpt lat="46.75326" lon="6.44758"><ele>1227.8</ele><time>2023-07-20T18:52:51Z</time></trkpt>
<trkpt lat="46.75342" lon="6.44744"><ele>1226.4</ele><time>2023-07-20T18:52:53Z</time></trkpt>
<trkpt lat="46.75345" lon="6.44734"><ele>1224.4</ele><time>2023-07-20T18:52:54Z</time></trkpt>
<trkpt lat="46.75344" lon="6.44723"><ele>1223.2</ele><time>2023-07-20T18:52:55Z</time></trkpt>
<trkpt lat="46.75341" lon="6.44714"><ele>1221.4</ele><time>2023-07-20T18:52:56Z</time></trkpt>
<trkpt lat="46.75331" lon="6.44698"><ele>1220.8</ele><time>2023-07-20T18:52:58Z</time></trkpt>
<trkpt lat="46.75326" lon="6.44691"><ele>1220.2</ele><time>2023-07-20T18:52:59Z</time></trkpt>
<trkpt lat="46.75314" lon="6.44675"><ele>1219.6</ele><time>2023-07-20T18:53:01Z</time></trkpt>
<trkpt lat="46.75301" lon="6.44662"><ele>1219.2</ele><time>2023-07-20T18:53:03Z</time></trkpt>
<trkpt lat="46.75293" lon="6.44658"><ele>1218.8</ele><time>2023-07-20T18:53:04Z</time></trkpt>
<trkpt lat="46.75284" lon="6.44656"><ele>1218.4</ele><time>2023-07-20T18:53:05Z</time></trkpt>
<trkpt lat="46.75276" lon="6.44654"><ele>1218</ele><time>2023-07-20T18:53:06Z</time></trkpt>
<trkpt lat="46.75269" lon="6.44651"><ele>1217.6</ele><time>2023-07-20T18:53:07Z</time></trkpt>
<trkpt lat="46.75262" lon="6.44647"><ele>1217.4</ele><time>2023-07-20T18:53:08Z</time></trkpt>
<trkpt lat="46.7525" lon="6.44634"><ele>1215.8</ele><time>2023-07-20T18:53:10Z</time></trkpt>
<trkpt lat="46.75244" lon="6.44626"><ele>1213.8</ele><time>2023-07-20T18:53:11Z</time></trkpt>
<trkpt lat="46.7523" lon="6.44608"><ele>1212.6</ele><time>2023-07-20T18:53:13Z</time></trkpt>
<trkpt lat="46.75223" lon="6.44597"><ele>1212.2</ele><time>2023-07-20T18:53:14Z</time></trkpt>
<trkpt lat="46.75208" lon="6.44574"><ele>1211</ele><time>2023-07-20T18:53:16Z</time></trkpt>
<trkpt lat="46.7519" lon="6.44549"><ele>1210</ele><time>2023-07-20T18:53:18Z</time></trkpt>
<trkpt lat="46.75181" lon="6.44538"><ele>1209</ele><time>2023-07-20T18:53:19Z</time></trkpt>
<trkpt lat="46.7517" lon="6.4453"><ele>1207</ele><time>2023-07-20T18:53:20Z</time></trkpt>
<trkpt lat="46.75158" lon="6.44524"><ele>1206.4</ele><time>2023-07-20T18:53:21Z</time></trkpt>
<trkpt lat="46.75145" lon="6.44519"><ele>1205.2</ele><time>2023-07-20T18:53:22Z</time></trkpt>
<trkpt lat="46.75133" lon="6.44515"><ele>1203</ele><time>2023-07-20T18:53:23Z</time></trkpt>
<trkpt lat="46.75121" lon="6.4451"><ele>1200.8</ele><time>2023-07-20T18:53:24Z</time></trkpt>
<trkpt lat="46.75109" lon="6.44504"><ele>1199.4</ele><time>2023-07-20T18:53:25Z</time></trkpt>
<trkpt lat="46.75097" lon="6.44497"><ele>1198.8</ele><time>2023-07-20T18:53:26Z</time></trkpt>
<trkpt lat="46.75085" lon="6.44488"><ele>1198.2</ele><time>2023-07-20T18:53:27Z</time></trkpt>
<trkpt lat="46.75065" lon="6.44465"><ele>1197.2</ele><time>2023-07-20T18:53:29Z</time></trkpt>
<trkpt lat="46.75045" lon="6.4444"><ele>1195.2</ele><time>2023-07-20T18:53:31Z</time></trkpt>
<trkpt lat="46.75034" lon="6.44429"><ele>1194.6</ele><time>2023-07-20T18:53:32Z</time></trkpt>
<trkpt lat="46.75023" lon="6.4442"><ele>1192</ele><time>2023-07-20T18:53:33Z</time></trkpt>
<trkpt lat="46.75011" lon="6.44412"><ele>1188.2</ele><time>2023-07-20T18:53:34Z</time></trkpt>
<trkpt lat="46.74989" lon="6.44393"><ele>1187.2</ele><time>2023-07-20T18:53:36Z</time></trkpt>
<trkpt lat="46.7498" lon="6.4438"><ele>1186.6</ele><time>2023-07-20T18:53:37Z</time></trkpt>
<trkpt lat="46.74974" lon="6.44366"><ele>1185.6</ele><time>2023-07-20T18:53:38Z</time></trkpt>
<trkpt lat="46.74968" lon="6.44351"><ele>1185.4</ele><time>2023-07-20T18:53:39Z</time></trkpt>
<trkpt lat="46.74959" lon="6.44321"><ele>1185</ele><time>2023-07-20T18:53:41Z</time></trkpt>
<trkpt lat="46.74944" lon="6.44276"><ele>1183</ele><time>2023-07-20T18:53:44Z</time></trkpt>
<trkpt lat="46.74934" lon="6.44246"><ele>1180.8</ele><time>2023-07-20T18:53:46Z</time></trkpt>
<trkpt lat="46.74929" lon="6.4423"><ele>1177.8</ele><time>2023-07-20T18:53:47Z</time></trkpt>
<trkpt lat="46.74924" lon="6.44215"><ele>1176</ele><time>2023-07-20T18:53:48Z</time></trkpt>
<trkpt lat="46.7492" lon="6.44201"><ele>1175</ele><time>2023-07-20T18:53:49Z</time></trkpt>
<trkpt lat="46.74915" lon="6.44187"><ele>1174.2</ele><time>2023-07-20T18:53:50Z</time></trkpt>
<trkpt lat="46.74909" lon="6.44173"><ele>1171.4</ele><time>2023-07-20T18:53:51Z</time></trkpt>
<trkpt lat="46.74889" lon="6.44134"><ele>1170.2</ele><time>2023-07-20T18:53:54Z</time></trkpt>
<trkpt lat="46.74867" lon="6.44096"><ele>1169</ele><time>2023-07-20T18:53:57Z</time></trkpt>
<trkpt lat="46.74859" lon="6.44084"><ele>1167</ele><time>2023-07-20T18:53:58Z</time></trkpt>
<trkpt lat="46.74852" lon="6.44072"><ele>1165.4</ele><time>2023-07-20T18:53:59Z</time></trkpt>
<trkpt lat="46.74845" lon="6.4406"><ele>1163.8</ele><time>2023-07-20T18:54:00Z</time></trkpt>
<trkpt lat="46.74838" lon="6.44048"><ele>1163.4</ele><time>2023-07-20T18:54:01Z</time></trkpt>
<trkpt lat="46.74832" lon="6.44035"><ele>1162.4</ele><time>2023-07-20T18:54:02Z</time></trkpt>
<trkpt lat="46.74827" lon="6.44021"><ele>1162.2</ele><time>2023-07-20T18:54:03Z</time></trkpt>
<trkpt lat="46.74819" lon="6.43991"><ele>1161.8</ele><time>2023-07-20T18:54:05Z</time></trkpt>
<trkpt lat="46.74817" lon="6.43975"><ele>1161</ele><time>2023-07-20T18:54:06Z</time></trkpt>
<trkpt lat="46.74805" lon="6.43909"><ele>1159.2</ele><time>2023-07-20T18:54:10Z</time></trkpt>
<trkpt lat="46.74803" lon="6.43892"><ele>1158.6</ele><time>2023-07-20T18:54:11Z</time></trkpt>
<trkpt lat="46.748" lon="6.43875"><ele>1157.6</ele><time>2023-07-20T18:54:12Z</time></trkpt>
<trkpt lat="46.74797" lon="6.43858"><ele>1156.4</ele><time>2023-07-20T18:54:13Z</time></trkpt>
<trkpt lat="46.74795" lon="6.43841"><ele>1155.2</ele><time>2023-07-20T18:54:14Z</time></trkpt>
<trkpt lat="46.74787" lon="6.4379"><ele>1153.8</ele><time>2023-07-20T18:54:17Z</time></trkpt>
<trkpt lat="46.74778" lon="6.43739"><ele>1153</ele><time>2023-07-20T18:54:20Z</time></trkpt>
<trkpt lat="46.74777" lon="6.43722"><ele>1152.2</ele><time>2023-07-20T18:54:21Z</time></trkpt>
<trkpt lat="46.74777" lon="6.43688"><ele>1150.8</ele><time>2023-07-20T18:54:23Z</time></trkpt>
<trkpt lat="46.74778" lon="6.43671"><ele>1150</ele><time>2023-07-20T18:54:24Z</time></trkpt>
<trkpt lat="46.74779" lon="6.43655"><ele>1147.8</ele><time>2023-07-20T18:54:25Z</time></trkpt>
<trkpt lat="46.74778" lon="6.43608"><ele>1146.6</ele><time>2023-07-20T18:54:28Z</time></trkpt>
<trkpt lat="46.74777" lon="6.43593"><ele>1146.6</ele><time>2023-07-20T18:54:29Z</time></trkpt>
<trkpt lat="46.74775" lon="6.43579"><ele>1146.4</ele><time>2023-07-20T18:54:30Z</time></trkpt>
<trkpt lat="46.74767" lon="6.43551"><ele>1143.8</ele><time>2023-07-20T18:54:32Z</time></trkpt>
<trkpt lat="46.74754" lon="6.4351"><ele>1142.6</ele><time>2023-07-20T18:54:35Z</time></trkpt>
<trkpt lat="46.74744" lon="6.43484"><ele>1140.6</ele><time>2023-07-20T18:54:37Z</time></trkpt>
<trkpt lat="46.74739" lon="6.43471"><ele>1140.2</ele><time>2023-07-20T18:54:38Z</time></trkpt>
<trkpt lat="46.74736" lon="6.43456"><ele>1139.4</ele><time>2023-07-20T18:54:39Z</time></trkpt>
<trkpt lat="46.74729" lon="6.43411"><ele>1138.4</ele><time>2023-07-20T18:54:42Z</time></trkpt>
<trkpt lat="46.74722" lon="6.4338"><ele>1137</ele><time>2023-07-20T18:54:44Z</time></trkpt>
<trkpt lat="46.74718" lon="6.43364"><ele>1135.6</ele><time>2023-07-20T18:54:45Z</time></trkpt>
<trkpt lat="46.74712" lon="6.43348"><ele>1134</ele><time>2023-07-20T18:54:46Z</time></trkpt>
<trkpt lat="46.747" lon="6.43317"><ele>1132.4</ele><time>2023-07-20T18:54:48Z</time></trkpt>
<trkpt lat="46.74687" lon="6.43284"><ele>1130.6</ele><time>2023-07-20T18:54:50Z</time></trkpt>
<trkpt lat="46.7468" lon="6.43268"><ele>1129</ele><time>2023-07-20T18:54:51Z</time></trkpt>
<trkpt lat="46.74674" lon="6.43252"><ele>1128</ele><time>2023-07-20T18:54:52Z</time></trkpt>
<trkpt lat="46.74668" lon="6.43235"><ele>1127</ele><time>2023-07-20T18:54:53Z</time></trkpt>
<trkpt lat="46.74658" lon="6.43199"><ele>1125.2</ele><time>2023-07-20T18:54:55Z</time></trkpt>
<trkpt lat="46.74653" lon="6.43181"><ele>1124.6</ele><time>2023-07-20T18:54:56Z</time></trkpt>
<trkpt lat="46.74643" lon="6.43147"><ele>1123.2</ele><time>2023-07-20T18:54:58Z</time></trkpt>
<trkpt lat="46.74638" lon="6.43133"><ele>1122</ele><time>2023-07-20T18:54:59Z</time></trkpt>
<trkpt lat="46.74631" lon="6.4312"><ele>1120.4</ele><time>2023-07-20T18:55:00Z</time></trkpt>
<trkpt lat="46.74623" lon="6.43108"><ele>1118.8</ele><time>2023-07-20T18:55:01Z</time></trkpt>
<trkpt lat="46.74615" lon="6.43097"><ele>1117.6</ele><time>2023-07-20T18:55:02Z</time></trkpt>
<trkpt lat="46.74606" lon="6.43086"><ele>1115.6</ele><time>2023-07-20T18:55:03Z</time></trkpt>
<trkpt lat="46.74587" lon="6.43066"><ele>1114.2</ele><time>2023-07-20T18:55:05Z</time></trkpt>
<trkpt lat="46.74568" lon="6.43043"><ele>1112.8</ele><time>2023-07-20T18:55:07Z</time></trkpt>
<trkpt lat="46.7456" lon="6.43032"><ele>1111.6</ele><time>2023-07-20T18:55:08Z</time></trkpt>
<trkpt lat="46.74545" lon="6.43008"><ele>1110</ele><time>2023-07-20T18:55:10Z</time></trkpt>
<trkpt lat="46.74538" lon="6.42996"><ele>1109</ele><time>2023-07-20T18:55:11Z</time></trkpt>
<trkpt lat="46.74532" lon="6.42985"><ele>1108.4</ele><time>2023-07-20T18:55:12Z</time></trkpt>
<trkpt lat="46.7452" lon="6.42961"><ele>1106.6</ele><time>2023-07-20T18:55:14Z</time></trkpt>
<trkpt lat="46.74511" lon="6.42939"><ele>1105</ele><time>2023-07-20T18:55:16Z</time></trkpt>
<trkpt lat="46.74499" lon="6.42907"><ele>1103.4</ele><time>2023-07-20T18:55:19Z</time></trkpt>
<trkpt lat="46.74493" lon="6.429"><ele>1103.2</ele><time>2023-07-20T18:55:20Z</time></trkpt>
<trkpt lat="46.74488" lon="6.42898"><ele>1102.8</ele><time>2023-07-20T18:55:21Z</time></trkpt>
<trkpt lat="46.74483" lon="6.429"><ele>1102.6</ele><time>2023-07-20T18:55:22Z</time></trkpt>
<trkpt lat="46.74479" lon="6.42901"><ele>1102.4</ele><time>2023-07-20T18:55:23Z</time></trkpt>
<trkpt lat="46.74471" lon="6.42904"><ele>1102.4</ele><time>2023-07-20T18:55:26Z</time></trkpt>
<trkpt lat="46.74476" lon="6.42923"><ele>1101.8</ele><time>2023-07-20T18:55:29Z</time></trkpt>
<trkpt lat="46.74479" lon="6.42938"><ele>1101.4</ele><time>2023-07-20T18:55:31Z</time></trkpt>
<trkpt lat="46.74481" lon="6.42957"><ele>1100.4</ele><time>2023-07-20T18:55:33Z</time></trkpt>
<trkpt lat="46.74481" lon="6.42968"><ele>1099.6</ele><time>2023-07-20T18:55:34Z</time></trkpt>
<trkpt lat="46.7448" lon="6.42979"><ele>1098.4</ele><time>2023-07-20T18:55:35Z</time></trkpt>
<trkpt lat="46.74478" lon="6.43001"><ele>1096.4</ele><time>2023-07-20T18:55:37Z</time></trkpt>
<trkpt lat="46.74477" lon="6.43013"><ele>1095.2</ele><time>2023-07-20T18:55:38Z</time></trkpt>
<trkpt lat="46.74476" lon="6.43024"><ele>1094.2</ele><time>2023-07-20T18:55:39Z</time></trkpt>
<trkpt lat="46.74474" lon="6.43036"><ele>1093</ele><time>2023-07-20T18:55:40Z</time></trkpt>
<trkpt lat="46.74473" lon="6.43048"><ele>1092</ele><time>2023-07-20T18:55:41Z</time></trkpt>
<trkpt lat="46.74472" lon="6.43059"><ele>1090.6</ele><time>2023-07-20T18:55:42Z</time></trkpt>
<trkpt lat="46.74472" lon="6.43083"><ele>1088.8</ele><time>2023-07-20T18:55:44Z</time></trkpt>
<trkpt lat="46.74473" lon="6.43108"><ele>1086.8</ele><time>2023-07-20T18:55:46Z</time></trkpt>
<trkpt lat="46.74474" lon="6.4312"><ele>1085.4</ele><time>2023-07-20T18:55:47Z</time></trkpt>
<trkpt lat="46.74475" lon="6.43143"><ele>1083.4</ele><time>2023-07-20T18:55:49Z</time></trkpt>
<trkpt lat="46.74475" lon="6.43154"><ele>1083</ele><time>2023-07-20T18:55:50Z</time></trkpt>
<trkpt lat="46.74473" lon="6.43165"><ele>1082</ele><time>2023-07-20T18:55:51Z</time></trkpt>
<trkpt lat="46.7447" lon="6.43176"><ele>1080.8</ele><time>2023-07-20T18:55:52Z</time></trkpt>
<trkpt lat="46.74467" lon="6.43188"><ele>1079.4</ele><time>2023-07-20T18:55:53Z</time></trkpt>
<trkpt lat="46.74464" lon="6.43199"><ele>1078.2</ele><time>2023-07-20T18:55:54Z</time></trkpt>
<trkpt lat="46.74461" lon="6.4321"><ele>1077.4</ele><time>2023-07-20T18:55:55Z</time></trkpt>
<trkpt lat="46.74458" lon="6.4322"><ele>1076.8</ele><time>2023-07-20T18:55:56Z</time></trkpt>
<trkpt lat="46.74454" lon="6.43229"><ele>1075.4</ele><time>2023-07-20T18:55:57Z</time></trkpt>
<trkpt lat="46.74451" lon="6.43239"><ele>1074.2</ele><time>2023-07-20T18:55:58Z</time></trkpt>
<trkpt lat="46.74441" lon="6.43257"><ele>1073</ele><time>2023-07-20T18:56:00Z</time></trkpt>
<trkpt lat="46.74427" lon="6.43266"><ele>1071</ele><time>2023-07-20T18:56:02Z</time></trkpt>
<trkpt lat="46.74419" lon="6.43267"><ele>1070.2</ele><time>2023-07-20T18:56:03Z</time></trkpt>
<trkpt lat="46.74411" lon="6.43268"><ele>1069</ele><time>2023-07-20T18:56:04Z</time></trkpt>
<trkpt lat="46.74394" lon="6.43269"><ele>1066.8</ele><time>2023-07-20T18:56:06Z</time></trkpt>
<trkpt lat="46.74385" lon="6.4327"><ele>1065.2</ele><time>2023-07-20T18:56:07Z</time></trkpt>
<trkpt lat="46.74376" lon="6.4327"><ele>1064.6</ele><time>2023-07-20T18:56:08Z</time></trkpt>
<trkpt lat="46.74368" lon="6.43269"><ele>1062.8</ele><time>2023-07-20T18:56:09Z</time></trkpt>
<trkpt lat="46.7436" lon="6.43267"><ele>1061.2</ele><time>2023-07-20T18:56:10Z</time></trkpt>
<trkpt lat="46.74353" lon="6.43265"><ele>1059.4</ele><time>2023-07-20T18:56:11Z</time></trkpt>
<trkpt lat="46.74346" lon="6.43263"><ele>1059</ele><time>2023-07-20T18:56:12Z</time></trkpt>
<trkpt lat="46.74339" lon="6.43263"><ele>1058.2</ele><time>2023-07-20T18:56:13Z</time></trkpt>
<trkpt lat="46.74332" lon="6.43264"><ele>1056.2</ele><time>2023-07-20T18:56:14Z</time></trkpt>
<trkpt lat="46.74318" lon="6.43272"><ele>1054.2</ele><time>2023-07-20T18:56:16Z</time></trkpt>
<trkpt lat="46.74311" lon="6.43276"><ele>1052.4</ele><time>2023-07-20T18:56:17Z</time></trkpt>
<trkpt lat="46.74296" lon="6.43285"><ele>1050.4</ele><time>2023-07-20T18:56:19Z</time></trkpt>
<trkpt lat="46.7428" lon="6.43297"><ele>1048.2</ele><time>2023-07-20T18:56:21Z</time></trkpt>
<trkpt lat="46.74271" lon="6.43303"><ele>1046.2</ele><time>2023-07-20T18:56:22Z</time></trkpt>
<trkpt lat="46.74262" lon="6.43308"><ele>1044.4</ele><time>2023-07-20T18:56:23Z</time></trkpt>
<trkpt lat="46.74245" lon="6.43317"><ele>1042.8</ele><time>2023-07-20T18:56:25Z</time></trkpt>
<trkpt lat="46.74237" lon="6.43322"><ele>1041.6</ele><time>2023-07-20T18:56:26Z</time></trkpt>
<trkpt lat="46.74229" lon="6.43327"><ele>1040</ele><time>2023-07-20T18:56:27Z</time></trkpt>
<trkpt lat="46.74216" lon="6.43338"><ele>1037.4</ele><time>2023-07-20T18:56:29Z</time></trkpt>
<trkpt lat="46.74209" lon="6.43345"><ele>1036.2</ele><time>2023-07-20T18:56:30Z</time></trkpt>
<trkpt lat="46.74204" lon="6.43353"><ele>1035</ele><time>2023-07-20T18:56:31Z</time></trkpt>
<trkpt lat="46.74196" lon="6.43373"><ele>1033.4</ele><time>2023-07-20T18:56:33Z</time></trkpt>
<trkpt lat="46.74191" lon="6.43385"><ele>1032.8</ele><time>2023-07-20T18:56:34Z</time></trkpt>
<trkpt lat="46.74187" lon="6.43395"><ele>1031.8</ele><time>2023-07-20T18:56:35Z</time></trkpt>
<trkpt lat="46.74182" lon="6.43406"><ele>1030.6</ele><time>2023-07-20T18:56:36Z</time></trkpt>
<trkpt lat="46.74177" lon="6.43415"><ele>1029</ele><time>2023-07-20T18:56:37Z</time></trkpt>
<trkpt lat="46.74171" lon="6.43426"><ele>1028</ele><time>2023-07-20T18:56:38Z</time></trkpt>
<trkpt lat="46.74166" lon="6.43437"><ele>1026.2</ele><time>2023-07-20T18:56:39Z</time></trkpt>
<trkpt lat="46.74161" lon="6.43447"><ele>1025.2</ele><time>2023-07-20T18:56:40Z</time></trkpt>
<trkpt lat="46.74155" lon="6.43459"><ele>1023.4</ele><time>2023-07-20T18:56:41Z</time></trkpt>
<trkpt lat="46.7415" lon="6.43471"><ele>1022.4</ele><time>2023-07-20T18:56:42Z</time></trkpt>
<trkpt lat="46.7414" lon="6.43497"><ele>1019.8</ele><time>2023-07-20T18:56:44Z</time></trkpt>
<trkpt lat="46.74134" lon="6.43509"><ele>1018.4</ele><time>2023-07-20T18:56:45Z</time></trkpt>
<trkpt lat="46.74129" lon="6.43521"><ele>1017</ele><time>2023-07-20T18:56:46Z</time></trkpt>
<trkpt lat="46.74125" lon="6.43534"><ele>1015.8</ele><time>2023-07-20T18:56:47Z</time></trkpt>
<trkpt lat="46.7412" lon="6.43546"><ele>1014.4</ele><time>2023-07-20T18:56:48Z</time></trkpt>
<trkpt lat="46.74115" lon="6.43558"><ele>1013</ele><time>2023-07-20T18:56:49Z</time></trkpt>
<trkpt lat="46.74109" lon="6.43568"><ele>1011.4</ele><time>2023-07-20T18:56:50Z</time></trkpt>
<trkpt lat="46.74103" lon="6.43578"><ele>1009.8</ele><time>2023-07-20T18:56:51Z</time></trkpt>
<trkpt lat="46.74098" lon="6.43587"><ele>1008.8</ele><time>2023-07-20T18:56:52Z</time></trkpt>
<trkpt lat="46.74092" lon="6.43596"><ele>1007.2</ele><time>2023-07-20T18:56:53Z</time></trkpt>
<trkpt lat="46.74083" lon="6.43615"><ele>1004.6</ele><time>2023-07-20T18:56:55Z</time></trkpt>
<trkpt lat="46.74074" lon="6.43635"><ele>1003</ele><time>2023-07-20T18:56:57Z</time></trkpt>
<trkpt lat="46.7407" lon="6.43645"><ele>1001.2</ele><time>2023-07-20T18:56:58Z</time></trkpt>
<trkpt lat="46.74065" lon="6.43654"><ele>1000.2</ele><time>2023-07-20T18:56:59Z</time></trkpt>
<trkpt lat="46.7406" lon="6.43663"><ele>999</ele><time>2023-07-20T18:57:00Z</time></trkpt>
<trkpt lat="46.74056" lon="6.43671"><ele>997.6</ele><time>2023-07-20T18:57:01Z</time></trkpt>
<trkpt lat="46.74046" lon="6.43688"><ele>995.2</ele><time>2023-07-20T18:57:03Z</time></trkpt>
<trkpt lat="46.74041" lon="6.43697"><ele>993.8</ele><time>2023-07-20T18:57:04Z</time></trkpt>
<trkpt lat="46.74036" lon="6.43706"><ele>992</ele><time>2023-07-20T18:57:05Z</time></trkpt>
<trkpt lat="46.74031" lon="6.43716"><ele>990.2</ele><time>2023-07-20T18:57:06Z</time></trkpt>
<trkpt lat="46.74025" lon="6.43725"><ele>988.8</ele><time>2023-07-20T18:57:07Z</time></trkpt>
<trkpt lat="46.7402" lon="6.43734"><ele>987.6</ele><time>2023-07-20T18:57:08Z</time></trkpt>
<trkpt lat="46.74015" lon="6.43742"><ele>985.6</ele><time>2023-07-20T18:57:09Z</time></trkpt>
<trkpt lat="46.7401" lon="6.4375"><ele>983.6</ele><time>2023-07-20T18:57:10Z</time></trkpt>
<trkpt lat="46.74006" lon="6.43758"><ele>981.8</ele><time>2023-07-20T18:57:11Z</time></trkpt>
<trkpt lat="46.74002" lon="6.43766"><ele>979.8</ele><time>2023-07-20T18:57:12Z</time></trkpt>
<trkpt lat="46.73998" lon="6.43773"><ele>978.4</ele><time>2023-07-20T18:57:13Z</time></trkpt>
<trkpt lat="46.73994" lon="6.4378"><ele>977</ele><time>2023-07-20T18:57:14Z</time></trkpt>
<trkpt lat="46.73991" lon="6.43786"><ele>975</ele><time>2023-07-20T18:57:15Z</time></trkpt>
<trkpt lat="46.73989" lon="6.43793"><ele>974</ele><time>2023-07-20T18:57:16Z</time></trkpt>
<trkpt lat="46.73988" lon="6.43802"><ele>973</ele><time>2023-07-20T18:57:17Z</time></trkpt>
<trkpt lat="46.73987" lon="6.43811"><ele>971.6</ele><time>2023-07-20T18:57:18Z</time></trkpt>
<trkpt lat="46.73986" lon="6.43822"><ele>970.2</ele><time>2023-07-20T18:57:19Z</time></trkpt>
<trkpt lat="46.73986" lon="6.43834"><ele>968.8</ele><time>2023-07-20T18:57:20Z</time></trkpt>
<trkpt lat="46.73984" lon="6.43856"><ele>965.8</ele><time>2023-07-20T18:57:22Z</time></trkpt>
<trkpt lat="46.73983" lon="6.43866"><ele>964.8</ele><time>2023-07-20T18:57:23Z</time></trkpt>
<trkpt lat="46.73983" lon="6.43877"><ele>962.8</ele><time>2023-07-20T18:57:24Z</time></trkpt>
<trkpt lat="46.73984" lon="6.43889"><ele>962</ele><time>2023-07-20T18:57:25Z</time></trkpt>
<trkpt lat="46.73985" lon="6.439"><ele>960.4</ele><time>2023-07-20T18:57:26Z</time></trkpt>
<trkpt lat="46.73986" lon="6.43913"><ele>959.4</ele><time>2023-07-20T18:57:27Z</time></trkpt>
<trkpt lat="46.73987" lon="6.43926"><ele>958.2</ele><time>2023-07-20T18:57:28Z</time></trkpt>
<trkpt lat="46.73988" lon="6.43939"><ele>956.4</ele><time>2023-07-20T18:57:29Z</time></trkpt>
<trkpt lat="46.73989" lon="6.43953"><ele>954.8</ele><time>2023-07-20T18:57:30Z</time></trkpt>
<trkpt lat="46.73992" lon="6.43979"><ele>953</ele><time>2023-07-20T18:57:32Z</time></trkpt>
<trkpt lat="46.73994" lon="6.43991"><ele>951.6</ele><time>2023-07-20T18:57:33Z</time></trkpt>
<trkpt lat="46.73996" lon="6.44003"><ele>950</ele><time>2023-07-20T18:57:34Z</time></trkpt>
<trkpt lat="46.73998" lon="6.44028"><ele>947.8</ele><time>2023-07-20T18:57:36Z</time></trkpt>
<trkpt lat="46.74001" lon="6.44042"><ele>946.4</ele><time>2023-07-20T18:57:37Z</time></trkpt>
<trkpt lat="46.74003" lon="6.44056"><ele>945.6</ele><time>2023-07-20T18:57:38Z</time></trkpt>
<trkpt lat="46.74005" lon="6.44071"><ele>944.8</ele><time>2023-07-20T18:57:39Z</time></trkpt>
<trkpt lat="46.74006" lon="6.44085"><ele>943.4</ele><time>2023-07-20T18:57:40Z</time></trkpt>
<trkpt lat="46.74007" lon="6.441"><ele>942</ele><time>2023-07-20T18:57:41Z</time></trkpt>
<trkpt lat="46.74008" lon="6.44114"><ele>940.2</ele><time>2023-07-20T18:57:42Z</time></trkpt>
<trkpt lat="46.74009" lon="6.44129"><ele>938.4</ele><time>2023-07-20T18:57:43Z</time></trkpt>
<trkpt lat="46.74011" lon="6.44157"><ele>935.8</ele><time>2023-07-20T18:57:45Z</time></trkpt>
<trkpt lat="46.74013" lon="6.44187"><ele>933.8</ele><time>2023-07-20T18:57:47Z</time></trkpt>
<trkpt lat="46.74015" lon="6.44201"><ele>932.4</ele><time>2023-07-20T18:57:48Z</time></trkpt>
<trkpt lat="46.74016" lon="6.44215"><ele>930.6</ele><time>2023-07-20T18:57:49Z</time></trkpt>
<trkpt lat="46.74018" lon="6.44229"><ele>929</ele><time>2023-07-20T18:57:50Z</time></trkpt>
<trkpt lat="46.74018" lon="6.44243"><ele>927.2</ele><time>2023-07-20T18:57:51Z</time></trkpt>
<trkpt lat="46.74019" lon="6.44257"><ele>925.6</ele><time>2023-07-20T18:57:52Z</time></trkpt>
<trkpt lat="46.74019" lon="6.4427"><ele>924.2</ele><time>2023-07-20T18:57:53Z</time></trkpt>
<trkpt lat="46.74018" lon="6.44285"><ele>923.2</ele><time>2023-07-20T18:57:54Z</time></trkpt>
<trkpt lat="46.74019" lon="6.44299"><ele>921</ele><time>2023-07-20T18:57:55Z</time></trkpt>
<trkpt lat="46.7402" lon="6.44314"><ele>920</ele><time>2023-07-20T18:57:56Z</time></trkpt>
<trkpt lat="46.74022" lon="6.44329"><ele>918.4</ele><time>2023-07-20T18:57:57Z</time></trkpt>
<trkpt lat="46.74024" lon="6.44344"><ele>916.8</ele><time>2023-07-20T18:57:58Z</time></trkpt>
<trkpt lat="46.74027" lon="6.44358"><ele>914.8</ele><time>2023-07-20T18:57:59Z</time></trkpt>
<trkpt lat="46.74029" lon="6.4437"><ele>913.8</ele><time>2023-07-20T18:58:00Z</time></trkpt>
<trkpt lat="46.74032" lon="6.44382"><ele>912</ele><time>2023-07-20T18:58:01Z</time></trkpt>
<trkpt lat="46.74036" lon="6.44394"><ele>910.2</ele><time>2023-07-20T18:58:02Z</time></trkpt>
<trkpt lat="46.74039" lon="6.44406"><ele>909</ele><time>2023-07-20T18:58:03Z</time></trkpt>
<trkpt lat="46.74042" lon="6.4442"><ele>908</ele><time>2023-07-20T18:58:04Z</time></trkpt>
<trkpt lat="46.74044" lon="6.44433"><ele>906.6</ele><time>2023-07-20T18:58:05Z</time></trkpt>
<trkpt lat="46.74045" lon="6.44447"><ele>905.2</ele><time>2023-07-20T18:58:06Z</time></trkpt>
<trkpt lat="46.74046" lon="6.4446"><ele>903.8</ele><time>2023-07-20T18:58:07Z</time></trkpt>
<trkpt lat="46.74047" lon="6.44473"><ele>901.8</ele><time>2023-07-20T18:58:08Z</time></trkpt>
<trkpt lat="46.74047" lon="6.44485"><ele>901</ele><time>2023-07-20T18:58:09Z</time></trkpt>
<trkpt lat="46.74047" lon="6.44496"><ele>899.4</ele><time>2023-07-20T18:58:10Z</time></trkpt>
<trkpt lat="46.74047" lon="6.44505"><ele>897.4</ele><time>2023-07-20T18:58:11Z</time></trkpt>
<trkpt lat="46.74047" lon="6.44515"><ele>895.2</ele><time>2023-07-20T18:58:12Z</time></trkpt>
<trkpt lat="46.74048" lon="6.44524"><ele>894.2</ele><time>2023-07-20T18:58:13Z</time></trkpt>
<trkpt lat="46.7405" lon="6.44533"><ele>892.8</ele><time>2023-07-20T18:58:14Z</time></trkpt>
<trkpt lat="46.74053" lon="6.44543"><ele>891.8</ele><time>2023-07-20T18:58:15Z</time></trkpt>
<trkpt lat="46.74057" lon="6.44555"><ele>891.2</ele><time>2023-07-20T18:58:16Z</time></trkpt>
<trkpt lat="46.74061" lon="6.44567"><ele>890.2</ele><time>2023-07-20T18:58:17Z</time></trkpt>
<trkpt lat="46.74066" lon="6.44578"><ele>888.8</ele><time>2023-07-20T18:58:18Z</time></trkpt>
<trkpt lat="46.74071" lon="6.44591"><ele>887.4</ele><time>2023-07-20T18:58:19Z</time></trkpt>
<trkpt lat="46.7408" lon="6.44616"><ele>885.6</ele><time>2023-07-20T18:58:21Z</time></trkpt>
<trkpt lat="46.74089" lon="6.4464"><ele>883.4</ele><time>2023-07-20T18:58:23Z</time></trkpt>
<trkpt lat="46.74093" lon="6.4465"><ele>883.2</ele><time>2023-07-20T18:58:24Z</time></trkpt>
<trkpt lat="46.74098" lon="6.44661"><ele>882</ele><time>2023-07-20T18:58:25Z</time></trkpt>
<trkpt lat="46.74106" lon="6.44682"><ele>880.6</ele><time>2023-07-20T18:58:27Z</time></trkpt>
<trkpt lat="46.7411" lon="6.44693"><ele>879</ele><time>2023-07-20T18:58:28Z</time></trkpt>
<trkpt lat="46.74112" lon="6.44704"><ele>878.4</ele><time>2023-07-20T18:58:29Z</time></trkpt>
<trkpt lat="46.74114" lon="6.44716"><ele>877.8</ele><time>2023-07-20T18:58:30Z</time></trkpt>
<trkpt lat="46.74114" lon="6.44728"><ele>876.2</ele><time>2023-07-20T18:58:31Z</time></trkpt>
<trkpt lat="46.74116" lon="6.44751"><ele>874</ele><time>2023-07-20T18:58:33Z</time></trkpt>
<trkpt lat="46.74118" lon="6.44762"><ele>872.4</ele><time>2023-07-20T18:58:34Z</time></trkpt>
<trkpt lat="46.74121" lon="6.44771"><ele>871.2</ele><time>2023-07-20T18:58:35Z</time></trkpt>
<trkpt lat="46.74124" lon="6.44781"><ele>869.8</ele><time>2023-07-20T18:58:36Z</time></trkpt>
<trkpt lat="46.74126" lon="6.4479"><ele>868.6</ele><time>2023-07-20T18:58:37Z</time></trkpt>
<trkpt lat="46.74129" lon="6.448"><ele>867.4</ele><time>2023-07-20T18:58:38Z</time></trkpt>
<trkpt lat="46.74131" lon="6.44811"><ele>865.8</ele><time>2023-07-20T18:58:39Z</time></trkpt>
<trkpt lat="46.74135" lon="6.44833"><ele>864.4</ele><time>2023-07-20T18:58:41Z</time></trkpt>
<trkpt lat="46.74137" lon="6.44844"><ele>863.2</ele><time>2023-07-20T18:58:42Z</time></trkpt>
<trkpt lat="46.74138" lon="6.44855"><ele>862</ele><time>2023-07-20T18:58:43Z</time></trkpt>
<trkpt lat="46.7414" lon="6.44867"><ele>860.6</ele><time>2023-07-20T18:58:44Z</time></trkpt>
<trkpt lat="46.74144" lon="6.4488"><ele>859</ele><time>2023-07-20T18:58:45Z</time></trkpt>
<trkpt lat="46.74148" lon="6.44892"><ele>858.4</ele><time>2023-07-20T18:58:46Z</time></trkpt>
<trkpt lat="46.74153" lon="6.44905"><ele>857.4</ele><time>2023-07-20T18:58:47Z</time></trkpt>
<trkpt lat="46.74162" lon="6.44934"><ele>856</ele><time>2023-07-20T18:58:49Z</time></trkpt>
<trkpt lat="46.74166" lon="6.44948"><ele>854.2</ele><time>2023-07-20T18:58:50Z</time></trkpt>
<trkpt lat="46.74169" lon="6.44963"><ele>852.6</ele><time>2023-07-20T18:58:51Z</time></trkpt>
<trkpt lat="46.74174" lon="6.44995"><ele>849.6</ele><time>2023-07-20T18:58:53Z</time></trkpt>
<trkpt lat="46.74182" lon="6.45028"><ele>848.4</ele><time>2023-07-20T18:58:55Z</time></trkpt>
<trkpt lat="46.7419" lon="6.4506"><ele>847.4</ele><time>2023-07-20T18:58:57Z</time></trkpt>
<trkpt lat="46.74198" lon="6.45093"><ele>845.8</ele><time>2023-07-20T18:58:59Z</time></trkpt>
<trkpt lat="46.74201" lon="6.45111"><ele>845.4</ele><time>2023-07-20T18:59:00Z</time></trkpt>
<trkpt lat="46.74205" lon="6.45128"><ele>844</ele><time>2023-07-20T18:59:01Z</time></trkpt>
<trkpt lat="46.74211" lon="6.45163"><ele>842.6</ele><time>2023-07-20T18:59:03Z</time></trkpt>
<trkpt lat="46.74213" lon="6.4518"><ele>841.4</ele><time>2023-07-20T18:59:04Z</time></trkpt>
<trkpt lat="46.74215" lon="6.45197"><ele>840.6</ele><time>2023-07-20T18:59:05Z</time></trkpt>
<trkpt lat="46.74216" lon="6.45214"><ele>839.2</ele><time>2023-07-20T18:59:06Z</time></trkpt>
<trkpt lat="46.74217" lon="6.45251"><ele>837.8</ele><time>2023-07-20T18:59:08Z</time></trkpt>
<trkpt lat="46.74217" lon="6.45269"><ele>835</ele><time>2023-07-20T18:59:09Z</time></trkpt>
<trkpt lat="46.74218" lon="6.45286"><ele>834.2</ele><time>2023-07-20T18:59:10Z</time></trkpt>
<trkpt lat="46.74217" lon="6.45304"><ele>832.2</ele><time>2023-07-20T18:59:11Z</time></trkpt>
<trkpt lat="46.74217" lon="6.4532"><ele>830.8</ele><time>2023-07-20T18:59:12Z</time></trkpt>
<trkpt lat="46.74216" lon="6.45337"><ele>829.4</ele><time>2023-07-20T18:59:13Z</time></trkpt>
<trkpt lat="46.74215" lon="6.45367"><ele>828.6</ele><time>2023-07-20T18:59:15Z</time></trkpt>
<trkpt lat="46.74215" lon="6.45381"><ele>827.6</ele><time>2023-07-20T18:59:16Z</time></trkpt>
<trkpt lat="46.74216" lon="6.45393"><ele>824.8</ele><time>2023-07-20T18:59:17Z</time></trkpt>
<trkpt lat="46.74216" lon="6.45419"><ele>822.8</ele><time>2023-07-20T18:59:19Z</time></trkpt>
<trkpt lat="46.74214" lon="6.45444"><ele>821.6</ele><time>2023-07-20T18:59:21Z</time></trkpt>
<trkpt lat="46.74212" lon="6.45467"><ele>820.4</ele><time>2023-07-20T18:59:23Z</time></trkpt>
<trkpt lat="46.74211" lon="6.4548"><ele>819.2</ele><time>2023-07-20T18:59:24Z</time></trkpt>
<trkpt lat="46.74209" lon="6.45491"><ele>818.8</ele><time>2023-07-20T18:59:25Z</time></trkpt>
<trkpt lat="46.74206" lon="6.45514"><ele>817</ele><time>2023-07-20T18:59:27Z</time></trkpt>
<trkpt lat="46.74203" lon="6.45537"><ele>815.6</ele><time>2023-07-20T18:59:29Z</time></trkpt>
<trkpt lat="46.74201" lon="6.45559"><ele>814.2</ele><time>2023-07-20T18:59:31Z</time></trkpt>
<trkpt lat="46.74199" lon="6.45581"><ele>813.6</ele><time>2023-07-20T18:59:33Z</time></trkpt>
<trkpt lat="46.74198" lon="6.45593"><ele>812.6</ele><time>2023-07-20T18:59:34Z</time></trkpt>
<trkpt lat="46.74196" lon="6.45614"><ele>811.6</ele><time>2023-07-20T18:59:36Z</time></trkpt>
<trkpt lat="46.74195" lon="6.45623"><ele>810.6</ele><time>2023-07-20T18:59:37Z</time></trkpt>
<trkpt lat="46.74195" lon="6.45638"><ele>810</ele><time>2023-07-20T18:59:39Z</time></trkpt>
<trkpt lat="46.74195" lon="6.4565"><ele>809.6</ele><time>2023-07-20T18:59:41Z</time></trkpt>
<trkpt lat="46.74193" lon="6.45656"><ele>808.6</ele><time>2023-07-20T18:59:42Z</time></trkpt>
<trkpt lat="46.74191" lon="6.45662"><ele>808</ele><time>2023-07-20T18:59:43Z</time></trkpt>
<trkpt lat="46.74187" lon="6.45667"><ele>807.4</ele><time>2023-07-20T18:59:44Z</time></trkpt>
<trkpt lat="46.74178" lon="6.45677"><ele>806.6</ele><time>2023-07-20T18:59:46Z</time></trkpt>
<trkpt lat="46.74175" lon="6.45684"><ele>806.4</ele><time>2023-07-20T18:59:47Z</time></trkpt>
<trkpt lat="46.74166" lon="6.45694"><ele>804.6</ele><time>2023-07-20T18:59:49Z</time></trkpt>
<trkpt lat="46.74155" lon="6.45693"><ele>804</ele><time>2023-07-20T18:59:51Z</time></trkpt>
<trkpt lat="46.74151" lon="6.4569"><ele>803.4</ele><time>2023-07-20T18:59:52Z</time></trkpt>
<trkpt lat="46.74146" lon="6.45686"><ele>803</ele><time>2023-07-20T18:59:53Z</time></trkpt>
<trkpt lat="46.74142" lon="6.4568"><ele>802.4</ele><time>2023-07-20T18:59:54Z</time></trkpt>
<trkpt lat="46.74138" lon="6.45672"><ele>802</ele><time>2023-07-20T18:59:55Z</time></trkpt>
<trkpt lat="46.74131" lon="6.45656"><ele>800.8</ele><time>2023-07-20T18:59:57Z</time></trkpt>
<trkpt lat="46.74127" lon="6.45651"><ele>800</ele><time>2023-07-20T18:59:58Z</time></trkpt>
<trkpt lat="46.74122" lon="6.45647"><ele>799.2</ele><time>2023-07-20T18:59:59Z</time></trkpt>
<trkpt lat="46.74115" lon="6.45646"><ele>798.4</ele><time>2023-07-20T19:00:00Z</time></trkpt>
<trkpt lat="46.74108" lon="6.45647"><ele>797.8</ele><time>2023-07-20T19:00:01Z</time></trkpt>
<trkpt lat="46.74101" lon="6.45649"><ele>797</ele><time>2023-07-20T19:00:02Z</time></trkpt>
<trkpt lat="46.74093" lon="6.45651"><ele>795.8</ele><time>2023-07-20T19:00:03Z</time></trkpt>
<trkpt lat="46.74079" lon="6.45657"><ele>794.6</ele><time>2023-07-20T19:00:05Z</time></trkpt>
<trkpt lat="46.74073" lon="6.45659"><ele>793.6</ele><time>2023-07-20T19:00:06Z</time></trkpt>
<trkpt lat="46.74063" lon="6.45663"><ele>791.4</ele><time>2023-07-20T19:00:08Z</time></trkpt>
<trkpt lat="46.74059" lon="6.45663"><ele>790.6</ele><time>2023-07-20T19:00:09Z</time></trkpt>
<trkpt lat="46.74055" lon="6.45662"><ele>789.8</ele><time>2023-07-20T19:00:10Z</time></trkpt>
<trkpt lat="46.74048" lon="6.45659"><ele>788.2</ele><time>2023-07-20T19:00:12Z</time></trkpt>
<trkpt lat="46.74045" lon="6.45656"><ele>787.6</ele><time>2023-07-20T19:00:13Z</time></trkpt>
<trkpt lat="46.74038" lon="6.45651"><ele>787</ele><time>2023-07-20T19:00:15Z</time></trkpt>
<trkpt lat="46.74031" lon="6.4565"><ele>786.4</ele><time>2023-07-20T19:00:17Z</time></trkpt>
<trkpt lat="46.74028" lon="6.45652"><ele>786.2</ele><time>2023-07-20T19:00:18Z</time></trkpt>
<trkpt lat="46.74025" lon="6.45654"><ele>786</ele><time>2023-07-20T19:00:19Z</time></trkpt>
<trkpt lat="46.74013" lon="6.45656"><ele>785</ele><time>2023-07-20T19:00:22Z</time></trkpt>
<trkpt lat="46.74003" lon="6.45654"><ele>783.4</ele><time>2023-07-20T19:00:25Z</time></trkpt>
<trkpt lat="46.74" lon="6.45653"><ele>783.2</ele><time>2023-07-20T19:00:26Z</time></trkpt>
<trkpt lat="46.73998" lon="6.45652"><ele>783</ele><time>2023-07-20T19:00:27Z</time></trkpt>
<trkpt lat="46.73996" lon="6.45652"><ele>782.2</ele><time>2023-07-20T19:00:28Z</time></trkpt>
<trkpt lat="46.7399" lon="6.45658"><ele>781.2</ele><time>2023-07-20T19:00:31Z</time></trkpt>
<trkpt lat="46.73988" lon="6.45663"><ele>781.2</ele><time>2023-07-20T19:00:32Z</time></trkpt>
<trkpt lat="46.73987" lon="6.4567"><ele>781</ele><time>2023-07-20T19:00:33Z</time></trkpt>
<trkpt lat="46.73986" lon="6.45686"><ele>780.8</ele><time>2023-07-20T19:00:35Z</time></trkpt>
<trkpt lat="46.73985" lon="6.45694"><ele>780.8</ele><time>2023-07-20T19:00:36Z</time></trkpt>
<trkpt lat="46.7398" lon="6.45722"><ele>780.2</ele><time>2023-07-20T19:00:39Z</time></trkpt>
<trkpt lat="46.73977" lon="6.45746"><ele>779.2</ele><time>2023-07-20T19:00:42Z</time></trkpt>
<trkpt lat="46.73984" lon="6.45752"><ele>778.8</ele><time>2023-07-20T19:00:44Z</time></trkpt>
<trkpt lat="46.74" lon="6.45745"><ele>778.4</ele><time>2023-07-20T19:00:48Z</time></trkpt>
<trkpt lat="46.74005" lon="6.45743"><ele>778.2</ele><time>2023-07-20T19:00:50Z</time></trkpt>
<trkpt lat="46.74006" lon="6.45742"><ele>778.2</ele><time>2023-07-20T19:00:52Z</time></trkpt>
<trkpt lat="46.74005" lon="6.4574"><ele>778</ele><time>2023-07-20T19:00:57Z</time></trkpt>
<trkpt lat="46.74006" lon="6.4574"><ele>778</ele><time>2023-07-20T19:01:00Z</time></trkpt>
</trkseg></trk></gpx>